<?xml version="1.0" encoding="UTF-8"?>
<gpx xmlns:xsi="http://www.w3.org/2001/XMLSchema-instance" xmlns="http://www.topografix.com/GPX/1/1" xmlns:gpxdata="http://www.cluetrust.com/XML/GPXDATA/1/0" xsi:schemaLocation="http://www.topografix.com/GPX/1/1 http://www.topografix.com/GPX/1/1/gpx.xsd http://www.cluetrust.com/XML/GPXDATA/1/0 http://www.cluetrust.com/Schemas/gpxdata10.xsd" version="1.1" creator="http://ridewithgps.com/">
  <metadata>
    <name>2020 Barrelman </name>
    <link href="https://ridewithgps.com/routes/31972469">
      <text>2020 Barrelman </text>
    </link>
    <time>2020-02-20T09:21:15Z</time>
  </metadata>
  <trk>
    <name>2020 Barrelman </name>
    <trkseg>
      <trkpt lat="42.9623" lon="-79.25485">
        <ele>173.9</ele>
        <time>2024-09-15T09:10:00.000Z</time>
      </trkpt>
      <trkpt lat="42.9622" lon="-79.25484">
        <ele>173.9</ele>
        <time>2024-09-15T09:10:01.000Z</time>
      </trkpt>
      <trkpt lat="42.9622" lon="-79.25484">
        <ele>173.9</ele>
        <time>2024-09-15T09:10:01.000Z</time>
      </trkpt>
      <trkpt lat="42.96222" lon="-79.25943">
        <ele>175.1</ele>
        <time>2024-09-15T09:10:38.000Z</time>
      </trkpt>
      <trkpt lat="42.96225" lon="-79.26178">
        <ele>175.9</ele>
        <time>2024-09-15T09:10:57.000Z</time>
      </trkpt>
      <trkpt lat="42.96225" lon="-79.26178">
        <ele>175.9</ele>
        <time>2024-09-15T09:10:57.000Z</time>
      </trkpt>
      <trkpt lat="42.96187" lon="-79.26181">
        <ele>175.9</ele>
        <time>2024-09-15T09:11:01.000Z</time>
      </trkpt>
      <trkpt lat="42.96166" lon="-79.26184">
        <ele>175.9</ele>
        <time>2024-09-15T09:11:03.000Z</time>
      </trkpt>
      <trkpt lat="42.9615099" lon="-79.26185">
        <ele>175.9</ele>
        <time>2024-09-15T09:11:05.000Z</time>
      </trkpt>
      <trkpt lat="42.96137" lon="-79.26187">
        <ele>175.9</ele>
        <time>2024-09-15T09:11:07.000Z</time>
      </trkpt>
      <trkpt lat="42.96083" lon="-79.26194">
        <ele>175.9</ele>
        <time>2024-09-15T09:11:13.000Z</time>
      </trkpt>
      <trkpt lat="42.96012" lon="-79.26203">
        <ele>176.1</ele>
        <time>2024-09-15T09:11:21.000Z</time>
      </trkpt>
      <trkpt lat="42.95997" lon="-79.26205">
        <ele>176.2</ele>
        <time>2024-09-15T09:11:23.000Z</time>
      </trkpt>
      <trkpt lat="42.95886" lon="-79.26217">
        <ele>176.5</ele>
        <time>2024-09-15T09:11:35.000Z</time>
      </trkpt>
      <trkpt lat="42.95868" lon="-79.26218">
        <ele>176.7</ele>
        <time>2024-09-15T09:11:37.000Z</time>
      </trkpt>
      <trkpt lat="42.95798" lon="-79.26219">
        <ele>176.9</ele>
        <time>2024-09-15T09:11:45.000Z</time>
      </trkpt>
      <trkpt lat="42.95705" lon="-79.2622">
        <ele>176.9</ele>
        <time>2024-09-15T09:11:55.000Z</time>
      </trkpt>
      <trkpt lat="42.95651" lon="-79.26218">
        <ele>176.9</ele>
        <time>2024-09-15T09:12:01.000Z</time>
      </trkpt>
      <trkpt lat="42.95596" lon="-79.26221">
        <ele>176.9</ele>
        <time>2024-09-15T09:12:07.000Z</time>
      </trkpt>
      <trkpt lat="42.95596" lon="-79.26221">
        <ele>176.9</ele>
        <time>2024-09-15T09:12:07.000Z</time>
      </trkpt>
      <trkpt lat="42.95595" lon="-79.2636799">
        <ele>177.9</ele>
        <time>2024-09-15T09:12:19.000Z</time>
      </trkpt>
      <trkpt lat="42.95595" lon="-79.26516">
        <ele>177.9</ele>
        <time>2024-09-15T09:12:31.000Z</time>
      </trkpt>
      <trkpt lat="42.95593" lon="-79.26737">
        <ele>177.9</ele>
        <time>2024-09-15T09:12:49.000Z</time>
      </trkpt>
      <trkpt lat="42.9559" lon="-79.27228">
        <ele>177.9</ele>
        <time>2024-09-15T09:13:29.000Z</time>
      </trkpt>
      <trkpt lat="42.95588" lon="-79.2754999">
        <ele>177.9</ele>
        <time>2024-09-15T09:13:55.000Z</time>
      </trkpt>
      <trkpt lat="42.95588" lon="-79.2754999">
        <ele>177.9</ele>
        <time>2024-09-15T09:13:55.000Z</time>
      </trkpt>
      <trkpt lat="42.95575" lon="-79.27552">
        <ele>177.9</ele>
        <time>2024-09-15T09:13:56.000Z</time>
      </trkpt>
      <trkpt lat="42.95561" lon="-79.27553">
        <ele>177.9</ele>
        <time>2024-09-15T09:13:58.000Z</time>
      </trkpt>
      <trkpt lat="42.95514" lon="-79.27552">
        <ele>177.9</ele>
        <time>2024-09-15T09:14:03.000Z</time>
      </trkpt>
      <trkpt lat="42.95471" lon="-79.2754999">
        <ele>177.9</ele>
        <time>2024-09-15T09:14:08.000Z</time>
      </trkpt>
      <trkpt lat="42.95437" lon="-79.2754999">
        <ele>177.9</ele>
        <time>2024-09-15T09:14:12.000Z</time>
      </trkpt>
      <trkpt lat="42.95362" lon="-79.27548">
        <ele>177.9</ele>
        <time>2024-09-15T09:14:20.000Z</time>
      </trkpt>
      <trkpt lat="42.95303" lon="-79.27547">
        <ele>177.9</ele>
        <time>2024-09-15T09:14:27.000Z</time>
      </trkpt>
      <trkpt lat="42.95219" lon="-79.27545">
        <ele>177.9</ele>
        <time>2024-09-15T09:14:36.000Z</time>
      </trkpt>
      <trkpt lat="42.95163" lon="-79.27544">
        <ele>177.9</ele>
        <time>2024-09-15T09:14:42.000Z</time>
      </trkpt>
      <trkpt lat="42.95051" lon="-79.27542">
        <ele>177.9</ele>
        <time>2024-09-15T09:14:54.000Z</time>
      </trkpt>
      <trkpt lat="42.9495" lon="-79.2754">
        <ele>177.9</ele>
        <time>2024-09-15T09:15:05.000Z</time>
      </trkpt>
      <trkpt lat="42.94943" lon="-79.2754">
        <ele>177.9</ele>
        <time>2024-09-15T09:15:06.000Z</time>
      </trkpt>
      <trkpt lat="42.9484" lon="-79.27537">
        <ele>177.9</ele>
        <time>2024-09-15T09:15:17.000Z</time>
      </trkpt>
      <trkpt lat="42.94714" lon="-79.27533">
        <ele>177.9</ele>
        <time>2024-09-15T09:15:31.000Z</time>
      </trkpt>
      <trkpt lat="42.94714" lon="-79.27533">
        <ele>177.9</ele>
        <time>2024-09-15T09:15:31.000Z</time>
      </trkpt>
      <trkpt lat="42.94714" lon="-79.27712">
        <ele>177.9</ele>
        <time>2024-09-15T09:15:46.000Z</time>
      </trkpt>
      <trkpt lat="42.94714" lon="-79.27712">
        <ele>177.9</ele>
        <time>2024-09-15T09:15:46.000Z</time>
      </trkpt>
      <trkpt lat="42.94713" lon="-79.28051">
        <ele>177.9</ele>
        <time>2024-09-15T09:16:14.000Z</time>
      </trkpt>
      <trkpt lat="42.94713" lon="-79.2807799">
        <ele>177.9</ele>
        <time>2024-09-15T09:16:16.000Z</time>
      </trkpt>
      <trkpt lat="42.9471" lon="-79.28124">
        <ele>177.9</ele>
        <time>2024-09-15T09:16:20.000Z</time>
      </trkpt>
      <trkpt lat="42.94703" lon="-79.28177">
        <ele>177.9</ele>
        <time>2024-09-15T09:16:24.000Z</time>
      </trkpt>
      <trkpt lat="42.94696" lon="-79.28216">
        <ele>177.9</ele>
        <time>2024-09-15T09:16:27.000Z</time>
      </trkpt>
      <trkpt lat="42.94685" lon="-79.28263">
        <ele>177.9</ele>
        <time>2024-09-15T09:16:31.000Z</time>
      </trkpt>
      <trkpt lat="42.94683" lon="-79.28274">
        <ele>177.9</ele>
        <time>2024-09-15T09:16:32.000Z</time>
      </trkpt>
      <trkpt lat="42.9467" lon="-79.28315">
        <ele>177.9</ele>
        <time>2024-09-15T09:16:36.000Z</time>
      </trkpt>
      <trkpt lat="42.94628" lon="-79.28438">
        <ele>177.9</ele>
        <time>2024-09-15T09:16:47.000Z</time>
      </trkpt>
      <trkpt lat="42.9462" lon="-79.2847">
        <ele>177.9</ele>
        <time>2024-09-15T09:16:50.000Z</time>
      </trkpt>
      <trkpt lat="42.9461299" lon="-79.28494">
        <ele>177.9</ele>
        <time>2024-09-15T09:16:52.000Z</time>
      </trkpt>
      <trkpt lat="42.94605" lon="-79.28527">
        <ele>177.9</ele>
        <time>2024-09-15T09:16:55.000Z</time>
      </trkpt>
      <trkpt lat="42.94601" lon="-79.28558">
        <ele>177.9</ele>
        <time>2024-09-15T09:16:58.000Z</time>
      </trkpt>
      <trkpt lat="42.94598" lon="-79.28585">
        <ele>177.9</ele>
        <time>2024-09-15T09:17:00.000Z</time>
      </trkpt>
      <trkpt lat="42.94595" lon="-79.28639">
        <ele>177.9</ele>
        <time>2024-09-15T09:17:04.000Z</time>
      </trkpt>
      <trkpt lat="42.94595" lon="-79.28674">
        <ele>177.9</ele>
        <time>2024-09-15T09:17:07.000Z</time>
      </trkpt>
      <trkpt lat="42.94592" lon="-79.28914">
        <ele>177.9</ele>
        <time>2024-09-15T09:17:27.000Z</time>
      </trkpt>
      <trkpt lat="42.9459" lon="-79.29008">
        <ele>177.9</ele>
        <time>2024-09-15T09:17:35.000Z</time>
      </trkpt>
      <trkpt lat="42.9458" lon="-79.29668">
        <ele>177.9</ele>
        <time>2024-09-15T09:18:29.000Z</time>
      </trkpt>
      <trkpt lat="42.94572" lon="-79.30157">
        <ele>177.9</ele>
        <time>2024-09-15T09:19:09.000Z</time>
      </trkpt>
      <trkpt lat="42.94572" lon="-79.30234">
        <ele>177.9</ele>
        <time>2024-09-15T09:19:15.000Z</time>
      </trkpt>
      <trkpt lat="42.94573" lon="-79.30259">
        <ele>177.9</ele>
        <time>2024-09-15T09:19:17.000Z</time>
      </trkpt>
      <trkpt lat="42.94573" lon="-79.30312">
        <ele>177.9</ele>
        <time>2024-09-15T09:19:21.000Z</time>
      </trkpt>
      <trkpt lat="42.94567" lon="-79.30659">
        <ele>177.9</ele>
        <time>2024-09-15T09:19:49.000Z</time>
      </trkpt>
      <trkpt lat="42.94567" lon="-79.30699">
        <ele>177.9</ele>
        <time>2024-09-15T09:19:52.000Z</time>
      </trkpt>
      <trkpt lat="42.94553" lon="-79.3169099">
        <ele>177.9</ele>
        <time>2024-09-15T09:21:13.000Z</time>
      </trkpt>
      <trkpt lat="42.9454" lon="-79.32713">
        <ele>177.9</ele>
        <time>2024-09-15T09:22:36.000Z</time>
      </trkpt>
      <trkpt lat="42.94529" lon="-79.33351">
        <ele>177.9</ele>
        <time>2024-09-15T09:23:28.000Z</time>
      </trkpt>
      <trkpt lat="42.94522" lon="-79.33757">
        <ele>177.9</ele>
        <time>2024-09-15T09:24:01.000Z</time>
      </trkpt>
      <trkpt lat="42.94517" lon="-79.33995">
        <ele>177.9</ele>
        <time>2024-09-15T09:24:20.000Z</time>
      </trkpt>
      <trkpt lat="42.94517" lon="-79.3404">
        <ele>177.9</ele>
        <time>2024-09-15T09:24:24.000Z</time>
      </trkpt>
      <trkpt lat="42.94516" lon="-79.34085">
        <ele>177.9</ele>
        <time>2024-09-15T09:24:28.000Z</time>
      </trkpt>
      <trkpt lat="42.94516" lon="-79.34108">
        <ele>177.9</ele>
        <time>2024-09-15T09:24:30.000Z</time>
      </trkpt>
      <trkpt lat="42.94515" lon="-79.34126">
        <ele>177.9</ele>
        <time>2024-09-15T09:24:31.000Z</time>
      </trkpt>
      <trkpt lat="42.94515" lon="-79.34145">
        <ele>177.9</ele>
        <time>2024-09-15T09:24:33.000Z</time>
      </trkpt>
      <trkpt lat="42.94515" lon="-79.34171">
        <ele>177.9</ele>
        <time>2024-09-15T09:24:35.000Z</time>
      </trkpt>
      <trkpt lat="42.94507" lon="-79.34609">
        <ele>177.5</ele>
        <time>2024-09-15T09:25:11.000Z</time>
      </trkpt>
      <trkpt lat="42.94506" lon="-79.34629">
        <ele>177.3</ele>
        <time>2024-09-15T09:25:13.000Z</time>
      </trkpt>
      <trkpt lat="42.94506" lon="-79.34668">
        <ele>176.8</ele>
        <time>2024-09-15T09:25:16.000Z</time>
      </trkpt>
      <trkpt lat="42.94505" lon="-79.34701">
        <ele>176.9</ele>
        <time>2024-09-15T09:25:19.000Z</time>
      </trkpt>
      <trkpt lat="42.94505" lon="-79.3473099">
        <ele>176.9</ele>
        <time>2024-09-15T09:25:21.000Z</time>
      </trkpt>
      <trkpt lat="42.94503" lon="-79.3481599">
        <ele>176.9</ele>
        <time>2024-09-15T09:25:28.000Z</time>
      </trkpt>
      <trkpt lat="42.94501" lon="-79.3491899">
        <ele>176.9</ele>
        <time>2024-09-15T09:25:36.000Z</time>
      </trkpt>
      <trkpt lat="42.94501" lon="-79.34959">
        <ele>176.9</ele>
        <time>2024-09-15T09:25:39.000Z</time>
      </trkpt>
      <trkpt lat="42.945" lon="-79.34995">
        <ele>176.9</ele>
        <time>2024-09-15T09:25:42.000Z</time>
      </trkpt>
      <trkpt lat="42.945" lon="-79.35025">
        <ele>176.9</ele>
        <time>2024-09-15T09:25:44.000Z</time>
      </trkpt>
      <trkpt lat="42.94499" lon="-79.35037">
        <ele>176.9</ele>
        <time>2024-09-15T09:25:45.000Z</time>
      </trkpt>
      <trkpt lat="42.94499" lon="-79.35053">
        <ele>176.9</ele>
        <time>2024-09-15T09:25:46.000Z</time>
      </trkpt>
      <trkpt lat="42.94499" lon="-79.35073">
        <ele>176.9</ele>
        <time>2024-09-15T09:25:48.000Z</time>
      </trkpt>
      <trkpt lat="42.94484" lon="-79.35788">
        <ele>175.9</ele>
        <time>2024-09-15T09:26:46.000Z</time>
      </trkpt>
      <trkpt lat="42.94479" lon="-79.36078">
        <ele>176</ele>
        <time>2024-09-15T09:27:10.000Z</time>
      </trkpt>
      <trkpt lat="42.94479" lon="-79.36078">
        <ele>176</ele>
        <time>2024-09-15T09:27:10.000Z</time>
      </trkpt>
      <trkpt lat="42.94375" lon="-79.36082">
        <ele>176.9</ele>
        <time>2024-09-15T09:27:22.000Z</time>
      </trkpt>
      <trkpt lat="42.94312" lon="-79.36086">
        <ele>177</ele>
        <time>2024-09-15T09:27:29.000Z</time>
      </trkpt>
      <trkpt lat="42.94288" lon="-79.36088">
        <ele>177.3</ele>
        <time>2024-09-15T09:27:32.000Z</time>
      </trkpt>
      <trkpt lat="42.94232" lon="-79.36093">
        <ele>177.9</ele>
        <time>2024-09-15T09:27:38.000Z</time>
      </trkpt>
      <trkpt lat="42.94214" lon="-79.36098">
        <ele>177.9</ele>
        <time>2024-09-15T09:27:40.000Z</time>
      </trkpt>
      <trkpt lat="42.942" lon="-79.36106">
        <ele>177.9</ele>
        <time>2024-09-15T09:27:42.000Z</time>
      </trkpt>
      <trkpt lat="42.9418" lon="-79.3612799">
        <ele>177.9</ele>
        <time>2024-09-15T09:27:45.000Z</time>
      </trkpt>
      <trkpt lat="42.94163" lon="-79.3615">
        <ele>177.9</ele>
        <time>2024-09-15T09:27:48.000Z</time>
      </trkpt>
      <trkpt lat="42.9414299" lon="-79.36179">
        <ele>177.9</ele>
        <time>2024-09-15T09:27:51.000Z</time>
      </trkpt>
      <trkpt lat="42.94112" lon="-79.3623">
        <ele>177.9</ele>
        <time>2024-09-15T09:27:56.000Z</time>
      </trkpt>
      <trkpt lat="42.94104" lon="-79.36245">
        <ele>177.9</ele>
        <time>2024-09-15T09:27:58.000Z</time>
      </trkpt>
      <trkpt lat="42.94094" lon="-79.36257">
        <ele>177.9</ele>
        <time>2024-09-15T09:27:59.000Z</time>
      </trkpt>
      <trkpt lat="42.94079" lon="-79.36272">
        <ele>177.9</ele>
        <time>2024-09-15T09:28:01.000Z</time>
      </trkpt>
      <trkpt lat="42.9407" lon="-79.36277">
        <ele>177.9</ele>
        <time>2024-09-15T09:28:02.000Z</time>
      </trkpt>
      <trkpt lat="42.94056" lon="-79.36282">
        <ele>177.9</ele>
        <time>2024-09-15T09:28:04.000Z</time>
      </trkpt>
      <trkpt lat="42.93945" lon="-79.36304">
        <ele>177.9</ele>
        <time>2024-09-15T09:28:16.000Z</time>
      </trkpt>
      <trkpt lat="42.93884" lon="-79.36315">
        <ele>177.9</ele>
        <time>2024-09-15T09:28:23.000Z</time>
      </trkpt>
      <trkpt lat="42.93863" lon="-79.3632">
        <ele>177.9</ele>
        <time>2024-09-15T09:28:25.000Z</time>
      </trkpt>
      <trkpt lat="42.93842" lon="-79.3633">
        <ele>177.9</ele>
        <time>2024-09-15T09:28:27.000Z</time>
      </trkpt>
      <trkpt lat="42.93827" lon="-79.3634299">
        <ele>177.9</ele>
        <time>2024-09-15T09:28:29.000Z</time>
      </trkpt>
      <trkpt lat="42.93817" lon="-79.36351">
        <ele>177.9</ele>
        <time>2024-09-15T09:28:30.000Z</time>
      </trkpt>
      <trkpt lat="42.9379599" lon="-79.36365">
        <ele>177.9</ele>
        <time>2024-09-15T09:28:33.000Z</time>
      </trkpt>
      <trkpt lat="42.93774" lon="-79.36375">
        <ele>177.9</ele>
        <time>2024-09-15T09:28:36.000Z</time>
      </trkpt>
      <trkpt lat="42.9375" lon="-79.3638">
        <ele>177.9</ele>
        <time>2024-09-15T09:28:39.000Z</time>
      </trkpt>
      <trkpt lat="42.93703" lon="-79.36395">
        <ele>177.9</ele>
        <time>2024-09-15T09:28:44.000Z</time>
      </trkpt>
      <trkpt lat="42.93675" lon="-79.36406">
        <ele>177.9</ele>
        <time>2024-09-15T09:28:47.000Z</time>
      </trkpt>
      <trkpt lat="42.93656" lon="-79.36417">
        <ele>177.9</ele>
        <time>2024-09-15T09:28:49.000Z</time>
      </trkpt>
      <trkpt lat="42.93644" lon="-79.36429">
        <ele>177.9</ele>
        <time>2024-09-15T09:28:51.000Z</time>
      </trkpt>
      <trkpt lat="42.9363699" lon="-79.36436">
        <ele>177.9</ele>
        <time>2024-09-15T09:28:52.000Z</time>
      </trkpt>
      <trkpt lat="42.93631" lon="-79.36449">
        <ele>177.9</ele>
        <time>2024-09-15T09:28:53.000Z</time>
      </trkpt>
      <trkpt lat="42.93624" lon="-79.36467">
        <ele>177.9</ele>
        <time>2024-09-15T09:28:55.000Z</time>
      </trkpt>
      <trkpt lat="42.93622" lon="-79.36471">
        <ele>177.9</ele>
        <time>2024-09-15T09:28:55.000Z</time>
      </trkpt>
      <trkpt lat="42.93617" lon="-79.36485">
        <ele>177.9</ele>
        <time>2024-09-15T09:28:56.000Z</time>
      </trkpt>
      <trkpt lat="42.9361" lon="-79.3651">
        <ele>177.9</ele>
        <time>2024-09-15T09:28:58.000Z</time>
      </trkpt>
      <trkpt lat="42.93603" lon="-79.36535">
        <ele>177.9</ele>
        <time>2024-09-15T09:29:00.000Z</time>
      </trkpt>
      <trkpt lat="42.93594" lon="-79.36558">
        <ele>177.9</ele>
        <time>2024-09-15T09:29:02.000Z</time>
      </trkpt>
      <trkpt lat="42.93571" lon="-79.36596">
        <ele>177.9</ele>
        <time>2024-09-15T09:29:06.000Z</time>
      </trkpt>
      <trkpt lat="42.93557" lon="-79.36615">
        <ele>177.9</ele>
        <time>2024-09-15T09:29:08.000Z</time>
      </trkpt>
      <trkpt lat="42.93536" lon="-79.36637">
        <ele>177.9</ele>
        <time>2024-09-15T09:29:11.000Z</time>
      </trkpt>
      <trkpt lat="42.93474" lon="-79.36703">
        <ele>177.9</ele>
        <time>2024-09-15T09:29:20.000Z</time>
      </trkpt>
      <trkpt lat="42.93403" lon="-79.36773">
        <ele>177.9</ele>
        <time>2024-09-15T09:29:30.000Z</time>
      </trkpt>
      <trkpt lat="42.93313" lon="-79.36848">
        <ele>177.9</ele>
        <time>2024-09-15T09:29:42.000Z</time>
      </trkpt>
      <trkpt lat="42.9313999" lon="-79.37">
        <ele>177.9</ele>
        <time>2024-09-15T09:30:05.000Z</time>
      </trkpt>
      <trkpt lat="42.92798" lon="-79.37311">
        <ele>177.9</ele>
        <time>2024-09-15T09:30:51.000Z</time>
      </trkpt>
      <trkpt lat="42.92642" lon="-79.37452">
        <ele>177.9</ele>
        <time>2024-09-15T09:31:12.000Z</time>
      </trkpt>
      <trkpt lat="42.92598" lon="-79.37493">
        <ele>177.9</ele>
        <time>2024-09-15T09:31:18.000Z</time>
      </trkpt>
      <trkpt lat="42.9258" lon="-79.37513">
        <ele>177.9</ele>
        <time>2024-09-15T09:31:21.000Z</time>
      </trkpt>
      <trkpt lat="42.9258" lon="-79.37513">
        <ele>177.9</ele>
        <time>2024-09-15T09:31:21.000Z</time>
      </trkpt>
      <trkpt lat="42.9258499" lon="-79.37525">
        <ele>177.9</ele>
        <time>2024-09-15T09:31:22.000Z</time>
      </trkpt>
      <trkpt lat="42.92591" lon="-79.3754">
        <ele>177.9</ele>
        <time>2024-09-15T09:31:23.000Z</time>
      </trkpt>
      <trkpt lat="42.92594" lon="-79.37546">
        <ele>177.9</ele>
        <time>2024-09-15T09:31:24.000Z</time>
      </trkpt>
      <trkpt lat="42.92597" lon="-79.37557">
        <ele>177.9</ele>
        <time>2024-09-15T09:31:25.000Z</time>
      </trkpt>
      <trkpt lat="42.92599" lon="-79.37568">
        <ele>177.9</ele>
        <time>2024-09-15T09:31:26.000Z</time>
      </trkpt>
      <trkpt lat="42.926" lon="-79.3758299">
        <ele>177.9</ele>
        <time>2024-09-15T09:31:27.000Z</time>
      </trkpt>
      <trkpt lat="42.926" lon="-79.37598">
        <ele>177.9</ele>
        <time>2024-09-15T09:31:28.000Z</time>
      </trkpt>
      <trkpt lat="42.92591" lon="-79.37778">
        <ele>177.9</ele>
        <time>2024-09-15T09:31:43.000Z</time>
      </trkpt>
      <trkpt lat="42.92591" lon="-79.37778">
        <ele>177.9</ele>
        <time>2024-09-15T09:31:43.000Z</time>
      </trkpt>
      <trkpt lat="42.92587" lon="-79.38108">
        <ele>177.9</ele>
        <time>2024-09-15T09:32:10.000Z</time>
      </trkpt>
      <trkpt lat="42.92573" lon="-79.38807">
        <ele>177.9</ele>
        <time>2024-09-15T09:33:07.000Z</time>
      </trkpt>
      <trkpt lat="42.9255799" lon="-79.39492">
        <ele>177.9</ele>
        <time>2024-09-15T09:34:03.000Z</time>
      </trkpt>
      <trkpt lat="42.9255" lon="-79.39857">
        <ele>177.9</ele>
        <time>2024-09-15T09:34:33.000Z</time>
      </trkpt>
      <trkpt lat="42.9253" lon="-79.40854">
        <ele>177.9</ele>
        <time>2024-09-15T09:35:54.000Z</time>
      </trkpt>
      <trkpt lat="42.92507" lon="-79.41867">
        <ele>177.9</ele>
        <time>2024-09-15T09:37:17.000Z</time>
      </trkpt>
      <trkpt lat="42.92506" lon="-79.41909">
        <ele>177.9</ele>
        <time>2024-09-15T09:37:20.000Z</time>
      </trkpt>
      <trkpt lat="42.92485" lon="-79.42906">
        <ele>177.9</ele>
        <time>2024-09-15T09:38:41.000Z</time>
      </trkpt>
      <trkpt lat="42.92485" lon="-79.42931">
        <ele>177.9</ele>
        <time>2024-09-15T09:38:43.000Z</time>
      </trkpt>
      <trkpt lat="42.9248199" lon="-79.43039">
        <ele>177.9</ele>
        <time>2024-09-15T09:38:52.000Z</time>
      </trkpt>
      <trkpt lat="42.9248" lon="-79.43129">
        <ele>177.9</ele>
        <time>2024-09-15T09:38:59.000Z</time>
      </trkpt>
      <trkpt lat="42.92477" lon="-79.43252">
        <ele>177.9</ele>
        <time>2024-09-15T09:39:09.000Z</time>
      </trkpt>
      <trkpt lat="42.92472" lon="-79.4347499">
        <ele>177.9</ele>
        <time>2024-09-15T09:39:27.000Z</time>
      </trkpt>
      <trkpt lat="42.92468" lon="-79.43643">
        <ele>177.9</ele>
        <time>2024-09-15T09:39:41.000Z</time>
      </trkpt>
      <trkpt lat="42.92466" lon="-79.43742">
        <ele>177.9</ele>
        <time>2024-09-15T09:39:49.000Z</time>
      </trkpt>
      <trkpt lat="42.9246399" lon="-79.43823">
        <ele>177.9</ele>
        <time>2024-09-15T09:39:56.000Z</time>
      </trkpt>
      <trkpt lat="42.92462" lon="-79.43933">
        <ele>177.9</ele>
        <time>2024-09-15T09:40:05.000Z</time>
      </trkpt>
      <trkpt lat="42.92462" lon="-79.43943">
        <ele>177.9</ele>
        <time>2024-09-15T09:40:06.000Z</time>
      </trkpt>
      <trkpt lat="42.92462" lon="-79.43943">
        <ele>177.9</ele>
        <time>2024-09-15T09:40:06.000Z</time>
      </trkpt>
      <trkpt lat="42.92442" lon="-79.43942">
        <ele>177.9</ele>
        <time>2024-09-15T09:40:08.000Z</time>
      </trkpt>
      <trkpt lat="42.92366" lon="-79.4394">
        <ele>177.9</ele>
        <time>2024-09-15T09:40:16.000Z</time>
      </trkpt>
      <trkpt lat="42.92288" lon="-79.43938">
        <ele>177.9</ele>
        <time>2024-09-15T09:40:25.000Z</time>
      </trkpt>
      <trkpt lat="42.92196" lon="-79.43935">
        <ele>177.9</ele>
        <time>2024-09-15T09:40:35.000Z</time>
      </trkpt>
      <trkpt lat="42.92105" lon="-79.43932">
        <ele>177.9</ele>
        <time>2024-09-15T09:40:45.000Z</time>
      </trkpt>
      <trkpt lat="42.92009" lon="-79.43928">
        <ele>177.9</ele>
        <time>2024-09-15T09:40:56.000Z</time>
      </trkpt>
      <trkpt lat="42.91898" lon="-79.43923">
        <ele>177.9</ele>
        <time>2024-09-15T09:41:08.000Z</time>
      </trkpt>
      <trkpt lat="42.91807" lon="-79.4392">
        <ele>177.9</ele>
        <time>2024-09-15T09:41:18.000Z</time>
      </trkpt>
      <trkpt lat="42.91672" lon="-79.43914">
        <ele>177.9</ele>
        <time>2024-09-15T09:41:33.000Z</time>
      </trkpt>
      <trkpt lat="42.91632" lon="-79.43914">
        <ele>177.9</ele>
        <time>2024-09-15T09:41:37.000Z</time>
      </trkpt>
      <trkpt lat="42.91547" lon="-79.43911">
        <ele>177.9</ele>
        <time>2024-09-15T09:41:46.000Z</time>
      </trkpt>
      <trkpt lat="42.91479" lon="-79.43907">
        <ele>177.9</ele>
        <time>2024-09-15T09:41:54.000Z</time>
      </trkpt>
      <trkpt lat="42.91414" lon="-79.43905">
        <ele>177.9</ele>
        <time>2024-09-15T09:42:01.000Z</time>
      </trkpt>
      <trkpt lat="42.91405" lon="-79.43905">
        <ele>177.9</ele>
        <time>2024-09-15T09:42:02.000Z</time>
      </trkpt>
      <trkpt lat="42.91336" lon="-79.43901">
        <ele>177.9</ele>
        <time>2024-09-15T09:42:10.000Z</time>
      </trkpt>
      <trkpt lat="42.9124" lon="-79.43899">
        <ele>177.9</ele>
        <time>2024-09-15T09:42:21.000Z</time>
      </trkpt>
      <trkpt lat="42.91146" lon="-79.43895">
        <ele>177.9</ele>
        <time>2024-09-15T09:42:31.000Z</time>
      </trkpt>
      <trkpt lat="42.91034" lon="-79.43889">
        <ele>177.9</ele>
        <time>2024-09-15T09:42:43.000Z</time>
      </trkpt>
      <trkpt lat="42.90967" lon="-79.43886">
        <ele>177.9</ele>
        <time>2024-09-15T09:42:50.000Z</time>
      </trkpt>
      <trkpt lat="42.90893" lon="-79.43883">
        <ele>177.9</ele>
        <time>2024-09-15T09:42:58.000Z</time>
      </trkpt>
      <trkpt lat="42.90819" lon="-79.43881">
        <ele>177.9</ele>
        <time>2024-09-15T09:43:06.000Z</time>
      </trkpt>
      <trkpt lat="42.9076" lon="-79.43877">
        <ele>177.9</ele>
        <time>2024-09-15T09:43:13.000Z</time>
      </trkpt>
      <trkpt lat="42.90695" lon="-79.43877">
        <ele>177.9</ele>
        <time>2024-09-15T09:43:20.000Z</time>
      </trkpt>
      <trkpt lat="42.9061499" lon="-79.43874">
        <ele>178.4</ele>
        <time>2024-09-15T09:43:29.000Z</time>
      </trkpt>
      <trkpt lat="42.90578" lon="-79.43872">
        <ele>178.8</ele>
        <time>2024-09-15T09:43:33.000Z</time>
      </trkpt>
      <trkpt lat="42.90545" lon="-79.43864">
        <ele>178.9</ele>
        <time>2024-09-15T09:43:37.000Z</time>
      </trkpt>
      <trkpt lat="42.90515" lon="-79.4385">
        <ele>178.9</ele>
        <time>2024-09-15T09:43:41.000Z</time>
      </trkpt>
      <trkpt lat="42.90515" lon="-79.4385">
        <ele>178.9</ele>
        <time>2024-09-15T09:43:41.000Z</time>
      </trkpt>
      <trkpt lat="42.90475" lon="-79.43987">
        <ele>178.9</ele>
        <time>2024-09-15T09:43:53.000Z</time>
      </trkpt>
      <trkpt lat="42.90422" lon="-79.44167">
        <ele>178.9</ele>
        <time>2024-09-15T09:44:09.000Z</time>
      </trkpt>
      <trkpt lat="42.9029" lon="-79.44622">
        <ele>178.9</ele>
        <time>2024-09-15T09:44:49.000Z</time>
      </trkpt>
      <trkpt lat="42.90279" lon="-79.44659">
        <ele>178.9</ele>
        <time>2024-09-15T09:44:52.000Z</time>
      </trkpt>
      <trkpt lat="42.9025899" lon="-79.44729">
        <ele>178.9</ele>
        <time>2024-09-15T09:44:58.000Z</time>
      </trkpt>
      <trkpt lat="42.90241" lon="-79.44787">
        <ele>178.9</ele>
        <time>2024-09-15T09:45:03.000Z</time>
      </trkpt>
      <trkpt lat="42.90223" lon="-79.4485">
        <ele>178.9</ele>
        <time>2024-09-15T09:45:09.000Z</time>
      </trkpt>
      <trkpt lat="42.90207" lon="-79.44905">
        <ele>178.9</ele>
        <time>2024-09-15T09:45:14.000Z</time>
      </trkpt>
      <trkpt lat="42.90191" lon="-79.44962">
        <ele>178.9</ele>
        <time>2024-09-15T09:45:19.000Z</time>
      </trkpt>
      <trkpt lat="42.9017" lon="-79.4503299">
        <ele>178.9</ele>
        <time>2024-09-15T09:45:25.000Z</time>
      </trkpt>
      <trkpt lat="42.90149" lon="-79.45103">
        <ele>178.9</ele>
        <time>2024-09-15T09:45:31.000Z</time>
      </trkpt>
      <trkpt lat="42.90131" lon="-79.45163">
        <ele>178.9</ele>
        <time>2024-09-15T09:45:36.000Z</time>
      </trkpt>
      <trkpt lat="42.90114" lon="-79.45224">
        <ele>178.9</ele>
        <time>2024-09-15T09:45:41.000Z</time>
      </trkpt>
      <trkpt lat="42.90095" lon="-79.45289">
        <ele>178.9</ele>
        <time>2024-09-15T09:45:47.000Z</time>
      </trkpt>
      <trkpt lat="42.90079" lon="-79.45344">
        <ele>178.9</ele>
        <time>2024-09-15T09:45:52.000Z</time>
      </trkpt>
      <trkpt lat="42.90061" lon="-79.4540899">
        <ele>178.9</ele>
        <time>2024-09-15T09:45:58.000Z</time>
      </trkpt>
      <trkpt lat="42.90009" lon="-79.45586">
        <ele>178.9</ele>
        <time>2024-09-15T09:46:14.000Z</time>
      </trkpt>
      <trkpt lat="42.8995" lon="-79.45793">
        <ele>178.9</ele>
        <time>2024-09-15T09:46:32.000Z</time>
      </trkpt>
      <trkpt lat="42.89745" lon="-79.465">
        <ele>178.9</ele>
        <time>2024-09-15T09:47:34.000Z</time>
      </trkpt>
      <trkpt lat="42.8973299" lon="-79.4653699">
        <ele>178.9</ele>
        <time>2024-09-15T09:47:37.000Z</time>
      </trkpt>
      <trkpt lat="42.8973299" lon="-79.4653699">
        <ele>178.9</ele>
        <time>2024-09-15T09:47:37.000Z</time>
      </trkpt>
      <trkpt lat="42.89729" lon="-79.46526">
        <ele>178.9</ele>
        <time>2024-09-15T09:47:38.000Z</time>
      </trkpt>
      <trkpt lat="42.89723" lon="-79.46514">
        <ele>178.9</ele>
        <time>2024-09-15T09:47:39.000Z</time>
      </trkpt>
      <trkpt lat="42.89716" lon="-79.46503">
        <ele>178.9</ele>
        <time>2024-09-15T09:47:40.000Z</time>
      </trkpt>
      <trkpt lat="42.89711" lon="-79.46496">
        <ele>178.9</ele>
        <time>2024-09-15T09:47:41.000Z</time>
      </trkpt>
      <trkpt lat="42.89705" lon="-79.46489">
        <ele>178.9</ele>
        <time>2024-09-15T09:47:42.000Z</time>
      </trkpt>
      <trkpt lat="42.89694" lon="-79.4647899">
        <ele>178.9</ele>
        <time>2024-09-15T09:47:43.000Z</time>
      </trkpt>
      <trkpt lat="42.8968599" lon="-79.46471">
        <ele>178.9</ele>
        <time>2024-09-15T09:47:44.000Z</time>
      </trkpt>
      <trkpt lat="42.89676" lon="-79.46465">
        <ele>178.9</ele>
        <time>2024-09-15T09:47:45.000Z</time>
      </trkpt>
      <trkpt lat="42.89666" lon="-79.46458">
        <ele>178.9</ele>
        <time>2024-09-15T09:47:46.000Z</time>
      </trkpt>
      <trkpt lat="42.89653" lon="-79.46451">
        <ele>178.9</ele>
        <time>2024-09-15T09:47:48.000Z</time>
      </trkpt>
      <trkpt lat="42.89634" lon="-79.46441">
        <ele>178.9</ele>
        <time>2024-09-15T09:47:50.000Z</time>
      </trkpt>
      <trkpt lat="42.89624" lon="-79.46435">
        <ele>178.9</ele>
        <time>2024-09-15T09:47:51.000Z</time>
      </trkpt>
      <trkpt lat="42.8954499" lon="-79.46393">
        <ele>178.9</ele>
        <time>2024-09-15T09:48:00.000Z</time>
      </trkpt>
      <trkpt lat="42.89474" lon="-79.46354">
        <ele>178.9</ele>
        <time>2024-09-15T09:48:09.000Z</time>
      </trkpt>
      <trkpt lat="42.89428" lon="-79.4633">
        <ele>178.9</ele>
        <time>2024-09-15T09:48:14.000Z</time>
      </trkpt>
      <trkpt lat="42.89328" lon="-79.46275">
        <ele>178.8</ele>
        <time>2024-09-15T09:48:26.000Z</time>
      </trkpt>
      <trkpt lat="42.89257" lon="-79.46236">
        <ele>179.8</ele>
        <time>2024-09-15T09:48:35.000Z</time>
      </trkpt>
      <trkpt lat="42.89192" lon="-79.46201">
        <ele>179.9</ele>
        <time>2024-09-15T09:48:43.000Z</time>
      </trkpt>
      <trkpt lat="42.89012" lon="-79.4610299">
        <ele>179.9</ele>
        <time>2024-09-15T09:49:05.000Z</time>
      </trkpt>
      <trkpt lat="42.88923" lon="-79.46055">
        <ele>179.9</ele>
        <time>2024-09-15T09:49:16.000Z</time>
      </trkpt>
      <trkpt lat="42.88847" lon="-79.46014">
        <ele>179.9</ele>
        <time>2024-09-15T09:49:25.000Z</time>
      </trkpt>
      <trkpt lat="42.8879499" lon="-79.45986">
        <ele>180.3</ele>
        <time>2024-09-15T09:49:31.000Z</time>
      </trkpt>
      <trkpt lat="42.88743" lon="-79.45958">
        <ele>181</ele>
        <time>2024-09-15T09:49:37.000Z</time>
      </trkpt>
      <trkpt lat="42.88724" lon="-79.45948">
        <ele>180.9</ele>
        <time>2024-09-15T09:49:39.000Z</time>
      </trkpt>
      <trkpt lat="42.88708" lon="-79.45941">
        <ele>180.6</ele>
        <time>2024-09-15T09:49:41.000Z</time>
      </trkpt>
      <trkpt lat="42.88666" lon="-79.45918">
        <ele>179.9</ele>
        <time>2024-09-15T09:49:46.000Z</time>
      </trkpt>
      <trkpt lat="42.88544" lon="-79.45853">
        <ele>179.9</ele>
        <time>2024-09-15T09:50:01.000Z</time>
      </trkpt>
      <trkpt lat="42.88497" lon="-79.4583">
        <ele>179.8</ele>
        <time>2024-09-15T09:50:07.000Z</time>
      </trkpt>
      <trkpt lat="42.88477" lon="-79.4582099">
        <ele>179.7</ele>
        <time>2024-09-15T09:50:09.000Z</time>
      </trkpt>
      <trkpt lat="42.88463" lon="-79.45815">
        <ele>179.6</ele>
        <time>2024-09-15T09:50:11.000Z</time>
      </trkpt>
      <trkpt lat="42.8843699" lon="-79.4580299">
        <ele>179.5</ele>
        <time>2024-09-15T09:50:14.000Z</time>
      </trkpt>
      <trkpt lat="42.88415" lon="-79.45793">
        <ele>179.3</ele>
        <time>2024-09-15T09:50:17.000Z</time>
      </trkpt>
      <trkpt lat="42.88392" lon="-79.45781">
        <ele>179.1</ele>
        <time>2024-09-15T09:50:20.000Z</time>
      </trkpt>
      <trkpt lat="42.88353" lon="-79.4576">
        <ele>178.9</ele>
        <time>2024-09-15T09:50:25.000Z</time>
      </trkpt>
      <trkpt lat="42.88321" lon="-79.45743">
        <ele>178.9</ele>
        <time>2024-09-15T09:50:29.000Z</time>
      </trkpt>
      <trkpt lat="42.88291" lon="-79.45727">
        <ele>178.7</ele>
        <time>2024-09-15T09:50:33.000Z</time>
      </trkpt>
      <trkpt lat="42.88253" lon="-79.45706">
        <ele>178.3</ele>
        <time>2024-09-15T09:50:38.000Z</time>
      </trkpt>
      <trkpt lat="42.88221" lon="-79.45689">
        <ele>178</ele>
        <time>2024-09-15T09:50:42.000Z</time>
      </trkpt>
      <trkpt lat="42.88168" lon="-79.4566">
        <ele>177.9</ele>
        <time>2024-09-15T09:50:48.000Z</time>
      </trkpt>
      <trkpt lat="42.88135" lon="-79.45642">
        <ele>177.9</ele>
        <time>2024-09-15T09:50:52.000Z</time>
      </trkpt>
      <trkpt lat="42.88091" lon="-79.45618">
        <ele>177.9</ele>
        <time>2024-09-15T09:50:57.000Z</time>
      </trkpt>
      <trkpt lat="42.88044" lon="-79.45593">
        <ele>177.5</ele>
        <time>2024-09-15T09:51:03.000Z</time>
      </trkpt>
      <trkpt lat="42.87998" lon="-79.45567">
        <ele>176.8</ele>
        <time>2024-09-15T09:51:09.000Z</time>
      </trkpt>
      <trkpt lat="42.87959" lon="-79.45546">
        <ele>176.9</ele>
        <time>2024-09-15T09:51:14.000Z</time>
      </trkpt>
      <trkpt lat="42.87889" lon="-79.45508">
        <ele>176.6</ele>
        <time>2024-09-15T09:51:22.000Z</time>
      </trkpt>
      <trkpt lat="42.8781899" lon="-79.4547">
        <ele>175.9</ele>
        <time>2024-09-15T09:51:30.000Z</time>
      </trkpt>
      <trkpt lat="42.8775" lon="-79.45432">
        <ele>175.9</ele>
        <time>2024-09-15T09:51:38.000Z</time>
      </trkpt>
      <trkpt lat="42.87712" lon="-79.45411">
        <ele>175.8</ele>
        <time>2024-09-15T09:51:43.000Z</time>
      </trkpt>
      <trkpt lat="42.87665" lon="-79.45386">
        <ele>175.5</ele>
        <time>2024-09-15T09:51:49.000Z</time>
      </trkpt>
      <trkpt lat="42.87633" lon="-79.45368">
        <ele>175.1</ele>
        <time>2024-09-15T09:51:53.000Z</time>
      </trkpt>
      <trkpt lat="42.87619" lon="-79.45361">
        <ele>175.1</ele>
        <time>2024-09-15T09:51:55.000Z</time>
      </trkpt>
      <trkpt lat="42.87587" lon="-79.45344">
        <ele>174.9</ele>
        <time>2024-09-15T09:51:59.000Z</time>
      </trkpt>
      <trkpt lat="42.87556" lon="-79.45328">
        <ele>174.8</ele>
        <time>2024-09-15T09:52:03.000Z</time>
      </trkpt>
      <trkpt lat="42.87526" lon="-79.45313">
        <ele>174.6</ele>
        <time>2024-09-15T09:52:07.000Z</time>
      </trkpt>
      <trkpt lat="42.8751" lon="-79.4530599">
        <ele>174.5</ele>
        <time>2024-09-15T09:52:09.000Z</time>
      </trkpt>
      <trkpt lat="42.87471" lon="-79.45287">
        <ele>174.2</ele>
        <time>2024-09-15T09:52:14.000Z</time>
      </trkpt>
      <trkpt lat="42.87463" lon="-79.45283">
        <ele>174.1</ele>
        <time>2024-09-15T09:52:15.000Z</time>
      </trkpt>
      <trkpt lat="42.87455" lon="-79.4527899">
        <ele>174.1</ele>
        <time>2024-09-15T09:52:16.000Z</time>
      </trkpt>
      <trkpt lat="42.87455" lon="-79.4527899">
        <ele>174.1</ele>
        <time>2024-09-15T09:52:16.000Z</time>
      </trkpt>
      <trkpt lat="42.87464" lon="-79.45263">
        <ele>173.9</ele>
        <time>2024-09-15T09:52:18.000Z</time>
      </trkpt>
      <trkpt lat="42.87468" lon="-79.45255">
        <ele>173.8</ele>
        <time>2024-09-15T09:52:19.000Z</time>
      </trkpt>
      <trkpt lat="42.8748099" lon="-79.4522999">
        <ele>173.9</ele>
        <time>2024-09-15T09:52:21.000Z</time>
      </trkpt>
      <trkpt lat="42.87484" lon="-79.45223">
        <ele>173.9</ele>
        <time>2024-09-15T09:52:22.000Z</time>
      </trkpt>
      <trkpt lat="42.87485" lon="-79.45222">
        <ele>173.9</ele>
        <time>2024-09-15T09:52:22.000Z</time>
      </trkpt>
      <trkpt lat="42.87489" lon="-79.45213">
        <ele>173.9</ele>
        <time>2024-09-15T09:52:23.000Z</time>
      </trkpt>
      <trkpt lat="42.87496" lon="-79.45197">
        <ele>173.9</ele>
        <time>2024-09-15T09:52:25.000Z</time>
      </trkpt>
      <trkpt lat="42.87502" lon="-79.45184">
        <ele>173.9</ele>
        <time>2024-09-15T09:52:26.000Z</time>
      </trkpt>
      <trkpt lat="42.87505" lon="-79.45175">
        <ele>173.9</ele>
        <time>2024-09-15T09:52:27.000Z</time>
      </trkpt>
      <trkpt lat="42.87515" lon="-79.45151">
        <ele>174</ele>
        <time>2024-09-15T09:52:29.000Z</time>
      </trkpt>
      <trkpt lat="42.87522" lon="-79.45133">
        <ele>174</ele>
        <time>2024-09-15T09:52:31.000Z</time>
      </trkpt>
      <trkpt lat="42.87527" lon="-79.45117">
        <ele>173.9</ele>
        <time>2024-09-15T09:52:32.000Z</time>
      </trkpt>
      <trkpt lat="42.87535" lon="-79.45093">
        <ele>173.8</ele>
        <time>2024-09-15T09:52:34.000Z</time>
      </trkpt>
      <trkpt lat="42.87544" lon="-79.45062">
        <ele>173.9</ele>
        <time>2024-09-15T09:52:37.000Z</time>
      </trkpt>
      <trkpt lat="42.87558" lon="-79.45013">
        <ele>173.9</ele>
        <time>2024-09-15T09:52:41.000Z</time>
      </trkpt>
      <trkpt lat="42.87565" lon="-79.4499">
        <ele>173.9</ele>
        <time>2024-09-15T09:52:43.000Z</time>
      </trkpt>
      <trkpt lat="42.8758" lon="-79.44936">
        <ele>173.9</ele>
        <time>2024-09-15T09:52:48.000Z</time>
      </trkpt>
      <trkpt lat="42.87592" lon="-79.44888">
        <ele>173.9</ele>
        <time>2024-09-15T09:52:52.000Z</time>
      </trkpt>
      <trkpt lat="42.876" lon="-79.44859">
        <ele>173.9</ele>
        <time>2024-09-15T09:52:55.000Z</time>
      </trkpt>
      <trkpt lat="42.87611" lon="-79.4481799">
        <ele>173.9</ele>
        <time>2024-09-15T09:52:59.000Z</time>
      </trkpt>
      <trkpt lat="42.87615" lon="-79.44799">
        <ele>173.9</ele>
        <time>2024-09-15T09:53:01.000Z</time>
      </trkpt>
      <trkpt lat="42.87618" lon="-79.44786">
        <ele>173.9</ele>
        <time>2024-09-15T09:53:02.000Z</time>
      </trkpt>
      <trkpt lat="42.8762" lon="-79.44777">
        <ele>173.9</ele>
        <time>2024-09-15T09:53:03.000Z</time>
      </trkpt>
      <trkpt lat="42.87622" lon="-79.44767">
        <ele>173.9</ele>
        <time>2024-09-15T09:53:04.000Z</time>
      </trkpt>
      <trkpt lat="42.87623" lon="-79.44758">
        <ele>173.9</ele>
        <time>2024-09-15T09:53:05.000Z</time>
      </trkpt>
      <trkpt lat="42.87625" lon="-79.44747">
        <ele>173.9</ele>
        <time>2024-09-15T09:53:06.000Z</time>
      </trkpt>
      <trkpt lat="42.87626" lon="-79.44737">
        <ele>173.9</ele>
        <time>2024-09-15T09:53:07.000Z</time>
      </trkpt>
      <trkpt lat="42.87629" lon="-79.44709">
        <ele>173.9</ele>
        <time>2024-09-15T09:53:09.000Z</time>
      </trkpt>
      <trkpt lat="42.8763099" lon="-79.44692">
        <ele>173.9</ele>
        <time>2024-09-15T09:53:10.000Z</time>
      </trkpt>
      <trkpt lat="42.87633" lon="-79.4468">
        <ele>173.9</ele>
        <time>2024-09-15T09:53:11.000Z</time>
      </trkpt>
      <trkpt lat="42.87635" lon="-79.44669">
        <ele>173.9</ele>
        <time>2024-09-15T09:53:12.000Z</time>
      </trkpt>
      <trkpt lat="42.87637" lon="-79.44656">
        <ele>173.9</ele>
        <time>2024-09-15T09:53:13.000Z</time>
      </trkpt>
      <trkpt lat="42.87645" lon="-79.44616">
        <ele>173.9</ele>
        <time>2024-09-15T09:53:16.000Z</time>
      </trkpt>
      <trkpt lat="42.8765" lon="-79.4459399">
        <ele>173.9</ele>
        <time>2024-09-15T09:53:18.000Z</time>
      </trkpt>
      <trkpt lat="42.87656" lon="-79.44563">
        <ele>173.9</ele>
        <time>2024-09-15T09:53:21.000Z</time>
      </trkpt>
      <trkpt lat="42.87661" lon="-79.44537">
        <ele>173.9</ele>
        <time>2024-09-15T09:53:23.000Z</time>
      </trkpt>
      <trkpt lat="42.87667" lon="-79.44511">
        <ele>173.9</ele>
        <time>2024-09-15T09:53:25.000Z</time>
      </trkpt>
      <trkpt lat="42.87671" lon="-79.4449">
        <ele>173.9</ele>
        <time>2024-09-15T09:53:27.000Z</time>
      </trkpt>
      <trkpt lat="42.87676" lon="-79.44468">
        <ele>174</ele>
        <time>2024-09-15T09:53:29.000Z</time>
      </trkpt>
      <trkpt lat="42.8768" lon="-79.44449">
        <ele>174</ele>
        <time>2024-09-15T09:53:31.000Z</time>
      </trkpt>
      <trkpt lat="42.87684" lon="-79.44429">
        <ele>174.1</ele>
        <time>2024-09-15T09:53:33.000Z</time>
      </trkpt>
      <trkpt lat="42.87686" lon="-79.4441499">
        <ele>174.1</ele>
        <time>2024-09-15T09:53:34.000Z</time>
      </trkpt>
      <trkpt lat="42.87688" lon="-79.44394">
        <ele>174.1</ele>
        <time>2024-09-15T09:53:36.000Z</time>
      </trkpt>
      <trkpt lat="42.87689" lon="-79.44384">
        <ele>174.1</ele>
        <time>2024-09-15T09:53:37.000Z</time>
      </trkpt>
      <trkpt lat="42.87689" lon="-79.44376">
        <ele>174.1</ele>
        <time>2024-09-15T09:53:38.000Z</time>
      </trkpt>
      <trkpt lat="42.8769" lon="-79.44367">
        <ele>174.2</ele>
        <time>2024-09-15T09:53:39.000Z</time>
      </trkpt>
      <trkpt lat="42.8769" lon="-79.44355">
        <ele>174.2</ele>
        <time>2024-09-15T09:53:40.000Z</time>
      </trkpt>
      <trkpt lat="42.8769" lon="-79.44337">
        <ele>174.2</ele>
        <time>2024-09-15T09:53:41.000Z</time>
      </trkpt>
      <trkpt lat="42.8769" lon="-79.44309">
        <ele>174.2</ele>
        <time>2024-09-15T09:53:43.000Z</time>
      </trkpt>
      <trkpt lat="42.87689" lon="-79.4429">
        <ele>174.1</ele>
        <time>2024-09-15T09:53:45.000Z</time>
      </trkpt>
      <trkpt lat="42.87689" lon="-79.44287">
        <ele>174.1</ele>
        <time>2024-09-15T09:53:45.000Z</time>
      </trkpt>
      <trkpt lat="42.87689" lon="-79.44268">
        <ele>174.1</ele>
        <time>2024-09-15T09:53:47.000Z</time>
      </trkpt>
      <trkpt lat="42.87688" lon="-79.4424">
        <ele>174.1</ele>
        <time>2024-09-15T09:53:49.000Z</time>
      </trkpt>
      <trkpt lat="42.87686" lon="-79.44206">
        <ele>174.1</ele>
        <time>2024-09-15T09:53:52.000Z</time>
      </trkpt>
      <trkpt lat="42.87685" lon="-79.44171">
        <ele>174.1</ele>
        <time>2024-09-15T09:53:55.000Z</time>
      </trkpt>
      <trkpt lat="42.87684" lon="-79.44146">
        <ele>174.1</ele>
        <time>2024-09-15T09:53:57.000Z</time>
      </trkpt>
      <trkpt lat="42.87683" lon="-79.4413">
        <ele>174.1</ele>
        <time>2024-09-15T09:53:58.000Z</time>
      </trkpt>
      <trkpt lat="42.8768" lon="-79.44093">
        <ele>174</ele>
        <time>2024-09-15T09:54:01.000Z</time>
      </trkpt>
      <trkpt lat="42.8767799" lon="-79.44065">
        <ele>174</ele>
        <time>2024-09-15T09:54:03.000Z</time>
      </trkpt>
      <trkpt lat="42.87676" lon="-79.4404799">
        <ele>174</ele>
        <time>2024-09-15T09:54:04.000Z</time>
      </trkpt>
      <trkpt lat="42.87672" lon="-79.44017">
        <ele>173.9</ele>
        <time>2024-09-15T09:54:07.000Z</time>
      </trkpt>
      <trkpt lat="42.87666" lon="-79.43973">
        <ele>173.9</ele>
        <time>2024-09-15T09:54:11.000Z</time>
      </trkpt>
      <trkpt lat="42.87664" lon="-79.43955">
        <ele>173.9</ele>
        <time>2024-09-15T09:54:12.000Z</time>
      </trkpt>
      <trkpt lat="42.87662" lon="-79.43941">
        <ele>173.9</ele>
        <time>2024-09-15T09:54:13.000Z</time>
      </trkpt>
      <trkpt lat="42.87657" lon="-79.4390899">
        <ele>173.9</ele>
        <time>2024-09-15T09:54:16.000Z</time>
      </trkpt>
      <trkpt lat="42.87651" lon="-79.43868">
        <ele>173.9</ele>
        <time>2024-09-15T09:54:19.000Z</time>
      </trkpt>
      <trkpt lat="42.87646" lon="-79.43835">
        <ele>173.9</ele>
        <time>2024-09-15T09:54:22.000Z</time>
      </trkpt>
      <trkpt lat="42.87642" lon="-79.43811">
        <ele>173.9</ele>
        <time>2024-09-15T09:54:24.000Z</time>
      </trkpt>
      <trkpt lat="42.8763999" lon="-79.438">
        <ele>173.9</ele>
        <time>2024-09-15T09:54:25.000Z</time>
      </trkpt>
      <trkpt lat="42.8763999" lon="-79.438">
        <ele>173.9</ele>
        <time>2024-09-15T09:54:25.000Z</time>
      </trkpt>
      <trkpt lat="42.87636" lon="-79.43772">
        <ele>173.9</ele>
        <time>2024-09-15T09:54:27.000Z</time>
      </trkpt>
      <trkpt lat="42.87627" lon="-79.43716">
        <ele>173.9</ele>
        <time>2024-09-15T09:54:32.000Z</time>
      </trkpt>
      <trkpt lat="42.8762" lon="-79.43679">
        <ele>173.9</ele>
        <time>2024-09-15T09:54:35.000Z</time>
      </trkpt>
      <trkpt lat="42.87586" lon="-79.43528">
        <ele>173.9</ele>
        <time>2024-09-15T09:54:48.000Z</time>
      </trkpt>
      <trkpt lat="42.87573" lon="-79.4346599">
        <ele>173.9</ele>
        <time>2024-09-15T09:54:53.000Z</time>
      </trkpt>
      <trkpt lat="42.87562" lon="-79.43402">
        <ele>173.9</ele>
        <time>2024-09-15T09:54:58.000Z</time>
      </trkpt>
      <trkpt lat="42.87558" lon="-79.43384">
        <ele>173.9</ele>
        <time>2024-09-15T09:55:00.000Z</time>
      </trkpt>
      <trkpt lat="42.8755" lon="-79.43352">
        <ele>173.9</ele>
        <time>2024-09-15T09:55:03.000Z</time>
      </trkpt>
      <trkpt lat="42.87527" lon="-79.43286">
        <ele>173.9</ele>
        <time>2024-09-15T09:55:09.000Z</time>
      </trkpt>
      <trkpt lat="42.87492" lon="-79.4318">
        <ele>173.9</ele>
        <time>2024-09-15T09:55:18.000Z</time>
      </trkpt>
      <trkpt lat="42.8748" lon="-79.4313899">
        <ele>173.9</ele>
        <time>2024-09-15T09:55:22.000Z</time>
      </trkpt>
      <trkpt lat="42.87444" lon="-79.4302">
        <ele>173.9</ele>
        <time>2024-09-15T09:55:32.000Z</time>
      </trkpt>
      <trkpt lat="42.8741" lon="-79.42909">
        <ele>173.9</ele>
        <time>2024-09-15T09:55:42.000Z</time>
      </trkpt>
      <trkpt lat="42.87394" lon="-79.42852">
        <ele>173.9</ele>
        <time>2024-09-15T09:55:47.000Z</time>
      </trkpt>
      <trkpt lat="42.87376" lon="-79.42773">
        <ele>173.9</ele>
        <time>2024-09-15T09:55:54.000Z</time>
      </trkpt>
      <trkpt lat="42.87372" lon="-79.4274499">
        <ele>173.9</ele>
        <time>2024-09-15T09:55:56.000Z</time>
      </trkpt>
      <trkpt lat="42.87371" lon="-79.42728">
        <ele>173.9</ele>
        <time>2024-09-15T09:55:57.000Z</time>
      </trkpt>
      <trkpt lat="42.87371" lon="-79.42708">
        <ele>173.9</ele>
        <time>2024-09-15T09:55:59.000Z</time>
      </trkpt>
      <trkpt lat="42.87371" lon="-79.42697">
        <ele>173.9</ele>
        <time>2024-09-15T09:56:00.000Z</time>
      </trkpt>
      <trkpt lat="42.87388" lon="-79.42337">
        <ele>174.6</ele>
        <time>2024-09-15T09:56:29.000Z</time>
      </trkpt>
      <trkpt lat="42.87413" lon="-79.41846">
        <ele>173.9</ele>
        <time>2024-09-15T09:57:09.000Z</time>
      </trkpt>
      <trkpt lat="42.87432" lon="-79.41677">
        <ele>174.9</ele>
        <time>2024-09-15T09:57:23.000Z</time>
      </trkpt>
      <trkpt lat="42.87433" lon="-79.41658">
        <ele>174.9</ele>
        <time>2024-09-15T09:57:25.000Z</time>
      </trkpt>
      <trkpt lat="42.87433" lon="-79.41644">
        <ele>174.9</ele>
        <time>2024-09-15T09:57:26.000Z</time>
      </trkpt>
      <trkpt lat="42.87436" lon="-79.41573">
        <ele>174.9</ele>
        <time>2024-09-15T09:57:32.000Z</time>
      </trkpt>
      <trkpt lat="42.87436" lon="-79.41567">
        <ele>174.9</ele>
        <time>2024-09-15T09:57:32.000Z</time>
      </trkpt>
      <trkpt lat="42.87438" lon="-79.41498">
        <ele>174.9</ele>
        <time>2024-09-15T09:57:38.000Z</time>
      </trkpt>
      <trkpt lat="42.87439" lon="-79.41454">
        <ele>174.9</ele>
        <time>2024-09-15T09:57:42.000Z</time>
      </trkpt>
      <trkpt lat="42.87441" lon="-79.41408">
        <ele>174.9</ele>
        <time>2024-09-15T09:57:46.000Z</time>
      </trkpt>
      <trkpt lat="42.87442" lon="-79.41357">
        <ele>174.9</ele>
        <time>2024-09-15T09:57:50.000Z</time>
      </trkpt>
      <trkpt lat="42.87442" lon="-79.41322">
        <ele>174.9</ele>
        <time>2024-09-15T09:57:53.000Z</time>
      </trkpt>
      <trkpt lat="42.8744" lon="-79.41289">
        <ele>175.1</ele>
        <time>2024-09-15T09:57:56.000Z</time>
      </trkpt>
      <trkpt lat="42.87438" lon="-79.41258">
        <ele>175.1</ele>
        <time>2024-09-15T09:57:59.000Z</time>
      </trkpt>
      <trkpt lat="42.87428" lon="-79.41161">
        <ele>175.1</ele>
        <time>2024-09-15T09:58:07.000Z</time>
      </trkpt>
      <trkpt lat="42.87427" lon="-79.4113">
        <ele>175.5</ele>
        <time>2024-09-15T09:58:10.000Z</time>
      </trkpt>
      <trkpt lat="42.87428" lon="-79.41108">
        <ele>175.7</ele>
        <time>2024-09-15T09:58:12.000Z</time>
      </trkpt>
      <trkpt lat="42.87427" lon="-79.41105">
        <ele>175.8</ele>
        <time>2024-09-15T09:58:12.000Z</time>
      </trkpt>
      <trkpt lat="42.87427" lon="-79.41088">
        <ele>175.9</ele>
        <time>2024-09-15T09:58:13.000Z</time>
      </trkpt>
      <trkpt lat="42.87429" lon="-79.41029">
        <ele>175.9</ele>
        <time>2024-09-15T09:58:18.000Z</time>
      </trkpt>
      <trkpt lat="42.87432" lon="-79.40992">
        <ele>175.9</ele>
        <time>2024-09-15T09:58:21.000Z</time>
      </trkpt>
      <trkpt lat="42.87433" lon="-79.40976">
        <ele>175.9</ele>
        <time>2024-09-15T09:58:22.000Z</time>
      </trkpt>
      <trkpt lat="42.87433" lon="-79.40971">
        <ele>175.9</ele>
        <time>2024-09-15T09:58:22.000Z</time>
      </trkpt>
      <trkpt lat="42.8743399" lon="-79.4093">
        <ele>175.9</ele>
        <time>2024-09-15T09:58:25.000Z</time>
      </trkpt>
      <trkpt lat="42.87432" lon="-79.40918">
        <ele>175.9</ele>
        <time>2024-09-15T09:58:26.000Z</time>
      </trkpt>
      <trkpt lat="42.8743" lon="-79.40907">
        <ele>175.9</ele>
        <time>2024-09-15T09:58:27.000Z</time>
      </trkpt>
      <trkpt lat="42.87425" lon="-79.40889">
        <ele>175.9</ele>
        <time>2024-09-15T09:58:29.000Z</time>
      </trkpt>
      <trkpt lat="42.87416" lon="-79.40864">
        <ele>175.8</ele>
        <time>2024-09-15T09:58:31.000Z</time>
      </trkpt>
      <trkpt lat="42.87414" lon="-79.40856">
        <ele>175.8</ele>
        <time>2024-09-15T09:58:32.000Z</time>
      </trkpt>
      <trkpt lat="42.87411" lon="-79.40844">
        <ele>175.8</ele>
        <time>2024-09-15T09:58:33.000Z</time>
      </trkpt>
      <trkpt lat="42.87409" lon="-79.40834">
        <ele>175.8</ele>
        <time>2024-09-15T09:58:34.000Z</time>
      </trkpt>
      <trkpt lat="42.87408" lon="-79.4081999">
        <ele>175.8</ele>
        <time>2024-09-15T09:58:35.000Z</time>
      </trkpt>
      <trkpt lat="42.87408" lon="-79.4081099">
        <ele>175.8</ele>
        <time>2024-09-15T09:58:36.000Z</time>
      </trkpt>
      <trkpt lat="42.8741" lon="-79.40787">
        <ele>175.8</ele>
        <time>2024-09-15T09:58:38.000Z</time>
      </trkpt>
      <trkpt lat="42.87412" lon="-79.4077499">
        <ele>175.8</ele>
        <time>2024-09-15T09:58:39.000Z</time>
      </trkpt>
      <trkpt lat="42.87414" lon="-79.40731">
        <ele>175.8</ele>
        <time>2024-09-15T09:58:43.000Z</time>
      </trkpt>
      <trkpt lat="42.87413" lon="-79.40711">
        <ele>175.8</ele>
        <time>2024-09-15T09:58:45.000Z</time>
      </trkpt>
      <trkpt lat="42.8741" lon="-79.40697">
        <ele>175.8</ele>
        <time>2024-09-15T09:58:46.000Z</time>
      </trkpt>
      <trkpt lat="42.8740499" lon="-79.40677">
        <ele>175.8</ele>
        <time>2024-09-15T09:58:48.000Z</time>
      </trkpt>
      <trkpt lat="42.87394" lon="-79.4064099">
        <ele>175.6</ele>
        <time>2024-09-15T09:58:51.000Z</time>
      </trkpt>
      <trkpt lat="42.87384" lon="-79.4061">
        <ele>175.4</ele>
        <time>2024-09-15T09:58:54.000Z</time>
      </trkpt>
      <trkpt lat="42.87368" lon="-79.40557">
        <ele>175.5</ele>
        <time>2024-09-15T09:58:59.000Z</time>
      </trkpt>
      <trkpt lat="42.87356" lon="-79.40523">
        <ele>175.8</ele>
        <time>2024-09-15T09:59:02.000Z</time>
      </trkpt>
      <trkpt lat="42.87336" lon="-79.40459">
        <ele>175.9</ele>
        <time>2024-09-15T09:59:08.000Z</time>
      </trkpt>
      <trkpt lat="42.87323" lon="-79.40418">
        <ele>175.8</ele>
        <time>2024-09-15T09:59:12.000Z</time>
      </trkpt>
      <trkpt lat="42.87315" lon="-79.40396">
        <ele>175.7</ele>
        <time>2024-09-15T09:59:14.000Z</time>
      </trkpt>
      <trkpt lat="42.87296" lon="-79.40338">
        <ele>175.5</ele>
        <time>2024-09-15T09:59:19.000Z</time>
      </trkpt>
      <trkpt lat="42.87258" lon="-79.4021099">
        <ele>175</ele>
        <time>2024-09-15T09:59:30.000Z</time>
      </trkpt>
      <trkpt lat="42.87211" lon="-79.40053">
        <ele>175.6</ele>
        <time>2024-09-15T09:59:44.000Z</time>
      </trkpt>
      <trkpt lat="42.87195" lon="-79.39997">
        <ele>175.3</ele>
        <time>2024-09-15T09:59:49.000Z</time>
      </trkpt>
      <trkpt lat="42.8716" lon="-79.39855">
        <ele>175.7</ele>
        <time>2024-09-15T10:00:01.000Z</time>
      </trkpt>
      <trkpt lat="42.8711" lon="-79.39642">
        <ele>175.4</ele>
        <time>2024-09-15T10:00:19.000Z</time>
      </trkpt>
      <trkpt lat="42.87082" lon="-79.39523">
        <ele>175.8</ele>
        <time>2024-09-15T10:00:29.000Z</time>
      </trkpt>
      <trkpt lat="42.87062" lon="-79.39452">
        <ele>175.7</ele>
        <time>2024-09-15T10:00:35.000Z</time>
      </trkpt>
      <trkpt lat="42.87033" lon="-79.39394">
        <ele>175.5</ele>
        <time>2024-09-15T10:00:41.000Z</time>
      </trkpt>
      <trkpt lat="42.87028" lon="-79.39385">
        <ele>175.5</ele>
        <time>2024-09-15T10:00:42.000Z</time>
      </trkpt>
      <trkpt lat="42.8686" lon="-79.39091">
        <ele>175.2</ele>
        <time>2024-09-15T10:01:12.000Z</time>
      </trkpt>
      <trkpt lat="42.86856" lon="-79.3908299">
        <ele>175.1</ele>
        <time>2024-09-15T10:01:13.000Z</time>
      </trkpt>
      <trkpt lat="42.86793" lon="-79.38974">
        <ele>174.9</ele>
        <time>2024-09-15T10:01:24.000Z</time>
      </trkpt>
      <trkpt lat="42.86764" lon="-79.38922">
        <ele>174.9</ele>
        <time>2024-09-15T10:01:29.000Z</time>
      </trkpt>
      <trkpt lat="42.86736" lon="-79.38872">
        <ele>174.7</ele>
        <time>2024-09-15T10:01:34.000Z</time>
      </trkpt>
      <trkpt lat="42.86716" lon="-79.38837">
        <ele>174.4</ele>
        <time>2024-09-15T10:01:38.000Z</time>
      </trkpt>
      <trkpt lat="42.86611" lon="-79.38648">
        <ele>174.2</ele>
        <time>2024-09-15T10:01:57.000Z</time>
      </trkpt>
      <trkpt lat="42.86607" lon="-79.3864">
        <ele>174.2</ele>
        <time>2024-09-15T10:01:58.000Z</time>
      </trkpt>
      <trkpt lat="42.86604" lon="-79.38631">
        <ele>174.1</ele>
        <time>2024-09-15T10:01:59.000Z</time>
      </trkpt>
      <trkpt lat="42.86601" lon="-79.38615">
        <ele>174.1</ele>
        <time>2024-09-15T10:02:00.000Z</time>
      </trkpt>
      <trkpt lat="42.866" lon="-79.38602">
        <ele>174.1</ele>
        <time>2024-09-15T10:02:01.000Z</time>
      </trkpt>
      <trkpt lat="42.866" lon="-79.38585">
        <ele>174.1</ele>
        <time>2024-09-15T10:02:02.000Z</time>
      </trkpt>
      <trkpt lat="42.86601" lon="-79.38573">
        <ele>174.1</ele>
        <time>2024-09-15T10:02:03.000Z</time>
      </trkpt>
      <trkpt lat="42.86609" lon="-79.38497">
        <ele>174.2</ele>
        <time>2024-09-15T10:02:09.000Z</time>
      </trkpt>
      <trkpt lat="42.86625" lon="-79.38321">
        <ele>174.4</ele>
        <time>2024-09-15T10:02:23.000Z</time>
      </trkpt>
      <trkpt lat="42.86637" lon="-79.38181">
        <ele>174.6</ele>
        <time>2024-09-15T10:02:34.000Z</time>
      </trkpt>
      <trkpt lat="42.86643" lon="-79.38112">
        <ele>174.7</ele>
        <time>2024-09-15T10:02:40.000Z</time>
      </trkpt>
      <trkpt lat="42.8664599" lon="-79.38059">
        <ele>174.7</ele>
        <time>2024-09-15T10:02:44.000Z</time>
      </trkpt>
      <trkpt lat="42.86651" lon="-79.37924">
        <ele>174.7</ele>
        <time>2024-09-15T10:02:55.000Z</time>
      </trkpt>
      <trkpt lat="42.86657" lon="-79.37776">
        <ele>174.9</ele>
        <time>2024-09-15T10:03:07.000Z</time>
      </trkpt>
      <trkpt lat="42.86666" lon="-79.37605">
        <ele>173.9</ele>
        <time>2024-09-15T10:03:21.000Z</time>
      </trkpt>
      <trkpt lat="42.86666" lon="-79.37605">
        <ele>173.9</ele>
        <time>2024-09-15T10:03:21.000Z</time>
      </trkpt>
      <trkpt lat="42.86985" lon="-79.37605">
        <ele>175.9</ele>
        <time>2024-09-15T10:03:56.000Z</time>
      </trkpt>
      <trkpt lat="42.87241" lon="-79.37609">
        <ele>176.9</ele>
        <time>2024-09-15T10:04:24.000Z</time>
      </trkpt>
      <trkpt lat="42.88521" lon="-79.37628">
        <ele>180.9</ele>
        <time>2024-09-15T10:06:46.000Z</time>
      </trkpt>
      <trkpt lat="42.88528" lon="-79.37628">
        <ele>180.9</ele>
        <time>2024-09-15T10:06:47.000Z</time>
      </trkpt>
      <trkpt lat="42.88772" lon="-79.37637">
        <ele>179.9</ele>
        <time>2024-09-15T10:07:14.000Z</time>
      </trkpt>
      <trkpt lat="42.89081" lon="-79.37642">
        <ele>178.8</ele>
        <time>2024-09-15T10:07:48.000Z</time>
      </trkpt>
      <trkpt lat="42.89081" lon="-79.37642">
        <ele>178.8</ele>
        <time>2024-09-15T10:07:48.000Z</time>
      </trkpt>
      <trkpt lat="42.8908" lon="-79.37726">
        <ele>178.9</ele>
        <time>2024-09-15T10:07:55.000Z</time>
      </trkpt>
      <trkpt lat="42.8908" lon="-79.3776">
        <ele>178.8</ele>
        <time>2024-09-15T10:07:58.000Z</time>
      </trkpt>
      <trkpt lat="42.8908" lon="-79.37819">
        <ele>178</ele>
        <time>2024-09-15T10:08:03.000Z</time>
      </trkpt>
      <trkpt lat="42.89079" lon="-79.3788299">
        <ele>177.8</ele>
        <time>2024-09-15T10:08:08.000Z</time>
      </trkpt>
      <trkpt lat="42.89078" lon="-79.37972">
        <ele>177.9</ele>
        <time>2024-09-15T10:08:15.000Z</time>
      </trkpt>
      <trkpt lat="42.89078" lon="-79.38047">
        <ele>177.9</ele>
        <time>2024-09-15T10:08:21.000Z</time>
      </trkpt>
      <trkpt lat="42.89077" lon="-79.3808899">
        <ele>177.9</ele>
        <time>2024-09-15T10:08:24.000Z</time>
      </trkpt>
      <trkpt lat="42.89077" lon="-79.38136">
        <ele>177.9</ele>
        <time>2024-09-15T10:08:28.000Z</time>
      </trkpt>
      <trkpt lat="42.89076" lon="-79.38219">
        <ele>177.9</ele>
        <time>2024-09-15T10:08:35.000Z</time>
      </trkpt>
      <trkpt lat="42.89076" lon="-79.38382">
        <ele>177.9</ele>
        <time>2024-09-15T10:08:48.000Z</time>
      </trkpt>
      <trkpt lat="42.89076" lon="-79.38442">
        <ele>177.9</ele>
        <time>2024-09-15T10:08:53.000Z</time>
      </trkpt>
      <trkpt lat="42.89075" lon="-79.38524">
        <ele>177.9</ele>
        <time>2024-09-15T10:09:00.000Z</time>
      </trkpt>
      <trkpt lat="42.89075" lon="-79.38655">
        <ele>177.9</ele>
        <time>2024-09-15T10:09:11.000Z</time>
      </trkpt>
      <trkpt lat="42.89074" lon="-79.38753">
        <ele>177.9</ele>
        <time>2024-09-15T10:09:19.000Z</time>
      </trkpt>
      <trkpt lat="42.89073" lon="-79.3882">
        <ele>177.9</ele>
        <time>2024-09-15T10:09:24.000Z</time>
      </trkpt>
      <trkpt lat="42.89073" lon="-79.38865">
        <ele>177.9</ele>
        <time>2024-09-15T10:09:28.000Z</time>
      </trkpt>
      <trkpt lat="42.89072" lon="-79.38912">
        <ele>177.9</ele>
        <time>2024-09-15T10:09:32.000Z</time>
      </trkpt>
      <trkpt lat="42.89072" lon="-79.38937">
        <ele>177.9</ele>
        <time>2024-09-15T10:09:34.000Z</time>
      </trkpt>
      <trkpt lat="42.89071" lon="-79.38969">
        <ele>177.9</ele>
        <time>2024-09-15T10:09:37.000Z</time>
      </trkpt>
      <trkpt lat="42.8907" lon="-79.39015">
        <ele>177.9</ele>
        <time>2024-09-15T10:09:41.000Z</time>
      </trkpt>
      <trkpt lat="42.89069" lon="-79.39055">
        <ele>177.9</ele>
        <time>2024-09-15T10:09:44.000Z</time>
      </trkpt>
      <trkpt lat="42.89068" lon="-79.39096">
        <ele>177.9</ele>
        <time>2024-09-15T10:09:47.000Z</time>
      </trkpt>
      <trkpt lat="42.89067" lon="-79.39145">
        <ele>177.9</ele>
        <time>2024-09-15T10:09:51.000Z</time>
      </trkpt>
      <trkpt lat="42.89055" lon="-79.39765">
        <ele>177.9</ele>
        <time>2024-09-15T10:10:42.000Z</time>
      </trkpt>
      <trkpt lat="42.89054" lon="-79.39843">
        <ele>177.9</ele>
        <time>2024-09-15T10:10:48.000Z</time>
      </trkpt>
      <trkpt lat="42.89051" lon="-79.39972">
        <ele>177.9</ele>
        <time>2024-09-15T10:10:59.000Z</time>
      </trkpt>
      <trkpt lat="42.89049" lon="-79.4010799">
        <ele>177.9</ele>
        <time>2024-09-15T10:11:10.000Z</time>
      </trkpt>
      <trkpt lat="42.89049" lon="-79.4010799">
        <ele>177.9</ele>
        <time>2024-09-15T10:11:10.000Z</time>
      </trkpt>
      <trkpt lat="42.89047" lon="-79.40225">
        <ele>177.9</ele>
        <time>2024-09-15T10:11:20.000Z</time>
      </trkpt>
      <trkpt lat="42.89042" lon="-79.40528">
        <ele>178.9</ele>
        <time>2024-09-15T10:11:45.000Z</time>
      </trkpt>
      <trkpt lat="42.89042" lon="-79.40528">
        <ele>178.9</ele>
        <time>2024-09-15T10:11:45.000Z</time>
      </trkpt>
      <trkpt lat="42.89067" lon="-79.4053">
        <ele>178.9</ele>
        <time>2024-09-15T10:11:48.000Z</time>
      </trkpt>
      <trkpt lat="42.89078" lon="-79.40531">
        <ele>178.9</ele>
        <time>2024-09-15T10:11:49.000Z</time>
      </trkpt>
      <trkpt lat="42.89204" lon="-79.4053799">
        <ele>178.6</ele>
        <time>2024-09-15T10:12:03.000Z</time>
      </trkpt>
      <trkpt lat="42.89205" lon="-79.4053799">
        <ele>178.6</ele>
        <time>2024-09-15T10:12:03.000Z</time>
      </trkpt>
      <trkpt lat="42.89222" lon="-79.40539">
        <ele>178.5</ele>
        <time>2024-09-15T10:12:05.000Z</time>
      </trkpt>
      <trkpt lat="42.89312" lon="-79.40545">
        <ele>177.9</ele>
        <time>2024-09-15T10:12:15.000Z</time>
      </trkpt>
      <trkpt lat="42.8933" lon="-79.40546">
        <ele>177.9</ele>
        <time>2024-09-15T10:12:17.000Z</time>
      </trkpt>
      <trkpt lat="42.89382" lon="-79.40549">
        <ele>177.9</ele>
        <time>2024-09-15T10:12:23.000Z</time>
      </trkpt>
      <trkpt lat="42.89456" lon="-79.40554">
        <ele>177.9</ele>
        <time>2024-09-15T10:12:31.000Z</time>
      </trkpt>
      <trkpt lat="42.89537" lon="-79.40559">
        <ele>177.9</ele>
        <time>2024-09-15T10:12:40.000Z</time>
      </trkpt>
      <trkpt lat="42.89632" lon="-79.40565">
        <ele>177.9</ele>
        <time>2024-09-15T10:12:51.000Z</time>
      </trkpt>
      <trkpt lat="42.89707" lon="-79.40569">
        <ele>177.9</ele>
        <time>2024-09-15T10:12:59.000Z</time>
      </trkpt>
      <trkpt lat="42.89779" lon="-79.40572">
        <ele>177.9</ele>
        <time>2024-09-15T10:13:07.000Z</time>
      </trkpt>
      <trkpt lat="42.89887" lon="-79.40577">
        <ele>177.9</ele>
        <time>2024-09-15T10:13:19.000Z</time>
      </trkpt>
      <trkpt lat="42.89962" lon="-79.4058">
        <ele>177.9</ele>
        <time>2024-09-15T10:13:27.000Z</time>
      </trkpt>
      <trkpt lat="42.90104" lon="-79.4058699">
        <ele>177.9</ele>
        <time>2024-09-15T10:13:43.000Z</time>
      </trkpt>
      <trkpt lat="42.90176" lon="-79.40591">
        <ele>177.9</ele>
        <time>2024-09-15T10:13:51.000Z</time>
      </trkpt>
      <trkpt lat="42.9022999" lon="-79.40594">
        <ele>177.9</ele>
        <time>2024-09-15T10:13:57.000Z</time>
      </trkpt>
      <trkpt lat="42.90248" lon="-79.40594">
        <ele>177.9</ele>
        <time>2024-09-15T10:13:59.000Z</time>
      </trkpt>
      <trkpt lat="42.90392" lon="-79.40602">
        <ele>177.9</ele>
        <time>2024-09-15T10:14:15.000Z</time>
      </trkpt>
      <trkpt lat="42.90482" lon="-79.40606">
        <ele>177.9</ele>
        <time>2024-09-15T10:14:25.000Z</time>
      </trkpt>
      <trkpt lat="42.90536" lon="-79.40609">
        <ele>177.9</ele>
        <time>2024-09-15T10:14:31.000Z</time>
      </trkpt>
      <trkpt lat="42.90608" lon="-79.40612">
        <ele>177.9</ele>
        <time>2024-09-15T10:14:39.000Z</time>
      </trkpt>
      <trkpt lat="42.90661" lon="-79.40615">
        <ele>177.9</ele>
        <time>2024-09-15T10:14:45.000Z</time>
      </trkpt>
      <trkpt lat="42.90751" lon="-79.40619">
        <ele>177.9</ele>
        <time>2024-09-15T10:14:55.000Z</time>
      </trkpt>
      <trkpt lat="42.90823" lon="-79.4062299">
        <ele>177.9</ele>
        <time>2024-09-15T10:15:03.000Z</time>
      </trkpt>
      <trkpt lat="42.90855" lon="-79.4062299">
        <ele>177.9</ele>
        <time>2024-09-15T10:15:07.000Z</time>
      </trkpt>
      <trkpt lat="42.90873" lon="-79.40625">
        <ele>177.9</ele>
        <time>2024-09-15T10:15:09.000Z</time>
      </trkpt>
      <trkpt lat="42.90917" lon="-79.40627">
        <ele>177.9</ele>
        <time>2024-09-15T10:15:14.000Z</time>
      </trkpt>
      <trkpt lat="42.90927" lon="-79.40628">
        <ele>177.9</ele>
        <time>2024-09-15T10:15:15.000Z</time>
      </trkpt>
      <trkpt lat="42.90945" lon="-79.40628">
        <ele>177.9</ele>
        <time>2024-09-15T10:15:17.000Z</time>
      </trkpt>
      <trkpt lat="42.90963" lon="-79.40629">
        <ele>177.9</ele>
        <time>2024-09-15T10:15:19.000Z</time>
      </trkpt>
      <trkpt lat="42.90965" lon="-79.40629">
        <ele>177.9</ele>
        <time>2024-09-15T10:15:19.000Z</time>
      </trkpt>
      <trkpt lat="42.90999" lon="-79.40631">
        <ele>177.9</ele>
        <time>2024-09-15T10:15:23.000Z</time>
      </trkpt>
      <trkpt lat="42.91017" lon="-79.4063199">
        <ele>177.9</ele>
        <time>2024-09-15T10:15:25.000Z</time>
      </trkpt>
      <trkpt lat="42.91052" lon="-79.40634">
        <ele>177.9</ele>
        <time>2024-09-15T10:15:29.000Z</time>
      </trkpt>
      <trkpt lat="42.9107" lon="-79.40635">
        <ele>177.9</ele>
        <time>2024-09-15T10:15:31.000Z</time>
      </trkpt>
      <trkpt lat="42.91268" lon="-79.40646">
        <ele>177.9</ele>
        <time>2024-09-15T10:15:53.000Z</time>
      </trkpt>
      <trkpt lat="42.91286" lon="-79.40647">
        <ele>177.9</ele>
        <time>2024-09-15T10:15:55.000Z</time>
      </trkpt>
      <trkpt lat="42.9134" lon="-79.4065">
        <ele>177.9</ele>
        <time>2024-09-15T10:16:01.000Z</time>
      </trkpt>
      <trkpt lat="42.91358" lon="-79.40651">
        <ele>177.9</ele>
        <time>2024-09-15T10:16:03.000Z</time>
      </trkpt>
      <trkpt lat="42.91393" lon="-79.40653">
        <ele>177.9</ele>
        <time>2024-09-15T10:16:07.000Z</time>
      </trkpt>
      <trkpt lat="42.9141199" lon="-79.40655">
        <ele>177.9</ele>
        <time>2024-09-15T10:16:09.000Z</time>
      </trkpt>
      <trkpt lat="42.91422" lon="-79.40656">
        <ele>177.9</ele>
        <time>2024-09-15T10:16:10.000Z</time>
      </trkpt>
      <trkpt lat="42.9143" lon="-79.40657">
        <ele>177.9</ele>
        <time>2024-09-15T10:16:11.000Z</time>
      </trkpt>
      <trkpt lat="42.91433" lon="-79.40658">
        <ele>177.9</ele>
        <time>2024-09-15T10:16:11.000Z</time>
      </trkpt>
      <trkpt lat="42.91433" lon="-79.40658">
        <ele>177.9</ele>
        <time>2024-09-15T10:16:11.000Z</time>
      </trkpt>
      <trkpt lat="42.91474" lon="-79.4051999">
        <ele>177.9</ele>
        <time>2024-09-15T10:16:23.000Z</time>
      </trkpt>
      <trkpt lat="42.91533" lon="-79.40316">
        <ele>177.9</ele>
        <time>2024-09-15T10:16:41.000Z</time>
      </trkpt>
      <trkpt lat="42.91572" lon="-79.40178">
        <ele>177.9</ele>
        <time>2024-09-15T10:16:53.000Z</time>
      </trkpt>
      <trkpt lat="42.91587" lon="-79.40127">
        <ele>177.9</ele>
        <time>2024-09-15T10:16:57.000Z</time>
      </trkpt>
      <trkpt lat="42.91587" lon="-79.40127">
        <ele>177.9</ele>
        <time>2024-09-15T10:16:57.000Z</time>
      </trkpt>
      <trkpt lat="42.91643" lon="-79.39932">
        <ele>177.9</ele>
        <time>2024-09-15T10:17:14.000Z</time>
      </trkpt>
      <trkpt lat="42.9167599" lon="-79.39816">
        <ele>177.9</ele>
        <time>2024-09-15T10:17:24.000Z</time>
      </trkpt>
      <trkpt lat="42.91721" lon="-79.39664">
        <ele>177.9</ele>
        <time>2024-09-15T10:17:37.000Z</time>
      </trkpt>
      <trkpt lat="42.91793" lon="-79.39416">
        <ele>177.9</ele>
        <time>2024-09-15T10:17:59.000Z</time>
      </trkpt>
      <trkpt lat="42.9184" lon="-79.39255">
        <ele>177.9</ele>
        <time>2024-09-15T10:18:13.000Z</time>
      </trkpt>
      <trkpt lat="42.91959" lon="-79.38846">
        <ele>177.9</ele>
        <time>2024-09-15T10:18:49.000Z</time>
      </trkpt>
      <trkpt lat="42.92033" lon="-79.38578">
        <ele>177.9</ele>
        <time>2024-09-15T10:19:12.000Z</time>
      </trkpt>
      <trkpt lat="42.92129" lon="-79.38246">
        <ele>177.9</ele>
        <time>2024-09-15T10:19:41.000Z</time>
      </trkpt>
      <trkpt lat="42.92198" lon="-79.38009">
        <ele>177.9</ele>
        <time>2024-09-15T10:20:02.000Z</time>
      </trkpt>
      <trkpt lat="42.92255" lon="-79.37814">
        <ele>177.9</ele>
        <time>2024-09-15T10:20:19.000Z</time>
      </trkpt>
      <trkpt lat="42.92326" lon="-79.37563">
        <ele>177.9</ele>
        <time>2024-09-15T10:20:41.000Z</time>
      </trkpt>
      <trkpt lat="42.92326" lon="-79.37563">
        <ele>177.9</ele>
        <time>2024-09-15T10:20:41.000Z</time>
      </trkpt>
      <trkpt lat="42.92386" lon="-79.37365">
        <ele>177.9</ele>
        <time>2024-09-15T10:20:58.000Z</time>
      </trkpt>
      <trkpt lat="42.92461" lon="-79.37094">
        <ele>177.9</ele>
        <time>2024-09-15T10:21:22.000Z</time>
      </trkpt>
      <trkpt lat="42.9248199" lon="-79.3701899">
        <ele>177.9</ele>
        <time>2024-09-15T10:21:29.000Z</time>
      </trkpt>
      <trkpt lat="42.92603" lon="-79.3659">
        <ele>177.9</ele>
        <time>2024-09-15T10:22:06.000Z</time>
      </trkpt>
      <trkpt lat="42.92833" lon="-79.3577">
        <ele>177.9</ele>
        <time>2024-09-15T10:23:17.000Z</time>
      </trkpt>
      <trkpt lat="42.92994" lon="-79.35192">
        <ele>177.9</ele>
        <time>2024-09-15T10:24:07.000Z</time>
      </trkpt>
      <trkpt lat="42.93117" lon="-79.34753">
        <ele>177.9</ele>
        <time>2024-09-15T10:24:45.000Z</time>
      </trkpt>
      <trkpt lat="42.93189" lon="-79.34498">
        <ele>177.9</ele>
        <time>2024-09-15T10:25:07.000Z</time>
      </trkpt>
      <trkpt lat="42.93584" lon="-79.33103">
        <ele>177.9</ele>
        <time>2024-09-15T10:27:09.000Z</time>
      </trkpt>
      <trkpt lat="42.93694" lon="-79.32716">
        <ele>177.9</ele>
        <time>2024-09-15T10:27:43.000Z</time>
      </trkpt>
      <trkpt lat="42.93732" lon="-79.32579">
        <ele>177.9</ele>
        <time>2024-09-15T10:27:55.000Z</time>
      </trkpt>
      <trkpt lat="42.93967" lon="-79.31751">
        <ele>177.9</ele>
        <time>2024-09-15T10:29:07.000Z</time>
      </trkpt>
      <trkpt lat="42.93979" lon="-79.31713">
        <ele>177.9</ele>
        <time>2024-09-15T10:29:10.000Z</time>
      </trkpt>
      <trkpt lat="42.93986" lon="-79.31682">
        <ele>177.9</ele>
        <time>2024-09-15T10:29:13.000Z</time>
      </trkpt>
      <trkpt lat="42.94212" lon="-79.30879">
        <ele>177.9</ele>
        <time>2024-09-15T10:30:23.000Z</time>
      </trkpt>
      <trkpt lat="42.94218" lon="-79.30859">
        <ele>177.9</ele>
        <time>2024-09-15T10:30:25.000Z</time>
      </trkpt>
      <trkpt lat="42.9423" lon="-79.30824">
        <ele>177.9</ele>
        <time>2024-09-15T10:30:28.000Z</time>
      </trkpt>
      <trkpt lat="42.94249" lon="-79.30786">
        <ele>177.9</ele>
        <time>2024-09-15T10:30:32.000Z</time>
      </trkpt>
      <trkpt lat="42.94269" lon="-79.30745">
        <ele>177.9</ele>
        <time>2024-09-15T10:30:36.000Z</time>
      </trkpt>
      <trkpt lat="42.94291" lon="-79.30699">
        <ele>177.9</ele>
        <time>2024-09-15T10:30:40.000Z</time>
      </trkpt>
      <trkpt lat="42.94347" lon="-79.30595">
        <ele>177.9</ele>
        <time>2024-09-15T10:30:51.000Z</time>
      </trkpt>
      <trkpt lat="42.9439" lon="-79.30513">
        <ele>177.9</ele>
        <time>2024-09-15T10:30:59.000Z</time>
      </trkpt>
      <trkpt lat="42.94508" lon="-79.30283">
        <ele>177.9</ele>
        <time>2024-09-15T10:31:22.000Z</time>
      </trkpt>
      <trkpt lat="42.94508" lon="-79.30283">
        <ele>177.9</ele>
        <time>2024-09-15T10:31:22.000Z</time>
      </trkpt>
      <trkpt lat="42.94572" lon="-79.30157">
        <ele>177.9</ele>
        <time>2024-09-15T10:31:34.000Z</time>
      </trkpt>
      <trkpt lat="42.94572" lon="-79.30157">
        <ele>177.9</ele>
        <time>2024-09-15T10:31:34.000Z</time>
      </trkpt>
      <trkpt lat="42.9458" lon="-79.29668">
        <ele>177.9</ele>
        <time>2024-09-15T10:32:14.000Z</time>
      </trkpt>
      <trkpt lat="42.9459" lon="-79.29008">
        <ele>177.9</ele>
        <time>2024-09-15T10:33:08.000Z</time>
      </trkpt>
      <trkpt lat="42.94592" lon="-79.28914">
        <ele>177.9</ele>
        <time>2024-09-15T10:33:16.000Z</time>
      </trkpt>
      <trkpt lat="42.94595" lon="-79.28674">
        <ele>177.9</ele>
        <time>2024-09-15T10:33:36.000Z</time>
      </trkpt>
      <trkpt lat="42.94595" lon="-79.28639">
        <ele>177.9</ele>
        <time>2024-09-15T10:33:39.000Z</time>
      </trkpt>
      <trkpt lat="42.94598" lon="-79.28585">
        <ele>177.9</ele>
        <time>2024-09-15T10:33:43.000Z</time>
      </trkpt>
      <trkpt lat="42.94601" lon="-79.28558">
        <ele>177.9</ele>
        <time>2024-09-15T10:33:45.000Z</time>
      </trkpt>
      <trkpt lat="42.94605" lon="-79.28527">
        <ele>177.9</ele>
        <time>2024-09-15T10:33:48.000Z</time>
      </trkpt>
      <trkpt lat="42.9461299" lon="-79.28494">
        <ele>177.9</ele>
        <time>2024-09-15T10:33:51.000Z</time>
      </trkpt>
      <trkpt lat="42.9462" lon="-79.2847">
        <ele>177.9</ele>
        <time>2024-09-15T10:33:53.000Z</time>
      </trkpt>
      <trkpt lat="42.94628" lon="-79.28438">
        <ele>177.9</ele>
        <time>2024-09-15T10:33:56.000Z</time>
      </trkpt>
      <trkpt lat="42.9467" lon="-79.28315">
        <ele>177.9</ele>
        <time>2024-09-15T10:34:07.000Z</time>
      </trkpt>
      <trkpt lat="42.94683" lon="-79.28274">
        <ele>177.9</ele>
        <time>2024-09-15T10:34:11.000Z</time>
      </trkpt>
      <trkpt lat="42.94685" lon="-79.28263">
        <ele>177.9</ele>
        <time>2024-09-15T10:34:12.000Z</time>
      </trkpt>
      <trkpt lat="42.94696" lon="-79.28216">
        <ele>177.9</ele>
        <time>2024-09-15T10:34:16.000Z</time>
      </trkpt>
      <trkpt lat="42.94703" lon="-79.28177">
        <ele>177.9</ele>
        <time>2024-09-15T10:34:19.000Z</time>
      </trkpt>
      <trkpt lat="42.9471" lon="-79.28124">
        <ele>177.9</ele>
        <time>2024-09-15T10:34:23.000Z</time>
      </trkpt>
      <trkpt lat="42.94713" lon="-79.2807799">
        <ele>177.9</ele>
        <time>2024-09-15T10:34:27.000Z</time>
      </trkpt>
      <trkpt lat="42.94713" lon="-79.28051">
        <ele>177.9</ele>
        <time>2024-09-15T10:34:29.000Z</time>
      </trkpt>
      <trkpt lat="42.94714" lon="-79.2773">
        <ele>177.9</ele>
        <time>2024-09-15T10:34:55.000Z</time>
      </trkpt>
      <trkpt lat="42.94714" lon="-79.27533">
        <ele>177.9</ele>
        <time>2024-09-15T10:35:11.000Z</time>
      </trkpt>
      <trkpt lat="42.94714" lon="-79.27533">
        <ele>177.9</ele>
        <time>2024-09-15T10:35:11.000Z</time>
      </trkpt>
      <trkpt lat="42.9484" lon="-79.27537">
        <ele>177.9</ele>
        <time>2024-09-15T10:35:25.000Z</time>
      </trkpt>
      <trkpt lat="42.94943" lon="-79.2754">
        <ele>177.9</ele>
        <time>2024-09-15T10:35:36.000Z</time>
      </trkpt>
      <trkpt lat="42.9495" lon="-79.2754">
        <ele>177.9</ele>
        <time>2024-09-15T10:35:37.000Z</time>
      </trkpt>
      <trkpt lat="42.95051" lon="-79.27542">
        <ele>177.9</ele>
        <time>2024-09-15T10:35:48.000Z</time>
      </trkpt>
      <trkpt lat="42.95163" lon="-79.27544">
        <ele>177.9</ele>
        <time>2024-09-15T10:36:00.000Z</time>
      </trkpt>
      <trkpt lat="42.95219" lon="-79.27545">
        <ele>177.9</ele>
        <time>2024-09-15T10:36:06.000Z</time>
      </trkpt>
      <trkpt lat="42.95303" lon="-79.27547">
        <ele>177.9</ele>
        <time>2024-09-15T10:36:15.000Z</time>
      </trkpt>
      <trkpt lat="42.95362" lon="-79.27548">
        <ele>177.9</ele>
        <time>2024-09-15T10:36:22.000Z</time>
      </trkpt>
      <trkpt lat="42.95437" lon="-79.2754999">
        <ele>177.9</ele>
        <time>2024-09-15T10:36:30.000Z</time>
      </trkpt>
      <trkpt lat="42.95471" lon="-79.2754999">
        <ele>177.9</ele>
        <time>2024-09-15T10:36:34.000Z</time>
      </trkpt>
      <trkpt lat="42.95514" lon="-79.27552">
        <ele>177.9</ele>
        <time>2024-09-15T10:36:39.000Z</time>
      </trkpt>
      <trkpt lat="42.95561" lon="-79.27553">
        <ele>177.9</ele>
        <time>2024-09-15T10:36:44.000Z</time>
      </trkpt>
      <trkpt lat="42.95575" lon="-79.27552">
        <ele>177.9</ele>
        <time>2024-09-15T10:36:46.000Z</time>
      </trkpt>
      <trkpt lat="42.95588" lon="-79.2754999">
        <ele>177.9</ele>
        <time>2024-09-15T10:36:47.000Z</time>
      </trkpt>
      <trkpt lat="42.95588" lon="-79.2754999">
        <ele>177.9</ele>
        <time>2024-09-15T10:36:47.000Z</time>
      </trkpt>
      <trkpt lat="42.9559" lon="-79.27228">
        <ele>177.9</ele>
        <time>2024-09-15T10:37:13.000Z</time>
      </trkpt>
      <trkpt lat="42.95593" lon="-79.26737">
        <ele>177.9</ele>
        <time>2024-09-15T10:37:53.000Z</time>
      </trkpt>
      <trkpt lat="42.95595" lon="-79.26516">
        <ele>177.9</ele>
        <time>2024-09-15T10:38:11.000Z</time>
      </trkpt>
      <trkpt lat="42.95595" lon="-79.2636799">
        <ele>177.9</ele>
        <time>2024-09-15T10:38:23.000Z</time>
      </trkpt>
      <trkpt lat="42.95596" lon="-79.26221">
        <ele>176.9</ele>
        <time>2024-09-15T10:38:35.000Z</time>
      </trkpt>
      <trkpt lat="42.95596" lon="-79.26221">
        <ele>176.9</ele>
        <time>2024-09-15T10:38:35.000Z</time>
      </trkpt>
      <trkpt lat="42.95651" lon="-79.26218">
        <ele>176.9</ele>
        <time>2024-09-15T10:38:41.000Z</time>
      </trkpt>
      <trkpt lat="42.95705" lon="-79.2622">
        <ele>176.9</ele>
        <time>2024-09-15T10:38:47.000Z</time>
      </trkpt>
      <trkpt lat="42.95798" lon="-79.26219">
        <ele>176.9</ele>
        <time>2024-09-15T10:38:57.000Z</time>
      </trkpt>
      <trkpt lat="42.95868" lon="-79.26218">
        <ele>176.7</ele>
        <time>2024-09-15T10:39:05.000Z</time>
      </trkpt>
      <trkpt lat="42.95886" lon="-79.26217">
        <ele>176.5</ele>
        <time>2024-09-15T10:39:07.000Z</time>
      </trkpt>
      <trkpt lat="42.95997" lon="-79.26205">
        <ele>176.2</ele>
        <time>2024-09-15T10:39:19.000Z</time>
      </trkpt>
      <trkpt lat="42.96012" lon="-79.26203">
        <ele>176.1</ele>
        <time>2024-09-15T10:39:21.000Z</time>
      </trkpt>
      <trkpt lat="42.96083" lon="-79.26194">
        <ele>175.9</ele>
        <time>2024-09-15T10:39:29.000Z</time>
      </trkpt>
      <trkpt lat="42.96137" lon="-79.26187">
        <ele>175.9</ele>
        <time>2024-09-15T10:39:35.000Z</time>
      </trkpt>
      <trkpt lat="42.9615099" lon="-79.26185">
        <ele>175.9</ele>
        <time>2024-09-15T10:39:37.000Z</time>
      </trkpt>
      <trkpt lat="42.96166" lon="-79.26184">
        <ele>175.9</ele>
        <time>2024-09-15T10:39:39.000Z</time>
      </trkpt>
      <trkpt lat="42.96187" lon="-79.26181">
        <ele>175.9</ele>
        <time>2024-09-15T10:39:41.000Z</time>
      </trkpt>
      <trkpt lat="42.96225" lon="-79.26178">
        <ele>175.9</ele>
        <time>2024-09-15T10:39:45.000Z</time>
      </trkpt>
      <trkpt lat="42.96225" lon="-79.26178">
        <ele>175.9</ele>
        <time>2024-09-15T10:39:45.000Z</time>
      </trkpt>
      <trkpt lat="42.96222" lon="-79.25943">
        <ele>175.1</ele>
        <time>2024-09-15T10:40:04.000Z</time>
      </trkpt>
      <trkpt lat="42.9622" lon="-79.25484">
        <ele>173.9</ele>
        <time>2024-09-15T10:40:41.000Z</time>
      </trkpt>
      <trkpt lat="42.9622" lon="-79.2538299">
        <ele>173.9</ele>
        <time>2024-09-15T10:40:49.000Z</time>
      </trkpt>
      <trkpt lat="42.96219" lon="-79.25209">
        <ele>173.9</ele>
        <time>2024-09-15T10:41:03.000Z</time>
      </trkpt>
      <trkpt lat="42.96219" lon="-79.25131">
        <ele>173.9</ele>
        <time>2024-09-15T10:41:09.000Z</time>
      </trkpt>
      <trkpt lat="42.96219" lon="-79.2510999">
        <ele>173.9</ele>
        <time>2024-09-15T10:41:11.000Z</time>
      </trkpt>
      <trkpt lat="42.96219" lon="-79.2510999">
        <ele>173.9</ele>
        <time>2024-09-15T10:41:11.000Z</time>
      </trkpt>
      <trkpt lat="42.96215" lon="-79.25126">
        <ele>173.9</ele>
        <time>2024-09-15T10:41:12.000Z</time>
      </trkpt>
      <trkpt lat="42.962153" lon="-79.251258">
        <ele>173.9</ele>
        <time>2024-09-15T10:41:12.000Z</time>
      </trkpt>
      <trkpt lat="42.96219" lon="-79.2510999">
        <ele>173.9</ele>
        <time>2024-09-15T10:41:13.000Z</time>
      </trkpt>
      <trkpt lat="42.9621799" lon="-79.24986">
        <ele>174.9</ele>
        <time>2024-09-15T10:41:23.000Z</time>
      </trkpt>
      <trkpt lat="42.9621799" lon="-79.24969">
        <ele>174.9</ele>
        <time>2024-09-15T10:41:24.000Z</time>
      </trkpt>
      <trkpt lat="42.96208" lon="-79.24836">
        <ele>174.8</ele>
        <time>2024-09-15T10:41:35.000Z</time>
      </trkpt>
      <trkpt lat="42.96186" lon="-79.24624">
        <ele>175.9</ele>
        <time>2024-09-15T10:41:52.000Z</time>
      </trkpt>
      <trkpt lat="42.9617099" lon="-79.24468">
        <ele>176.9</ele>
        <time>2024-09-15T10:42:05.000Z</time>
      </trkpt>
      <trkpt lat="42.96156" lon="-79.2428599">
        <ele>177.9</ele>
        <time>2024-09-15T10:42:20.000Z</time>
      </trkpt>
      <trkpt lat="42.96149" lon="-79.24209">
        <ele>178.4</ele>
        <time>2024-09-15T10:42:26.000Z</time>
      </trkpt>
      <trkpt lat="42.9612" lon="-79.239">
        <ele>179.9</ele>
        <time>2024-09-15T10:42:51.000Z</time>
      </trkpt>
      <trkpt lat="42.96115" lon="-79.23853">
        <ele>179.9</ele>
        <time>2024-09-15T10:42:55.000Z</time>
      </trkpt>
      <trkpt lat="42.96101" lon="-79.2371">
        <ele>180.4</ele>
        <time>2024-09-15T10:43:07.000Z</time>
      </trkpt>
      <trkpt lat="42.96081" lon="-79.23512">
        <ele>179.9</ele>
        <time>2024-09-15T10:43:23.000Z</time>
      </trkpt>
      <trkpt lat="42.96069" lon="-79.23391">
        <ele>179.4</ele>
        <time>2024-09-15T10:43:33.000Z</time>
      </trkpt>
      <trkpt lat="42.96061" lon="-79.23305">
        <ele>178.9</ele>
        <time>2024-09-15T10:43:40.000Z</time>
      </trkpt>
      <trkpt lat="42.96049" lon="-79.23195">
        <ele>178.1</ele>
        <time>2024-09-15T10:43:49.000Z</time>
      </trkpt>
      <trkpt lat="42.96046" lon="-79.23147">
        <ele>177.9</ele>
        <time>2024-09-15T10:43:53.000Z</time>
      </trkpt>
      <trkpt lat="42.96045" lon="-79.23107">
        <ele>177.9</ele>
        <time>2024-09-15T10:43:56.000Z</time>
      </trkpt>
      <trkpt lat="42.96043" lon="-79.23057">
        <ele>177.9</ele>
        <time>2024-09-15T10:44:00.000Z</time>
      </trkpt>
      <trkpt lat="42.96044" lon="-79.23017">
        <ele>177.9</ele>
        <time>2024-09-15T10:44:03.000Z</time>
      </trkpt>
      <trkpt lat="42.96045" lon="-79.23003">
        <ele>177.9</ele>
        <time>2024-09-15T10:44:04.000Z</time>
      </trkpt>
      <trkpt lat="42.96045" lon="-79.22999">
        <ele>177.8</ele>
        <time>2024-09-15T10:44:04.000Z</time>
      </trkpt>
      <trkpt lat="42.96034" lon="-79.2265199">
        <ele>176.9</ele>
        <time>2024-09-15T10:44:32.000Z</time>
      </trkpt>
      <trkpt lat="42.96035" lon="-79.22595">
        <ele>176.9</ele>
        <time>2024-09-15T10:44:37.000Z</time>
      </trkpt>
      <trkpt lat="42.96035" lon="-79.22586">
        <ele>176.9</ele>
        <time>2024-09-15T10:44:38.000Z</time>
      </trkpt>
      <trkpt lat="42.96034" lon="-79.22545">
        <ele>177.4</ele>
        <time>2024-09-15T10:44:41.000Z</time>
      </trkpt>
      <trkpt lat="42.96033" lon="-79.22495">
        <ele>177.9</ele>
        <time>2024-09-15T10:44:45.000Z</time>
      </trkpt>
      <trkpt lat="42.96032" lon="-79.22454">
        <ele>177.9</ele>
        <time>2024-09-15T10:44:48.000Z</time>
      </trkpt>
      <trkpt lat="42.96032" lon="-79.22414">
        <ele>177.9</ele>
        <time>2024-09-15T10:44:51.000Z</time>
      </trkpt>
      <trkpt lat="42.96033" lon="-79.22376">
        <ele>177.9</ele>
        <time>2024-09-15T10:44:54.000Z</time>
      </trkpt>
      <trkpt lat="42.96035" lon="-79.22333">
        <ele>177.9</ele>
        <time>2024-09-15T10:44:58.000Z</time>
      </trkpt>
      <trkpt lat="42.96036" lon="-79.2232">
        <ele>177.9</ele>
        <time>2024-09-15T10:44:59.000Z</time>
      </trkpt>
      <trkpt lat="42.96042" lon="-79.22264">
        <ele>177.9</ele>
        <time>2024-09-15T10:45:04.000Z</time>
      </trkpt>
      <trkpt lat="42.96047" lon="-79.22217">
        <ele>177.9</ele>
        <time>2024-09-15T10:45:08.000Z</time>
      </trkpt>
      <trkpt lat="42.96054" lon="-79.2215">
        <ele>177.9</ele>
        <time>2024-09-15T10:45:14.000Z</time>
      </trkpt>
      <trkpt lat="42.96063" lon="-79.22064">
        <ele>177.9</ele>
        <time>2024-09-15T10:45:21.000Z</time>
      </trkpt>
      <trkpt lat="42.96069" lon="-79.22012">
        <ele>177.9</ele>
        <time>2024-09-15T10:45:25.000Z</time>
      </trkpt>
      <trkpt lat="42.96078" lon="-79.21926">
        <ele>177.9</ele>
        <time>2024-09-15T10:45:32.000Z</time>
      </trkpt>
      <trkpt lat="42.96088" lon="-79.2184599">
        <ele>178.8</ele>
        <time>2024-09-15T10:45:39.000Z</time>
      </trkpt>
      <trkpt lat="42.96091" lon="-79.21809">
        <ele>178.9</ele>
        <time>2024-09-15T10:45:42.000Z</time>
      </trkpt>
      <trkpt lat="42.96093" lon="-79.21781">
        <ele>178.9</ele>
        <time>2024-09-15T10:45:44.000Z</time>
      </trkpt>
      <trkpt lat="42.96094" lon="-79.21753">
        <ele>178.9</ele>
        <time>2024-09-15T10:45:46.000Z</time>
      </trkpt>
      <trkpt lat="42.96094" lon="-79.2168">
        <ele>178.9</ele>
        <time>2024-09-15T10:45:52.000Z</time>
      </trkpt>
      <trkpt lat="42.96094" lon="-79.21659">
        <ele>178.9</ele>
        <time>2024-09-15T10:45:54.000Z</time>
      </trkpt>
      <trkpt lat="42.96092" lon="-79.21625">
        <ele>178.9</ele>
        <time>2024-09-15T10:45:57.000Z</time>
      </trkpt>
      <trkpt lat="42.96088" lon="-79.21571">
        <ele>178.9</ele>
        <time>2024-09-15T10:46:01.000Z</time>
      </trkpt>
      <trkpt lat="42.96084" lon="-79.21514">
        <ele>178.9</ele>
        <time>2024-09-15T10:46:06.000Z</time>
      </trkpt>
      <trkpt lat="42.96083" lon="-79.21496">
        <ele>178.9</ele>
        <time>2024-09-15T10:46:07.000Z</time>
      </trkpt>
      <trkpt lat="42.96067" lon="-79.2133">
        <ele>178.9</ele>
        <time>2024-09-15T10:46:21.000Z</time>
      </trkpt>
      <trkpt lat="42.96066" lon="-79.21318">
        <ele>178.9</ele>
        <time>2024-09-15T10:46:22.000Z</time>
      </trkpt>
      <trkpt lat="42.9606" lon="-79.21237">
        <ele>178.9</ele>
        <time>2024-09-15T10:46:29.000Z</time>
      </trkpt>
      <trkpt lat="42.96049" lon="-79.2108499">
        <ele>179.8</ele>
        <time>2024-09-15T10:46:41.000Z</time>
      </trkpt>
      <trkpt lat="42.96041" lon="-79.20985">
        <ele>179.9</ele>
        <time>2024-09-15T10:46:49.000Z</time>
      </trkpt>
      <trkpt lat="42.96035" lon="-79.20912">
        <ele>179.9</ele>
        <time>2024-09-15T10:46:55.000Z</time>
      </trkpt>
      <trkpt lat="42.9602999" lon="-79.2085">
        <ele>179.9</ele>
        <time>2024-09-15T10:47:00.000Z</time>
      </trkpt>
      <trkpt lat="42.96024" lon="-79.20779">
        <ele>179.9</ele>
        <time>2024-09-15T10:47:06.000Z</time>
      </trkpt>
      <trkpt lat="42.9602099" lon="-79.20739">
        <ele>179.9</ele>
        <time>2024-09-15T10:47:09.000Z</time>
      </trkpt>
      <trkpt lat="42.9602" lon="-79.20738">
        <ele>179.9</ele>
        <time>2024-09-15T10:47:09.000Z</time>
      </trkpt>
      <trkpt lat="42.96017" lon="-79.20707">
        <ele>179.9</ele>
        <time>2024-09-15T10:47:12.000Z</time>
      </trkpt>
      <trkpt lat="42.96014" lon="-79.20669">
        <ele>179.9</ele>
        <time>2024-09-15T10:47:15.000Z</time>
      </trkpt>
      <trkpt lat="42.9601" lon="-79.20629">
        <ele>179.9</ele>
        <time>2024-09-15T10:47:18.000Z</time>
      </trkpt>
      <trkpt lat="42.96006" lon="-79.20586">
        <ele>179.9</ele>
        <time>2024-09-15T10:47:22.000Z</time>
      </trkpt>
      <trkpt lat="42.96002" lon="-79.2053">
        <ele>179.9</ele>
        <time>2024-09-15T10:47:27.000Z</time>
      </trkpt>
      <trkpt lat="42.96" lon="-79.2047">
        <ele>179.9</ele>
        <time>2024-09-15T10:47:32.000Z</time>
      </trkpt>
      <trkpt lat="42.95991" lon="-79.20365">
        <ele>179.9</ele>
        <time>2024-09-15T10:47:41.000Z</time>
      </trkpt>
      <trkpt lat="42.95989" lon="-79.20335">
        <ele>179.9</ele>
        <time>2024-09-15T10:47:43.000Z</time>
      </trkpt>
      <trkpt lat="42.95984" lon="-79.20261">
        <ele>179.9</ele>
        <time>2024-09-15T10:47:49.000Z</time>
      </trkpt>
      <trkpt lat="42.9598" lon="-79.20186">
        <ele>179.9</ele>
        <time>2024-09-15T10:47:55.000Z</time>
      </trkpt>
      <trkpt lat="42.95978" lon="-79.20117">
        <ele>179.9</ele>
        <time>2024-09-15T10:48:01.000Z</time>
      </trkpt>
      <trkpt lat="42.95976" lon="-79.20066">
        <ele>180</ele>
        <time>2024-09-15T10:48:05.000Z</time>
      </trkpt>
      <trkpt lat="42.95971" lon="-79.19991">
        <ele>180.7</ele>
        <time>2024-09-15T10:48:11.000Z</time>
      </trkpt>
      <trkpt lat="42.95965" lon="-79.19748">
        <ele>180.9</ele>
        <time>2024-09-15T10:48:31.000Z</time>
      </trkpt>
      <trkpt lat="42.95959" lon="-79.1955">
        <ele>180.9</ele>
        <time>2024-09-15T10:48:47.000Z</time>
      </trkpt>
      <trkpt lat="42.95955" lon="-79.1938799">
        <ele>180.9</ele>
        <time>2024-09-15T10:49:00.000Z</time>
      </trkpt>
      <trkpt lat="42.95949" lon="-79.19201">
        <ele>180.9</ele>
        <time>2024-09-15T10:49:15.000Z</time>
      </trkpt>
      <trkpt lat="42.95942" lon="-79.18908">
        <ele>181.3</ele>
        <time>2024-09-15T10:49:39.000Z</time>
      </trkpt>
      <trkpt lat="42.95938" lon="-79.18763">
        <ele>181.9</ele>
        <time>2024-09-15T10:49:51.000Z</time>
      </trkpt>
      <trkpt lat="42.95938" lon="-79.18647">
        <ele>181.9</ele>
        <time>2024-09-15T10:50:00.000Z</time>
      </trkpt>
      <trkpt lat="42.95937" lon="-79.18616">
        <ele>181.9</ele>
        <time>2024-09-15T10:50:03.000Z</time>
      </trkpt>
      <trkpt lat="42.95937" lon="-79.186">
        <ele>181.9</ele>
        <time>2024-09-15T10:50:04.000Z</time>
      </trkpt>
      <trkpt lat="42.9593599" lon="-79.18559">
        <ele>181.9</ele>
        <time>2024-09-15T10:50:07.000Z</time>
      </trkpt>
      <trkpt lat="42.9593599" lon="-79.18525">
        <ele>181.9</ele>
        <time>2024-09-15T10:50:10.000Z</time>
      </trkpt>
      <trkpt lat="42.95935" lon="-79.1848">
        <ele>181.9</ele>
        <time>2024-09-15T10:50:14.000Z</time>
      </trkpt>
      <trkpt lat="42.95935" lon="-79.18409">
        <ele>181.9</ele>
        <time>2024-09-15T10:50:20.000Z</time>
      </trkpt>
      <trkpt lat="42.9593599" lon="-79.18369">
        <ele>181.9</ele>
        <time>2024-09-15T10:50:23.000Z</time>
      </trkpt>
      <trkpt lat="42.95937" lon="-79.18349">
        <ele>181.9</ele>
        <time>2024-09-15T10:50:25.000Z</time>
      </trkpt>
      <trkpt lat="42.95938" lon="-79.18332">
        <ele>181.9</ele>
        <time>2024-09-15T10:50:26.000Z</time>
      </trkpt>
      <trkpt lat="42.9594" lon="-79.18315">
        <ele>181.9</ele>
        <time>2024-09-15T10:50:27.000Z</time>
      </trkpt>
      <trkpt lat="42.95942" lon="-79.18299">
        <ele>181.9</ele>
        <time>2024-09-15T10:50:28.000Z</time>
      </trkpt>
      <trkpt lat="42.9594499" lon="-79.18282">
        <ele>181.9</ele>
        <time>2024-09-15T10:50:29.000Z</time>
      </trkpt>
      <trkpt lat="42.9595399" lon="-79.18246">
        <ele>181.9</ele>
        <time>2024-09-15T10:50:32.000Z</time>
      </trkpt>
      <trkpt lat="42.95963" lon="-79.18211">
        <ele>181.9</ele>
        <time>2024-09-15T10:50:35.000Z</time>
      </trkpt>
      <trkpt lat="42.95971" lon="-79.1819">
        <ele>181.9</ele>
        <time>2024-09-15T10:50:37.000Z</time>
      </trkpt>
      <trkpt lat="42.95971" lon="-79.18188">
        <ele>181.9</ele>
        <time>2024-09-15T10:50:37.000Z</time>
      </trkpt>
      <trkpt lat="42.95978" lon="-79.18172">
        <ele>181.9</ele>
        <time>2024-09-15T10:50:39.000Z</time>
      </trkpt>
      <trkpt lat="42.95987" lon="-79.18151">
        <ele>182.1</ele>
        <time>2024-09-15T10:50:41.000Z</time>
      </trkpt>
      <trkpt lat="42.95997" lon="-79.18128">
        <ele>182.4</ele>
        <time>2024-09-15T10:50:43.000Z</time>
      </trkpt>
      <trkpt lat="42.96008" lon="-79.18107">
        <ele>182.7</ele>
        <time>2024-09-15T10:50:45.000Z</time>
      </trkpt>
      <trkpt lat="42.96013" lon="-79.18098">
        <ele>182.8</ele>
        <time>2024-09-15T10:50:46.000Z</time>
      </trkpt>
      <trkpt lat="42.9603899" lon="-79.18043">
        <ele>182.9</ele>
        <time>2024-09-15T10:50:51.000Z</time>
      </trkpt>
      <trkpt lat="42.96071" lon="-79.17976">
        <ele>182.9</ele>
        <time>2024-09-15T10:50:58.000Z</time>
      </trkpt>
      <trkpt lat="42.96097" lon="-79.17923">
        <ele>182.9</ele>
        <time>2024-09-15T10:51:03.000Z</time>
      </trkpt>
      <trkpt lat="42.96106" lon="-79.17905">
        <ele>182.9</ele>
        <time>2024-09-15T10:51:05.000Z</time>
      </trkpt>
      <trkpt lat="42.96148" lon="-79.1782">
        <ele>182.9</ele>
        <time>2024-09-15T10:51:13.000Z</time>
      </trkpt>
      <trkpt lat="42.96148" lon="-79.1782">
        <ele>182.9</ele>
        <time>2024-09-15T10:51:13.000Z</time>
      </trkpt>
      <trkpt lat="42.96158" lon="-79.178">
        <ele>182.9</ele>
        <time>2024-09-15T10:51:15.000Z</time>
      </trkpt>
      <trkpt lat="42.96173" lon="-79.17768">
        <ele>182.9</ele>
        <time>2024-09-15T10:51:18.000Z</time>
      </trkpt>
      <trkpt lat="42.96185" lon="-79.1774">
        <ele>182.9</ele>
        <time>2024-09-15T10:51:21.000Z</time>
      </trkpt>
      <trkpt lat="42.96192" lon="-79.1772">
        <ele>182.9</ele>
        <time>2024-09-15T10:51:23.000Z</time>
      </trkpt>
      <trkpt lat="42.96195" lon="-79.17711">
        <ele>182.9</ele>
        <time>2024-09-15T10:51:24.000Z</time>
      </trkpt>
      <trkpt lat="42.96204" lon="-79.17681">
        <ele>182.9</ele>
        <time>2024-09-15T10:51:27.000Z</time>
      </trkpt>
      <trkpt lat="42.96207" lon="-79.1767">
        <ele>182.9</ele>
        <time>2024-09-15T10:51:28.000Z</time>
      </trkpt>
      <trkpt lat="42.96212" lon="-79.1765099">
        <ele>182.9</ele>
        <time>2024-09-15T10:51:30.000Z</time>
      </trkpt>
      <trkpt lat="42.96215" lon="-79.1763">
        <ele>182.9</ele>
        <time>2024-09-15T10:51:32.000Z</time>
      </trkpt>
      <trkpt lat="42.96219" lon="-79.17609">
        <ele>182.9</ele>
        <time>2024-09-15T10:51:34.000Z</time>
      </trkpt>
      <trkpt lat="42.96222" lon="-79.17585">
        <ele>182.9</ele>
        <time>2024-09-15T10:51:36.000Z</time>
      </trkpt>
      <trkpt lat="42.96224" lon="-79.17561">
        <ele>182.9</ele>
        <time>2024-09-15T10:51:38.000Z</time>
      </trkpt>
      <trkpt lat="42.96226" lon="-79.17507">
        <ele>182.8</ele>
        <time>2024-09-15T10:51:42.000Z</time>
      </trkpt>
      <trkpt lat="42.96226" lon="-79.17478">
        <ele>183.1</ele>
        <time>2024-09-15T10:51:44.000Z</time>
      </trkpt>
      <trkpt lat="42.9622699" lon="-79.17379">
        <ele>183.9</ele>
        <time>2024-09-15T10:51:52.000Z</time>
      </trkpt>
      <trkpt lat="42.9622699" lon="-79.17341">
        <ele>183.9</ele>
        <time>2024-09-15T10:51:55.000Z</time>
      </trkpt>
      <trkpt lat="42.96229" lon="-79.16989">
        <ele>184.9</ele>
        <time>2024-09-15T10:52:24.000Z</time>
      </trkpt>
      <trkpt lat="42.96229" lon="-79.16426">
        <ele>186.9</ele>
        <time>2024-09-15T10:53:10.000Z</time>
      </trkpt>
      <trkpt lat="42.96232" lon="-79.16186">
        <ele>186.9</ele>
        <time>2024-09-15T10:53:30.000Z</time>
      </trkpt>
      <trkpt lat="42.96232" lon="-79.16136">
        <ele>186.9</ele>
        <time>2024-09-15T10:53:34.000Z</time>
      </trkpt>
      <trkpt lat="42.96232" lon="-79.16086">
        <ele>186.9</ele>
        <time>2024-09-15T10:53:38.000Z</time>
      </trkpt>
      <trkpt lat="42.96231" lon="-79.1599899">
        <ele>186.8</ele>
        <time>2024-09-15T10:53:45.000Z</time>
      </trkpt>
      <trkpt lat="42.96232" lon="-79.15941">
        <ele>186.1</ele>
        <time>2024-09-15T10:53:50.000Z</time>
      </trkpt>
      <trkpt lat="42.96231" lon="-79.15788">
        <ele>185.9</ele>
        <time>2024-09-15T10:54:02.000Z</time>
      </trkpt>
      <trkpt lat="42.96232" lon="-79.15674">
        <ele>184.9</ele>
        <time>2024-09-15T10:54:11.000Z</time>
      </trkpt>
      <trkpt lat="42.96232" lon="-79.15562">
        <ele>184.9</ele>
        <time>2024-09-15T10:54:20.000Z</time>
      </trkpt>
      <trkpt lat="42.96234" lon="-79.15321">
        <ele>183.9</ele>
        <time>2024-09-15T10:54:40.000Z</time>
      </trkpt>
      <trkpt lat="42.96234" lon="-79.15295">
        <ele>183.9</ele>
        <time>2024-09-15T10:54:42.000Z</time>
      </trkpt>
      <trkpt lat="42.96235" lon="-79.15112">
        <ele>183.2</ele>
        <time>2024-09-15T10:54:57.000Z</time>
      </trkpt>
      <trkpt lat="42.96235" lon="-79.14861">
        <ele>182.9</ele>
        <time>2024-09-15T10:55:17.000Z</time>
      </trkpt>
      <trkpt lat="42.96234" lon="-79.14821">
        <ele>182.9</ele>
        <time>2024-09-15T10:55:20.000Z</time>
      </trkpt>
      <trkpt lat="42.96235" lon="-79.14634">
        <ele>182.9</ele>
        <time>2024-09-15T10:55:35.000Z</time>
      </trkpt>
      <trkpt lat="42.96234" lon="-79.14339">
        <ele>182.9</ele>
        <time>2024-09-15T10:55:59.000Z</time>
      </trkpt>
      <trkpt lat="42.96234" lon="-79.14003">
        <ele>182.7</ele>
        <time>2024-09-15T10:56:26.000Z</time>
      </trkpt>
      <trkpt lat="42.96234" lon="-79.13894">
        <ele>182.7</ele>
        <time>2024-09-15T10:56:35.000Z</time>
      </trkpt>
      <trkpt lat="42.96235" lon="-79.1377">
        <ele>182.8</ele>
        <time>2024-09-15T10:56:45.000Z</time>
      </trkpt>
      <trkpt lat="42.96235" lon="-79.13768">
        <ele>182.8</ele>
        <time>2024-09-15T10:56:45.000Z</time>
      </trkpt>
      <trkpt lat="42.96234" lon="-79.1366">
        <ele>181.9</ele>
        <time>2024-09-15T10:56:54.000Z</time>
      </trkpt>
      <trkpt lat="42.96233" lon="-79.13573">
        <ele>181.8</ele>
        <time>2024-09-15T10:57:01.000Z</time>
      </trkpt>
      <trkpt lat="42.96234" lon="-79.13439">
        <ele>181.8</ele>
        <time>2024-09-15T10:57:12.000Z</time>
      </trkpt>
      <trkpt lat="42.96234" lon="-79.13301">
        <ele>180.9</ele>
        <time>2024-09-15T10:57:23.000Z</time>
      </trkpt>
      <trkpt lat="42.96235" lon="-79.1308899">
        <ele>179.8</ele>
        <time>2024-09-15T10:57:40.000Z</time>
      </trkpt>
      <trkpt lat="42.96235" lon="-79.12985">
        <ele>179.9</ele>
        <time>2024-09-15T10:57:48.000Z</time>
      </trkpt>
      <trkpt lat="42.96235" lon="-79.12863">
        <ele>179.9</ele>
        <time>2024-09-15T10:57:58.000Z</time>
      </trkpt>
      <trkpt lat="42.96234" lon="-79.12694">
        <ele>178.9</ele>
        <time>2024-09-15T10:58:12.000Z</time>
      </trkpt>
      <trkpt lat="42.96234" lon="-79.12684">
        <ele>178.9</ele>
        <time>2024-09-15T10:58:13.000Z</time>
      </trkpt>
      <trkpt lat="42.96233" lon="-79.12538">
        <ele>178.9</ele>
        <time>2024-09-15T10:58:25.000Z</time>
      </trkpt>
      <trkpt lat="42.96233" lon="-79.12514">
        <ele>178.9</ele>
        <time>2024-09-15T10:58:27.000Z</time>
      </trkpt>
      <trkpt lat="42.96234" lon="-79.1249">
        <ele>178.9</ele>
        <time>2024-09-15T10:58:29.000Z</time>
      </trkpt>
      <trkpt lat="42.96235" lon="-79.12466">
        <ele>178.9</ele>
        <time>2024-09-15T10:58:31.000Z</time>
      </trkpt>
      <trkpt lat="42.96237" lon="-79.12441">
        <ele>178.9</ele>
        <time>2024-09-15T10:58:33.000Z</time>
      </trkpt>
      <trkpt lat="42.9624" lon="-79.12417">
        <ele>178.9</ele>
        <time>2024-09-15T10:58:35.000Z</time>
      </trkpt>
      <trkpt lat="42.96244" lon="-79.12392">
        <ele>178.9</ele>
        <time>2024-09-15T10:58:37.000Z</time>
      </trkpt>
      <trkpt lat="42.96248" lon="-79.12367">
        <ele>178.9</ele>
        <time>2024-09-15T10:58:39.000Z</time>
      </trkpt>
      <trkpt lat="42.96256" lon="-79.12332">
        <ele>178.9</ele>
        <time>2024-09-15T10:58:42.000Z</time>
      </trkpt>
      <trkpt lat="42.96277" lon="-79.12254">
        <ele>178.9</ele>
        <time>2024-09-15T10:58:49.000Z</time>
      </trkpt>
      <trkpt lat="42.9629199" lon="-79.12192">
        <ele>178.9</ele>
        <time>2024-09-15T10:58:54.000Z</time>
      </trkpt>
      <trkpt lat="42.96296" lon="-79.12179">
        <ele>178.9</ele>
        <time>2024-09-15T10:58:55.000Z</time>
      </trkpt>
      <trkpt lat="42.96299" lon="-79.12165">
        <ele>178.9</ele>
        <time>2024-09-15T10:58:56.000Z</time>
      </trkpt>
      <trkpt lat="42.96302" lon="-79.12148">
        <ele>178.9</ele>
        <time>2024-09-15T10:58:57.000Z</time>
      </trkpt>
      <trkpt lat="42.96306" lon="-79.12128">
        <ele>178.9</ele>
        <time>2024-09-15T10:58:59.000Z</time>
      </trkpt>
      <trkpt lat="42.96309" lon="-79.12111">
        <ele>178.9</ele>
        <time>2024-09-15T10:59:00.000Z</time>
      </trkpt>
      <trkpt lat="42.96312" lon="-79.12083">
        <ele>178.9</ele>
        <time>2024-09-15T10:59:02.000Z</time>
      </trkpt>
      <trkpt lat="42.96314" lon="-79.1206">
        <ele>178.9</ele>
        <time>2024-09-15T10:59:04.000Z</time>
      </trkpt>
      <trkpt lat="42.96315" lon="-79.12044">
        <ele>178.9</ele>
        <time>2024-09-15T10:59:05.000Z</time>
      </trkpt>
      <trkpt lat="42.96316" lon="-79.12027">
        <ele>178.9</ele>
        <time>2024-09-15T10:59:06.000Z</time>
      </trkpt>
      <trkpt lat="42.96318" lon="-79.11955">
        <ele>178.9</ele>
        <time>2024-09-15T10:59:12.000Z</time>
      </trkpt>
      <trkpt lat="42.96319" lon="-79.11854">
        <ele>178.9</ele>
        <time>2024-09-15T10:59:20.000Z</time>
      </trkpt>
      <trkpt lat="42.9632099" lon="-79.11734">
        <ele>178.9</ele>
        <time>2024-09-15T10:59:30.000Z</time>
      </trkpt>
      <trkpt lat="42.96322" lon="-79.11628">
        <ele>178.9</ele>
        <time>2024-09-15T10:59:39.000Z</time>
      </trkpt>
      <trkpt lat="42.96323" lon="-79.11516">
        <ele>178.9</ele>
        <time>2024-09-15T10:59:48.000Z</time>
      </trkpt>
      <trkpt lat="42.96324" lon="-79.11475">
        <ele>178.9</ele>
        <time>2024-09-15T10:59:51.000Z</time>
      </trkpt>
      <trkpt lat="42.96325" lon="-79.11388">
        <ele>178.9</ele>
        <time>2024-09-15T10:59:58.000Z</time>
      </trkpt>
      <trkpt lat="42.96326" lon="-79.11192">
        <ele>178.9</ele>
        <time>2024-09-15T11:00:14.000Z</time>
      </trkpt>
      <trkpt lat="42.96326" lon="-79.11147">
        <ele>178.9</ele>
        <time>2024-09-15T11:00:18.000Z</time>
      </trkpt>
      <trkpt lat="42.96327" lon="-79.10951">
        <ele>178.9</ele>
        <time>2024-09-15T11:00:34.000Z</time>
      </trkpt>
      <trkpt lat="42.96328" lon="-79.10822">
        <ele>178.9</ele>
        <time>2024-09-15T11:00:44.000Z</time>
      </trkpt>
      <trkpt lat="42.96329" lon="-79.10704">
        <ele>178.9</ele>
        <time>2024-09-15T11:00:54.000Z</time>
      </trkpt>
      <trkpt lat="42.9632999" lon="-79.10626">
        <ele>178.9</ele>
        <time>2024-09-15T11:01:00.000Z</time>
      </trkpt>
      <trkpt lat="42.9632999" lon="-79.10534">
        <ele>178.9</ele>
        <time>2024-09-15T11:01:07.000Z</time>
      </trkpt>
      <trkpt lat="42.96331" lon="-79.10395">
        <ele>178.9</ele>
        <time>2024-09-15T11:01:18.000Z</time>
      </trkpt>
      <trkpt lat="42.96332" lon="-79.10309">
        <ele>178.9</ele>
        <time>2024-09-15T11:01:25.000Z</time>
      </trkpt>
      <trkpt lat="42.96333" lon="-79.1022799">
        <ele>178.9</ele>
        <time>2024-09-15T11:01:32.000Z</time>
      </trkpt>
      <trkpt lat="42.96335" lon="-79.10096">
        <ele>178.9</ele>
        <time>2024-09-15T11:01:43.000Z</time>
      </trkpt>
      <trkpt lat="42.96341" lon="-79.09545">
        <ele>178.9</ele>
        <time>2024-09-15T11:02:28.000Z</time>
      </trkpt>
      <trkpt lat="42.96343" lon="-79.09381">
        <ele>178.9</ele>
        <time>2024-09-15T11:02:41.000Z</time>
      </trkpt>
      <trkpt lat="42.96343" lon="-79.0925">
        <ele>178.8</ele>
        <time>2024-09-15T11:02:52.000Z</time>
      </trkpt>
      <trkpt lat="42.96343" lon="-79.09151">
        <ele>179.8</ele>
        <time>2024-09-15T11:03:00.000Z</time>
      </trkpt>
      <trkpt lat="42.96343" lon="-79.09097">
        <ele>179.9</ele>
        <time>2024-09-15T11:03:04.000Z</time>
      </trkpt>
      <trkpt lat="42.96342" lon="-79.09063">
        <ele>179.8</ele>
        <time>2024-09-15T11:03:07.000Z</time>
      </trkpt>
      <trkpt lat="42.96342" lon="-79.0901">
        <ele>179.7</ele>
        <time>2024-09-15T11:03:11.000Z</time>
      </trkpt>
      <trkpt lat="42.96342" lon="-79.08949">
        <ele>179.9</ele>
        <time>2024-09-15T11:03:16.000Z</time>
      </trkpt>
      <trkpt lat="42.96341" lon="-79.08816">
        <ele>178.9</ele>
        <time>2024-09-15T11:03:27.000Z</time>
      </trkpt>
      <trkpt lat="42.96341" lon="-79.08699">
        <ele>178.9</ele>
        <time>2024-09-15T11:03:37.000Z</time>
      </trkpt>
      <trkpt lat="42.9634" lon="-79.08522">
        <ele>178.9</ele>
        <time>2024-09-15T11:03:51.000Z</time>
      </trkpt>
      <trkpt lat="42.96338" lon="-79.08204">
        <ele>178.9</ele>
        <time>2024-09-15T11:04:17.000Z</time>
      </trkpt>
      <trkpt lat="42.9634" lon="-79.0801199">
        <ele>178.9</ele>
        <time>2024-09-15T11:04:33.000Z</time>
      </trkpt>
      <trkpt lat="42.96342" lon="-79.07906">
        <ele>178.9</ele>
        <time>2024-09-15T11:04:42.000Z</time>
      </trkpt>
      <trkpt lat="42.96343" lon="-79.07822">
        <ele>178.9</ele>
        <time>2024-09-15T11:04:49.000Z</time>
      </trkpt>
      <trkpt lat="42.96344" lon="-79.07764">
        <ele>178.9</ele>
        <time>2024-09-15T11:04:54.000Z</time>
      </trkpt>
      <trkpt lat="42.96347" lon="-79.07595">
        <ele>177.9</ele>
        <time>2024-09-15T11:05:08.000Z</time>
      </trkpt>
      <trkpt lat="42.96349" lon="-79.07518">
        <ele>177.9</ele>
        <time>2024-09-15T11:05:14.000Z</time>
      </trkpt>
      <trkpt lat="42.9635" lon="-79.07443">
        <ele>177.9</ele>
        <time>2024-09-15T11:05:20.000Z</time>
      </trkpt>
      <trkpt lat="42.96351" lon="-79.07375">
        <ele>177.9</ele>
        <time>2024-09-15T11:05:26.000Z</time>
      </trkpt>
      <trkpt lat="42.96353" lon="-79.07281">
        <ele>177.9</ele>
        <time>2024-09-15T11:05:34.000Z</time>
      </trkpt>
      <trkpt lat="42.96354" lon="-79.072">
        <ele>177.9</ele>
        <time>2024-09-15T11:05:41.000Z</time>
      </trkpt>
      <trkpt lat="42.96355" lon="-79.07126">
        <ele>177.9</ele>
        <time>2024-09-15T11:05:47.000Z</time>
      </trkpt>
      <trkpt lat="42.96358" lon="-79.06997">
        <ele>177.9</ele>
        <time>2024-09-15T11:05:58.000Z</time>
      </trkpt>
      <trkpt lat="42.96361" lon="-79.06856">
        <ele>177.9</ele>
        <time>2024-09-15T11:06:09.000Z</time>
      </trkpt>
      <trkpt lat="42.96363" lon="-79.06664">
        <ele>177.9</ele>
        <time>2024-09-15T11:06:25.000Z</time>
      </trkpt>
      <trkpt lat="42.9636799" lon="-79.06152">
        <ele>176.9</ele>
        <time>2024-09-15T11:07:07.000Z</time>
      </trkpt>
      <trkpt lat="42.9636799" lon="-79.06025">
        <ele>176.9</ele>
        <time>2024-09-15T11:07:17.000Z</time>
      </trkpt>
      <trkpt lat="42.9637" lon="-79.05812">
        <ele>176.9</ele>
        <time>2024-09-15T11:07:34.000Z</time>
      </trkpt>
      <trkpt lat="42.96371" lon="-79.05729">
        <ele>176.9</ele>
        <time>2024-09-15T11:07:41.000Z</time>
      </trkpt>
      <trkpt lat="42.96372" lon="-79.05603">
        <ele>176.9</ele>
        <time>2024-09-15T11:07:51.000Z</time>
      </trkpt>
      <trkpt lat="42.96374" lon="-79.05502">
        <ele>176.9</ele>
        <time>2024-09-15T11:07:59.000Z</time>
      </trkpt>
      <trkpt lat="42.96373" lon="-79.05286">
        <ele>176</ele>
        <time>2024-09-15T11:08:17.000Z</time>
      </trkpt>
      <trkpt lat="42.96373" lon="-79.05118">
        <ele>175.9</ele>
        <time>2024-09-15T11:08:31.000Z</time>
      </trkpt>
      <trkpt lat="42.96373" lon="-79.05043">
        <ele>175.9</ele>
        <time>2024-09-15T11:08:37.000Z</time>
      </trkpt>
      <trkpt lat="42.96373" lon="-79.04968">
        <ele>175.9</ele>
        <time>2024-09-15T11:08:43.000Z</time>
      </trkpt>
      <trkpt lat="42.96373" lon="-79.04807">
        <ele>175.9</ele>
        <time>2024-09-15T11:08:56.000Z</time>
      </trkpt>
      <trkpt lat="42.96373" lon="-79.04271">
        <ele>175</ele>
        <time>2024-09-15T11:09:40.000Z</time>
      </trkpt>
      <trkpt lat="42.96372" lon="-79.04196">
        <ele>174.9</ele>
        <time>2024-09-15T11:09:46.000Z</time>
      </trkpt>
      <trkpt lat="42.96372" lon="-79.03841">
        <ele>174.9</ele>
        <time>2024-09-15T11:10:15.000Z</time>
      </trkpt>
      <trkpt lat="42.96372" lon="-79.03711">
        <ele>174.9</ele>
        <time>2024-09-15T11:10:26.000Z</time>
      </trkpt>
      <trkpt lat="42.96372" lon="-79.03683">
        <ele>174.9</ele>
        <time>2024-09-15T11:10:28.000Z</time>
      </trkpt>
      <trkpt lat="42.96373" lon="-79.03658">
        <ele>174.9</ele>
        <time>2024-09-15T11:10:30.000Z</time>
      </trkpt>
      <trkpt lat="42.96375" lon="-79.03641">
        <ele>174.9</ele>
        <time>2024-09-15T11:10:31.000Z</time>
      </trkpt>
      <trkpt lat="42.9637699" lon="-79.03621">
        <ele>174.9</ele>
        <time>2024-09-15T11:10:33.000Z</time>
      </trkpt>
      <trkpt lat="42.96379" lon="-79.03599">
        <ele>174.9</ele>
        <time>2024-09-15T11:10:35.000Z</time>
      </trkpt>
      <trkpt lat="42.96384" lon="-79.03572">
        <ele>174.9</ele>
        <time>2024-09-15T11:10:37.000Z</time>
      </trkpt>
      <trkpt lat="42.96387" lon="-79.03556">
        <ele>174.9</ele>
        <time>2024-09-15T11:10:38.000Z</time>
      </trkpt>
      <trkpt lat="42.96391" lon="-79.0354">
        <ele>174.9</ele>
        <time>2024-09-15T11:10:39.000Z</time>
      </trkpt>
      <trkpt lat="42.96396" lon="-79.0352">
        <ele>174.9</ele>
        <time>2024-09-15T11:10:41.000Z</time>
      </trkpt>
      <trkpt lat="42.96402" lon="-79.035">
        <ele>174.9</ele>
        <time>2024-09-15T11:10:43.000Z</time>
      </trkpt>
      <trkpt lat="42.96407" lon="-79.03485">
        <ele>174.9</ele>
        <time>2024-09-15T11:10:44.000Z</time>
      </trkpt>
      <trkpt lat="42.9641499" lon="-79.03463">
        <ele>174.9</ele>
        <time>2024-09-15T11:10:46.000Z</time>
      </trkpt>
      <trkpt lat="42.96421" lon="-79.03449">
        <ele>174.9</ele>
        <time>2024-09-15T11:10:47.000Z</time>
      </trkpt>
      <trkpt lat="42.96428" lon="-79.03434">
        <ele>174.9</ele>
        <time>2024-09-15T11:10:48.000Z</time>
      </trkpt>
      <trkpt lat="42.96439" lon="-79.03412">
        <ele>174.9</ele>
        <time>2024-09-15T11:10:50.000Z</time>
      </trkpt>
      <trkpt lat="42.96448" lon="-79.03395">
        <ele>174.9</ele>
        <time>2024-09-15T11:10:52.000Z</time>
      </trkpt>
      <trkpt lat="42.96456" lon="-79.03382">
        <ele>174.9</ele>
        <time>2024-09-15T11:10:53.000Z</time>
      </trkpt>
      <trkpt lat="42.9647" lon="-79.03361">
        <ele>174.9</ele>
        <time>2024-09-15T11:10:55.000Z</time>
      </trkpt>
      <trkpt lat="42.96483" lon="-79.03345">
        <ele>174.9</ele>
        <time>2024-09-15T11:10:57.000Z</time>
      </trkpt>
      <trkpt lat="42.96487" lon="-79.03339">
        <ele>174.9</ele>
        <time>2024-09-15T11:10:58.000Z</time>
      </trkpt>
      <trkpt lat="42.9654" lon="-79.03279">
        <ele>174.9</ele>
        <time>2024-09-15T11:11:06.000Z</time>
      </trkpt>
      <trkpt lat="42.9654" lon="-79.03279">
        <ele>174.9</ele>
        <time>2024-09-15T11:11:06.000Z</time>
      </trkpt>
      <trkpt lat="42.96532" lon="-79.03263">
        <ele>174.9</ele>
        <time>2024-09-15T11:11:08.000Z</time>
      </trkpt>
      <trkpt lat="42.96528" lon="-79.03256">
        <ele>174.9</ele>
        <time>2024-09-15T11:11:09.000Z</time>
      </trkpt>
      <trkpt lat="42.96523" lon="-79.0325">
        <ele>174.9</ele>
        <time>2024-09-15T11:11:10.000Z</time>
      </trkpt>
      <trkpt lat="42.96519" lon="-79.0324399">
        <ele>174.9</ele>
        <time>2024-09-15T11:11:11.000Z</time>
      </trkpt>
      <trkpt lat="42.96481" lon="-79.03198">
        <ele>174.9</ele>
        <time>2024-09-15T11:11:17.000Z</time>
      </trkpt>
      <trkpt lat="42.96449" lon="-79.03161">
        <ele>174.9</ele>
        <time>2024-09-15T11:11:22.000Z</time>
      </trkpt>
      <trkpt lat="42.9644" lon="-79.03149">
        <ele>174.9</ele>
        <time>2024-09-15T11:11:23.000Z</time>
      </trkpt>
      <trkpt lat="42.96434" lon="-79.03139">
        <ele>174.9</ele>
        <time>2024-09-15T11:11:24.000Z</time>
      </trkpt>
      <trkpt lat="42.96428" lon="-79.0313">
        <ele>174.9</ele>
        <time>2024-09-15T11:11:25.000Z</time>
      </trkpt>
      <trkpt lat="42.96423" lon="-79.03121">
        <ele>174.9</ele>
        <time>2024-09-15T11:11:26.000Z</time>
      </trkpt>
      <trkpt lat="42.96417" lon="-79.03109">
        <ele>174.9</ele>
        <time>2024-09-15T11:11:27.000Z</time>
      </trkpt>
      <trkpt lat="42.96411" lon="-79.03097">
        <ele>174.9</ele>
        <time>2024-09-15T11:11:28.000Z</time>
      </trkpt>
      <trkpt lat="42.96407" lon="-79.0308699">
        <ele>174.8</ele>
        <time>2024-09-15T11:11:29.000Z</time>
      </trkpt>
      <trkpt lat="42.96401" lon="-79.03073">
        <ele>174.7</ele>
        <time>2024-09-15T11:11:30.000Z</time>
      </trkpt>
      <trkpt lat="42.9639499" lon="-79.03056">
        <ele>174.5</ele>
        <time>2024-09-15T11:11:32.000Z</time>
      </trkpt>
      <trkpt lat="42.96391" lon="-79.03044">
        <ele>174.3</ele>
        <time>2024-09-15T11:11:33.000Z</time>
      </trkpt>
      <trkpt lat="42.96388" lon="-79.0302899">
        <ele>174.1</ele>
        <time>2024-09-15T11:11:34.000Z</time>
      </trkpt>
      <trkpt lat="42.96384" lon="-79.03014">
        <ele>173.9</ele>
        <time>2024-09-15T11:11:35.000Z</time>
      </trkpt>
      <trkpt lat="42.96382" lon="-79.02999">
        <ele>173.9</ele>
        <time>2024-09-15T11:11:36.000Z</time>
      </trkpt>
      <trkpt lat="42.9638" lon="-79.02985">
        <ele>173.9</ele>
        <time>2024-09-15T11:11:37.000Z</time>
      </trkpt>
      <trkpt lat="42.96379" lon="-79.02969">
        <ele>173.9</ele>
        <time>2024-09-15T11:11:38.000Z</time>
      </trkpt>
      <trkpt lat="42.9637699" lon="-79.02951">
        <ele>173.9</ele>
        <time>2024-09-15T11:11:39.000Z</time>
      </trkpt>
      <trkpt lat="42.9637699" lon="-79.02933">
        <ele>173.9</ele>
        <time>2024-09-15T11:11:40.000Z</time>
      </trkpt>
      <trkpt lat="42.96376" lon="-79.0289899">
        <ele>173.9</ele>
        <time>2024-09-15T11:11:43.000Z</time>
      </trkpt>
      <trkpt lat="42.96373" lon="-79.02654">
        <ele>173.9</ele>
        <time>2024-09-15T11:12:03.000Z</time>
      </trkpt>
      <trkpt lat="42.96373" lon="-79.02654">
        <ele>173.9</ele>
        <time>2024-09-15T11:12:03.000Z</time>
      </trkpt>
      <trkpt lat="42.96371" lon="-79.02593">
        <ele>173.9</ele>
        <time>2024-09-15T11:12:08.000Z</time>
      </trkpt>
      <trkpt lat="42.9637" lon="-79.02585">
        <ele>173.9</ele>
        <time>2024-09-15T11:12:09.000Z</time>
      </trkpt>
      <trkpt lat="42.9636799" lon="-79.02555">
        <ele>173.9</ele>
        <time>2024-09-15T11:12:11.000Z</time>
      </trkpt>
      <trkpt lat="42.96366" lon="-79.02536">
        <ele>173.9</ele>
        <time>2024-09-15T11:12:13.000Z</time>
      </trkpt>
      <trkpt lat="42.96365" lon="-79.02526">
        <ele>173.9</ele>
        <time>2024-09-15T11:12:14.000Z</time>
      </trkpt>
      <trkpt lat="42.96358" lon="-79.02463">
        <ele>173.9</ele>
        <time>2024-09-15T11:12:19.000Z</time>
      </trkpt>
      <trkpt lat="42.96345" lon="-79.02366">
        <ele>173.9</ele>
        <time>2024-09-15T11:12:27.000Z</time>
      </trkpt>
      <trkpt lat="42.96332" lon="-79.0227">
        <ele>173.9</ele>
        <time>2024-09-15T11:12:35.000Z</time>
      </trkpt>
      <trkpt lat="42.96326" lon="-79.02231">
        <ele>173.9</ele>
        <time>2024-09-15T11:12:38.000Z</time>
      </trkpt>
      <trkpt lat="42.96323" lon="-79.02206">
        <ele>173.9</ele>
        <time>2024-09-15T11:12:40.000Z</time>
      </trkpt>
      <trkpt lat="42.9632099" lon="-79.0219">
        <ele>173.9</ele>
        <time>2024-09-15T11:12:41.000Z</time>
      </trkpt>
      <trkpt lat="42.96318" lon="-79.0217">
        <ele>173.9</ele>
        <time>2024-09-15T11:12:43.000Z</time>
      </trkpt>
      <trkpt lat="42.96315" lon="-79.02149">
        <ele>173.9</ele>
        <time>2024-09-15T11:12:45.000Z</time>
      </trkpt>
      <trkpt lat="42.96301" lon="-79.02052">
        <ele>173.9</ele>
        <time>2024-09-15T11:12:53.000Z</time>
      </trkpt>
      <trkpt lat="42.96285" lon="-79.01939">
        <ele>175.1</ele>
        <time>2024-09-15T11:13:02.000Z</time>
      </trkpt>
      <trkpt lat="42.96272" lon="-79.01843">
        <ele>175.8</ele>
        <time>2024-09-15T11:13:10.000Z</time>
      </trkpt>
      <trkpt lat="42.96272" lon="-79.01843">
        <ele>175.8</ele>
        <time>2024-09-15T11:13:10.000Z</time>
      </trkpt>
      <trkpt lat="42.96352" lon="-79.01842">
        <ele>175.8</ele>
        <time>2024-09-15T11:13:19.000Z</time>
      </trkpt>
      <trkpt lat="42.96445" lon="-79.01843">
        <ele>175.4</ele>
        <time>2024-09-15T11:13:29.000Z</time>
      </trkpt>
      <trkpt lat="42.96491" lon="-79.01844">
        <ele>174.9</ele>
        <time>2024-09-15T11:13:34.000Z</time>
      </trkpt>
      <trkpt lat="42.96588" lon="-79.01843">
        <ele>174.8</ele>
        <time>2024-09-15T11:13:45.000Z</time>
      </trkpt>
      <trkpt lat="42.96685" lon="-79.01834">
        <ele>174.8</ele>
        <time>2024-09-15T11:13:56.000Z</time>
      </trkpt>
      <trkpt lat="42.96703" lon="-79.01833">
        <ele>174.9</ele>
        <time>2024-09-15T11:13:58.000Z</time>
      </trkpt>
      <trkpt lat="42.96736" lon="-79.0183">
        <ele>174.9</ele>
        <time>2024-09-15T11:14:02.000Z</time>
      </trkpt>
      <trkpt lat="42.9702" lon="-79.01827">
        <ele>173.9</ele>
        <time>2024-09-15T11:14:34.000Z</time>
      </trkpt>
      <trkpt lat="42.97099" lon="-79.01827">
        <ele>173.9</ele>
        <time>2024-09-15T11:14:43.000Z</time>
      </trkpt>
      <trkpt lat="42.971595" lon="-79.018275">
        <ele>173.9</ele>
        <time>2024-09-15T11:14:50.000Z</time>
      </trkpt>
      <trkpt lat="42.97224" lon="-79.01828">
        <ele>173.9</ele>
        <time>2024-09-15T11:14:57.000Z</time>
      </trkpt>
      <trkpt lat="42.97278" lon="-79.0182899">
        <ele>173.9</ele>
        <time>2024-09-15T11:15:03.000Z</time>
      </trkpt>
      <trkpt lat="42.97368" lon="-79.0182899">
        <ele>173.9</ele>
        <time>2024-09-15T11:15:13.000Z</time>
      </trkpt>
      <trkpt lat="42.97386" lon="-79.0182899">
        <ele>173.9</ele>
        <time>2024-09-15T11:15:15.000Z</time>
      </trkpt>
      <trkpt lat="42.97458" lon="-79.0183">
        <ele>173.9</ele>
        <time>2024-09-15T11:15:23.000Z</time>
      </trkpt>
      <trkpt lat="42.97569" lon="-79.01832">
        <ele>173.9</ele>
        <time>2024-09-15T11:15:35.000Z</time>
      </trkpt>
      <trkpt lat="42.97696" lon="-79.01834">
        <ele>173.9</ele>
        <time>2024-09-15T11:15:49.000Z</time>
      </trkpt>
      <trkpt lat="42.97701" lon="-79.01833">
        <ele>173.9</ele>
        <time>2024-09-15T11:15:50.000Z</time>
      </trkpt>
      <trkpt lat="42.97704" lon="-79.01832">
        <ele>173.9</ele>
        <time>2024-09-15T11:15:50.000Z</time>
      </trkpt>
      <trkpt lat="42.97706" lon="-79.01831">
        <ele>173.9</ele>
        <time>2024-09-15T11:15:50.000Z</time>
      </trkpt>
      <trkpt lat="42.97711" lon="-79.01826">
        <ele>173.9</ele>
        <time>2024-09-15T11:15:51.000Z</time>
      </trkpt>
      <trkpt lat="42.97711" lon="-79.01826">
        <ele>173.9</ele>
        <time>2024-09-15T11:15:51.000Z</time>
      </trkpt>
      <trkpt lat="42.97725" lon="-79.01852">
        <ele>173.9</ele>
        <time>2024-09-15T11:15:54.000Z</time>
      </trkpt>
      <trkpt lat="42.97731" lon="-79.01863">
        <ele>173.9</ele>
        <time>2024-09-15T11:15:55.000Z</time>
      </trkpt>
      <trkpt lat="42.9773799" lon="-79.01877">
        <ele>173.9</ele>
        <time>2024-09-15T11:15:56.000Z</time>
      </trkpt>
      <trkpt lat="42.97748" lon="-79.01894">
        <ele>173.9</ele>
        <time>2024-09-15T11:15:58.000Z</time>
      </trkpt>
      <trkpt lat="42.9776" lon="-79.01916">
        <ele>173.9</ele>
        <time>2024-09-15T11:16:00.000Z</time>
      </trkpt>
      <trkpt lat="42.97778" lon="-79.01943">
        <ele>173.9</ele>
        <time>2024-09-15T11:16:03.000Z</time>
      </trkpt>
      <trkpt lat="42.97813" lon="-79.01993">
        <ele>173.9</ele>
        <time>2024-09-15T11:16:09.000Z</time>
      </trkpt>
      <trkpt lat="42.97842" lon="-79.02032">
        <ele>173.9</ele>
        <time>2024-09-15T11:16:14.000Z</time>
      </trkpt>
      <trkpt lat="42.97869" lon="-79.02072">
        <ele>173.9</ele>
        <time>2024-09-15T11:16:18.000Z</time>
      </trkpt>
      <trkpt lat="42.97891" lon="-79.02104">
        <ele>173.9</ele>
        <time>2024-09-15T11:16:22.000Z</time>
      </trkpt>
      <trkpt lat="42.9790599" lon="-79.02125">
        <ele>173.9</ele>
        <time>2024-09-15T11:16:24.000Z</time>
      </trkpt>
      <trkpt lat="42.97949" lon="-79.02181">
        <ele>173.9</ele>
        <time>2024-09-15T11:16:31.000Z</time>
      </trkpt>
      <trkpt lat="42.97965" lon="-79.022">
        <ele>173.9</ele>
        <time>2024-09-15T11:16:33.000Z</time>
      </trkpt>
      <trkpt lat="42.97985" lon="-79.0222">
        <ele>173.9</ele>
        <time>2024-09-15T11:16:36.000Z</time>
      </trkpt>
      <trkpt lat="42.98031" lon="-79.02269">
        <ele>173.9</ele>
        <time>2024-09-15T11:16:42.000Z</time>
      </trkpt>
      <trkpt lat="42.98052" lon="-79.0229">
        <ele>173.9</ele>
        <time>2024-09-15T11:16:45.000Z</time>
      </trkpt>
      <trkpt lat="42.98057" lon="-79.02297">
        <ele>173.9</ele>
        <time>2024-09-15T11:16:46.000Z</time>
      </trkpt>
      <trkpt lat="42.98062" lon="-79.02303">
        <ele>173.9</ele>
        <time>2024-09-15T11:16:47.000Z</time>
      </trkpt>
      <trkpt lat="42.98066" lon="-79.02309">
        <ele>173.9</ele>
        <time>2024-09-15T11:16:48.000Z</time>
      </trkpt>
      <trkpt lat="42.98072" lon="-79.02319">
        <ele>173.9</ele>
        <time>2024-09-15T11:16:49.000Z</time>
      </trkpt>
      <trkpt lat="42.9807599" lon="-79.02325">
        <ele>173.9</ele>
        <time>2024-09-15T11:16:50.000Z</time>
      </trkpt>
      <trkpt lat="42.98082" lon="-79.02337">
        <ele>173.9</ele>
        <time>2024-09-15T11:16:51.000Z</time>
      </trkpt>
      <trkpt lat="42.98096" lon="-79.02366">
        <ele>173.9</ele>
        <time>2024-09-15T11:16:54.000Z</time>
      </trkpt>
      <trkpt lat="42.98104" lon="-79.02382">
        <ele>173.9</ele>
        <time>2024-09-15T11:16:56.000Z</time>
      </trkpt>
      <trkpt lat="42.98112" lon="-79.0239299">
        <ele>173.9</ele>
        <time>2024-09-15T11:16:57.000Z</time>
      </trkpt>
      <trkpt lat="42.98116" lon="-79.02398">
        <ele>173.9</ele>
        <time>2024-09-15T11:16:58.000Z</time>
      </trkpt>
      <trkpt lat="42.9812299" lon="-79.02406">
        <ele>173.9</ele>
        <time>2024-09-15T11:16:59.000Z</time>
      </trkpt>
      <trkpt lat="42.98131" lon="-79.02412">
        <ele>173.9</ele>
        <time>2024-09-15T11:17:00.000Z</time>
      </trkpt>
      <trkpt lat="42.98139" lon="-79.02419">
        <ele>173.9</ele>
        <time>2024-09-15T11:17:01.000Z</time>
      </trkpt>
      <trkpt lat="42.98148" lon="-79.02426">
        <ele>173.9</ele>
        <time>2024-09-15T11:17:02.000Z</time>
      </trkpt>
      <trkpt lat="42.98165" lon="-79.0243799">
        <ele>173.9</ele>
        <time>2024-09-15T11:17:04.000Z</time>
      </trkpt>
      <trkpt lat="42.98183" lon="-79.02449">
        <ele>173.9</ele>
        <time>2024-09-15T11:17:06.000Z</time>
      </trkpt>
      <trkpt lat="42.98196" lon="-79.0245599">
        <ele>173.9</ele>
        <time>2024-09-15T11:17:08.000Z</time>
      </trkpt>
      <trkpt lat="42.982" lon="-79.02459">
        <ele>173.9</ele>
        <time>2024-09-15T11:17:09.000Z</time>
      </trkpt>
      <trkpt lat="42.98248" lon="-79.02483">
        <ele>173.9</ele>
        <time>2024-09-15T11:17:15.000Z</time>
      </trkpt>
      <trkpt lat="42.98263" lon="-79.02488">
        <ele>173.9</ele>
        <time>2024-09-15T11:17:17.000Z</time>
      </trkpt>
      <trkpt lat="42.98285" lon="-79.0249599">
        <ele>173.9</ele>
        <time>2024-09-15T11:17:20.000Z</time>
      </trkpt>
      <trkpt lat="42.98311" lon="-79.0250499">
        <ele>173.9</ele>
        <time>2024-09-15T11:17:23.000Z</time>
      </trkpt>
      <trkpt lat="42.98325" lon="-79.02511">
        <ele>173.9</ele>
        <time>2024-09-15T11:17:25.000Z</time>
      </trkpt>
      <trkpt lat="42.98334" lon="-79.0251399">
        <ele>173.9</ele>
        <time>2024-09-15T11:17:26.000Z</time>
      </trkpt>
      <trkpt lat="42.98352" lon="-79.02522">
        <ele>173.9</ele>
        <time>2024-09-15T11:17:28.000Z</time>
      </trkpt>
      <trkpt lat="42.98366" lon="-79.02528">
        <ele>173.9</ele>
        <time>2024-09-15T11:17:30.000Z</time>
      </trkpt>
      <trkpt lat="42.98388" lon="-79.02538">
        <ele>173.9</ele>
        <time>2024-09-15T11:17:33.000Z</time>
      </trkpt>
      <trkpt lat="42.98411" lon="-79.02549">
        <ele>173.9</ele>
        <time>2024-09-15T11:17:36.000Z</time>
      </trkpt>
      <trkpt lat="42.98427" lon="-79.02557">
        <ele>173.9</ele>
        <time>2024-09-15T11:17:38.000Z</time>
      </trkpt>
      <trkpt lat="42.9844099" lon="-79.02565">
        <ele>173.9</ele>
        <time>2024-09-15T11:17:40.000Z</time>
      </trkpt>
      <trkpt lat="42.98453" lon="-79.02573">
        <ele>173.9</ele>
        <time>2024-09-15T11:17:41.000Z</time>
      </trkpt>
      <trkpt lat="42.9848" lon="-79.02591">
        <ele>173.9</ele>
        <time>2024-09-15T11:17:44.000Z</time>
      </trkpt>
      <trkpt lat="42.9848799" lon="-79.02597">
        <ele>173.9</ele>
        <time>2024-09-15T11:17:45.000Z</time>
      </trkpt>
      <trkpt lat="42.98511" lon="-79.02614">
        <ele>173.9</ele>
        <time>2024-09-15T11:17:48.000Z</time>
      </trkpt>
      <trkpt lat="42.9858" lon="-79.02667">
        <ele>173.9</ele>
        <time>2024-09-15T11:17:57.000Z</time>
      </trkpt>
      <trkpt lat="42.98594" lon="-79.02677">
        <ele>173.9</ele>
        <time>2024-09-15T11:17:59.000Z</time>
      </trkpt>
      <trkpt lat="42.98606" lon="-79.02685">
        <ele>173.9</ele>
        <time>2024-09-15T11:18:00.000Z</time>
      </trkpt>
      <trkpt lat="42.98616" lon="-79.02692">
        <ele>173.9</ele>
        <time>2024-09-15T11:18:01.000Z</time>
      </trkpt>
      <trkpt lat="42.98627" lon="-79.02698">
        <ele>173.9</ele>
        <time>2024-09-15T11:18:02.000Z</time>
      </trkpt>
      <trkpt lat="42.98636" lon="-79.0270199">
        <ele>173.9</ele>
        <time>2024-09-15T11:18:03.000Z</time>
      </trkpt>
      <trkpt lat="42.98648" lon="-79.02707">
        <ele>173.9</ele>
        <time>2024-09-15T11:18:04.000Z</time>
      </trkpt>
      <trkpt lat="42.9866" lon="-79.02712">
        <ele>173.9</ele>
        <time>2024-09-15T11:18:05.000Z</time>
      </trkpt>
      <trkpt lat="42.98672" lon="-79.02717">
        <ele>173.9</ele>
        <time>2024-09-15T11:18:06.000Z</time>
      </trkpt>
      <trkpt lat="42.98684" lon="-79.02721">
        <ele>173.9</ele>
        <time>2024-09-15T11:18:07.000Z</time>
      </trkpt>
      <trkpt lat="42.98701" lon="-79.02726">
        <ele>173.9</ele>
        <time>2024-09-15T11:18:09.000Z</time>
      </trkpt>
      <trkpt lat="42.9872" lon="-79.02732">
        <ele>173.9</ele>
        <time>2024-09-15T11:18:11.000Z</time>
      </trkpt>
      <trkpt lat="42.9876" lon="-79.02744">
        <ele>173.9</ele>
        <time>2024-09-15T11:18:16.000Z</time>
      </trkpt>
      <trkpt lat="42.98814" lon="-79.0276">
        <ele>173.9</ele>
        <time>2024-09-15T11:18:22.000Z</time>
      </trkpt>
      <trkpt lat="42.98877" lon="-79.02778">
        <ele>173.9</ele>
        <time>2024-09-15T11:18:29.000Z</time>
      </trkpt>
      <trkpt lat="42.98891" lon="-79.02782">
        <ele>173.9</ele>
        <time>2024-09-15T11:18:31.000Z</time>
      </trkpt>
      <trkpt lat="42.98922" lon="-79.02793">
        <ele>173.9</ele>
        <time>2024-09-15T11:18:35.000Z</time>
      </trkpt>
      <trkpt lat="42.9894" lon="-79.02798">
        <ele>173.9</ele>
        <time>2024-09-15T11:18:37.000Z</time>
      </trkpt>
      <trkpt lat="42.9896" lon="-79.02804">
        <ele>173.9</ele>
        <time>2024-09-15T11:18:39.000Z</time>
      </trkpt>
      <trkpt lat="42.98972" lon="-79.02807">
        <ele>173.9</ele>
        <time>2024-09-15T11:18:40.000Z</time>
      </trkpt>
      <trkpt lat="42.98981" lon="-79.0281">
        <ele>173.9</ele>
        <time>2024-09-15T11:18:41.000Z</time>
      </trkpt>
      <trkpt lat="42.98993" lon="-79.02812">
        <ele>173.9</ele>
        <time>2024-09-15T11:18:42.000Z</time>
      </trkpt>
      <trkpt lat="42.99" lon="-79.02813">
        <ele>173.9</ele>
        <time>2024-09-15T11:18:43.000Z</time>
      </trkpt>
      <trkpt lat="42.9901399" lon="-79.0281399">
        <ele>173.9</ele>
        <time>2024-09-15T11:18:45.000Z</time>
      </trkpt>
      <trkpt lat="42.9902299" lon="-79.02815">
        <ele>173.9</ele>
        <time>2024-09-15T11:18:46.000Z</time>
      </trkpt>
      <trkpt lat="42.99033" lon="-79.02815">
        <ele>173.9</ele>
        <time>2024-09-15T11:18:47.000Z</time>
      </trkpt>
      <trkpt lat="42.99048" lon="-79.0281399">
        <ele>173.9</ele>
        <time>2024-09-15T11:18:49.000Z</time>
      </trkpt>
      <trkpt lat="42.99071" lon="-79.02812">
        <ele>173.9</ele>
        <time>2024-09-15T11:18:52.000Z</time>
      </trkpt>
      <trkpt lat="42.99088" lon="-79.0281">
        <ele>173.9</ele>
        <time>2024-09-15T11:18:54.000Z</time>
      </trkpt>
      <trkpt lat="42.99121" lon="-79.02806">
        <ele>173.9</ele>
        <time>2024-09-15T11:18:58.000Z</time>
      </trkpt>
      <trkpt lat="42.99147" lon="-79.02803">
        <ele>173.9</ele>
        <time>2024-09-15T11:19:01.000Z</time>
      </trkpt>
      <trkpt lat="42.99157" lon="-79.02802">
        <ele>173.9</ele>
        <time>2024-09-15T11:19:02.000Z</time>
      </trkpt>
      <trkpt lat="42.99203" lon="-79.02797">
        <ele>173.9</ele>
        <time>2024-09-15T11:19:07.000Z</time>
      </trkpt>
      <trkpt lat="42.99243" lon="-79.02794">
        <ele>173.9</ele>
        <time>2024-09-15T11:19:11.000Z</time>
      </trkpt>
      <trkpt lat="42.99313" lon="-79.02786">
        <ele>173.9</ele>
        <time>2024-09-15T11:19:19.000Z</time>
      </trkpt>
      <trkpt lat="42.99356" lon="-79.02781">
        <ele>173.9</ele>
        <time>2024-09-15T11:19:24.000Z</time>
      </trkpt>
      <trkpt lat="42.99386" lon="-79.02776">
        <ele>173.9</ele>
        <time>2024-09-15T11:19:27.000Z</time>
      </trkpt>
      <trkpt lat="42.99403" lon="-79.02772">
        <ele>173.9</ele>
        <time>2024-09-15T11:19:29.000Z</time>
      </trkpt>
      <trkpt lat="42.99423" lon="-79.02767">
        <ele>173.9</ele>
        <time>2024-09-15T11:19:31.000Z</time>
      </trkpt>
      <trkpt lat="42.99456" lon="-79.02757">
        <ele>173.9</ele>
        <time>2024-09-15T11:19:35.000Z</time>
      </trkpt>
      <trkpt lat="42.99483" lon="-79.02751">
        <ele>173.9</ele>
        <time>2024-09-15T11:19:38.000Z</time>
      </trkpt>
      <trkpt lat="42.99504" lon="-79.02749">
        <ele>173.9</ele>
        <time>2024-09-15T11:19:40.000Z</time>
      </trkpt>
      <trkpt lat="42.99524" lon="-79.02749">
        <ele>173.9</ele>
        <time>2024-09-15T11:19:42.000Z</time>
      </trkpt>
      <trkpt lat="42.99545" lon="-79.02751">
        <ele>173.9</ele>
        <time>2024-09-15T11:19:44.000Z</time>
      </trkpt>
      <trkpt lat="42.99546" lon="-79.02751">
        <ele>173.9</ele>
        <time>2024-09-15T11:19:44.000Z</time>
      </trkpt>
      <trkpt lat="42.99573" lon="-79.0275599">
        <ele>173.9</ele>
        <time>2024-09-15T11:19:47.000Z</time>
      </trkpt>
      <trkpt lat="42.99592" lon="-79.02759">
        <ele>173.9</ele>
        <time>2024-09-15T11:19:49.000Z</time>
      </trkpt>
      <trkpt lat="42.99625" lon="-79.02765">
        <ele>173.9</ele>
        <time>2024-09-15T11:19:53.000Z</time>
      </trkpt>
      <trkpt lat="42.9973" lon="-79.02786">
        <ele>173.9</ele>
        <time>2024-09-15T11:20:05.000Z</time>
      </trkpt>
      <trkpt lat="42.99742" lon="-79.02789">
        <ele>173.9</ele>
        <time>2024-09-15T11:20:06.000Z</time>
      </trkpt>
      <trkpt lat="42.9977" lon="-79.02797">
        <ele>173.9</ele>
        <time>2024-09-15T11:20:09.000Z</time>
      </trkpt>
      <trkpt lat="42.99788" lon="-79.02802">
        <ele>173.8</ele>
        <time>2024-09-15T11:20:11.000Z</time>
      </trkpt>
      <trkpt lat="42.99818" lon="-79.02813">
        <ele>173.8</ele>
        <time>2024-09-15T11:20:14.000Z</time>
      </trkpt>
      <trkpt lat="42.99864" lon="-79.0283">
        <ele>172.8</ele>
        <time>2024-09-15T11:20:19.000Z</time>
      </trkpt>
      <trkpt lat="42.9995" lon="-79.02861">
        <ele>167.4</ele>
        <time>2024-09-15T11:20:29.000Z</time>
      </trkpt>
      <trkpt lat="43.00012" lon="-79.02884">
        <ele>164.8</ele>
        <time>2024-09-15T11:20:36.000Z</time>
      </trkpt>
      <trkpt lat="43.00036" lon="-79.02892">
        <ele>164.5</ele>
        <time>2024-09-15T11:20:39.000Z</time>
      </trkpt>
      <trkpt lat="43.00106" lon="-79.02918">
        <ele>165.6</ele>
        <time>2024-09-15T11:20:47.000Z</time>
      </trkpt>
      <trkpt lat="43.00106" lon="-79.02918">
        <ele>165.6</ele>
        <time>2024-09-15T11:20:47.000Z</time>
      </trkpt>
      <trkpt lat="43.00138" lon="-79.02932">
        <ele>166.3</ele>
        <time>2024-09-15T11:20:51.000Z</time>
      </trkpt>
      <trkpt lat="43.00151" lon="-79.02937">
        <ele>166.5</ele>
        <time>2024-09-15T11:20:53.000Z</time>
      </trkpt>
      <trkpt lat="43.00167" lon="-79.02942">
        <ele>166.7</ele>
        <time>2024-09-15T11:20:55.000Z</time>
      </trkpt>
      <trkpt lat="43.00185" lon="-79.02948">
        <ele>166.9</ele>
        <time>2024-09-15T11:20:57.000Z</time>
      </trkpt>
      <trkpt lat="43.00223" lon="-79.0296">
        <ele>167.3</ele>
        <time>2024-09-15T11:21:01.000Z</time>
      </trkpt>
      <trkpt lat="43.00248" lon="-79.02967">
        <ele>167.9</ele>
        <time>2024-09-15T11:21:04.000Z</time>
      </trkpt>
      <trkpt lat="43.00277" lon="-79.02973">
        <ele>168.6</ele>
        <time>2024-09-15T11:21:07.000Z</time>
      </trkpt>
      <trkpt lat="43.00301" lon="-79.02977">
        <ele>169</ele>
        <time>2024-09-15T11:21:10.000Z</time>
      </trkpt>
      <trkpt lat="43.0047" lon="-79.03005">
        <ele>173.3</ele>
        <time>2024-09-15T11:21:29.000Z</time>
      </trkpt>
      <trkpt lat="43.00521" lon="-79.03014">
        <ele>173.8</ele>
        <time>2024-09-15T11:21:35.000Z</time>
      </trkpt>
      <trkpt lat="43.00535" lon="-79.03016">
        <ele>173.8</ele>
        <time>2024-09-15T11:21:37.000Z</time>
      </trkpt>
      <trkpt lat="43.00551" lon="-79.03018">
        <ele>173.8</ele>
        <time>2024-09-15T11:21:39.000Z</time>
      </trkpt>
      <trkpt lat="43.00565" lon="-79.0301999">
        <ele>173.8</ele>
        <time>2024-09-15T11:21:41.000Z</time>
      </trkpt>
      <trkpt lat="43.00582" lon="-79.03021">
        <ele>173.8</ele>
        <time>2024-09-15T11:21:43.000Z</time>
      </trkpt>
      <trkpt lat="43.00597" lon="-79.03022">
        <ele>173.8</ele>
        <time>2024-09-15T11:21:45.000Z</time>
      </trkpt>
      <trkpt lat="43.00616" lon="-79.03021">
        <ele>173.8</ele>
        <time>2024-09-15T11:21:47.000Z</time>
      </trkpt>
      <trkpt lat="43.00632" lon="-79.0301999">
        <ele>173.8</ele>
        <time>2024-09-15T11:21:49.000Z</time>
      </trkpt>
      <trkpt lat="43.00649" lon="-79.03018">
        <ele>173.8</ele>
        <time>2024-09-15T11:21:51.000Z</time>
      </trkpt>
      <trkpt lat="43.00683" lon="-79.03013">
        <ele>173.8</ele>
        <time>2024-09-15T11:21:55.000Z</time>
      </trkpt>
      <trkpt lat="43.00712" lon="-79.03009">
        <ele>173.8</ele>
        <time>2024-09-15T11:21:58.000Z</time>
      </trkpt>
      <trkpt lat="43.0073999" lon="-79.03006">
        <ele>173.8</ele>
        <time>2024-09-15T11:22:01.000Z</time>
      </trkpt>
      <trkpt lat="43.00762" lon="-79.03004">
        <ele>173.8</ele>
        <time>2024-09-15T11:22:03.000Z</time>
      </trkpt>
      <trkpt lat="43.00784" lon="-79.03003">
        <ele>173.8</ele>
        <time>2024-09-15T11:22:05.000Z</time>
      </trkpt>
      <trkpt lat="43.00808" lon="-79.03003">
        <ele>173.8</ele>
        <time>2024-09-15T11:22:08.000Z</time>
      </trkpt>
      <trkpt lat="43.00864" lon="-79.03003">
        <ele>173.8</ele>
        <time>2024-09-15T11:22:14.000Z</time>
      </trkpt>
      <trkpt lat="43.00869" lon="-79.03004">
        <ele>173.8</ele>
        <time>2024-09-15T11:22:15.000Z</time>
      </trkpt>
      <trkpt lat="43.00887" lon="-79.03006">
        <ele>173.8</ele>
        <time>2024-09-15T11:22:17.000Z</time>
      </trkpt>
      <trkpt lat="43.00939" lon="-79.03012">
        <ele>173.8</ele>
        <time>2024-09-15T11:22:23.000Z</time>
      </trkpt>
      <trkpt lat="43.0102" lon="-79.03025">
        <ele>173.8</ele>
        <time>2024-09-15T11:22:32.000Z</time>
      </trkpt>
      <trkpt lat="43.01083" lon="-79.03035">
        <ele>173.8</ele>
        <time>2024-09-15T11:22:39.000Z</time>
      </trkpt>
      <trkpt lat="43.0110699" lon="-79.03039">
        <ele>173.8</ele>
        <time>2024-09-15T11:22:42.000Z</time>
      </trkpt>
      <trkpt lat="43.01133" lon="-79.03045">
        <ele>173.8</ele>
        <time>2024-09-15T11:22:45.000Z</time>
      </trkpt>
      <trkpt lat="43.01147" lon="-79.03048">
        <ele>173.8</ele>
        <time>2024-09-15T11:22:47.000Z</time>
      </trkpt>
      <trkpt lat="43.01208" lon="-79.03065">
        <ele>173.8</ele>
        <time>2024-09-15T11:22:54.000Z</time>
      </trkpt>
      <trkpt lat="43.0125" lon="-79.03076">
        <ele>173.8</ele>
        <time>2024-09-15T11:22:59.000Z</time>
      </trkpt>
      <trkpt lat="43.01276" lon="-79.03081">
        <ele>173.8</ele>
        <time>2024-09-15T11:23:02.000Z</time>
      </trkpt>
      <trkpt lat="43.01341" lon="-79.03097">
        <ele>173.8</ele>
        <time>2024-09-15T11:23:09.000Z</time>
      </trkpt>
      <trkpt lat="43.01413" lon="-79.03113">
        <ele>173.8</ele>
        <time>2024-09-15T11:23:17.000Z</time>
      </trkpt>
      <trkpt lat="43.01449" lon="-79.0312">
        <ele>173.8</ele>
        <time>2024-09-15T11:23:21.000Z</time>
      </trkpt>
      <trkpt lat="43.01477" lon="-79.03125">
        <ele>173.8</ele>
        <time>2024-09-15T11:23:24.000Z</time>
      </trkpt>
      <trkpt lat="43.01485" lon="-79.03126">
        <ele>173.8</ele>
        <time>2024-09-15T11:23:25.000Z</time>
      </trkpt>
      <trkpt lat="43.01502" lon="-79.03128">
        <ele>173.8</ele>
        <time>2024-09-15T11:23:27.000Z</time>
      </trkpt>
      <trkpt lat="43.01518" lon="-79.03128">
        <ele>173.8</ele>
        <time>2024-09-15T11:23:29.000Z</time>
      </trkpt>
      <trkpt lat="43.01545" lon="-79.03128">
        <ele>173.8</ele>
        <time>2024-09-15T11:23:32.000Z</time>
      </trkpt>
      <trkpt lat="43.01601" lon="-79.03125">
        <ele>173.8</ele>
        <time>2024-09-15T11:23:38.000Z</time>
      </trkpt>
      <trkpt lat="43.01695" lon="-79.03124">
        <ele>173.8</ele>
        <time>2024-09-15T11:23:48.000Z</time>
      </trkpt>
      <trkpt lat="43.0173599" lon="-79.03121">
        <ele>173.8</ele>
        <time>2024-09-15T11:23:53.000Z</time>
      </trkpt>
      <trkpt lat="43.01789" lon="-79.03118">
        <ele>173.8</ele>
        <time>2024-09-15T11:23:59.000Z</time>
      </trkpt>
      <trkpt lat="43.01812" lon="-79.03116">
        <ele>173.8</ele>
        <time>2024-09-15T11:24:02.000Z</time>
      </trkpt>
      <trkpt lat="43.01828" lon="-79.03113">
        <ele>173.8</ele>
        <time>2024-09-15T11:24:04.000Z</time>
      </trkpt>
      <trkpt lat="43.01847" lon="-79.0311">
        <ele>173.8</ele>
        <time>2024-09-15T11:24:06.000Z</time>
      </trkpt>
      <trkpt lat="43.01876" lon="-79.03104">
        <ele>173.8</ele>
        <time>2024-09-15T11:24:09.000Z</time>
      </trkpt>
      <trkpt lat="43.01892" lon="-79.031">
        <ele>173.8</ele>
        <time>2024-09-15T11:24:11.000Z</time>
      </trkpt>
      <trkpt lat="43.01907" lon="-79.0309599">
        <ele>173.8</ele>
        <time>2024-09-15T11:24:13.000Z</time>
      </trkpt>
      <trkpt lat="43.01961" lon="-79.03084">
        <ele>173.8</ele>
        <time>2024-09-15T11:24:19.000Z</time>
      </trkpt>
      <trkpt lat="43.0199799" lon="-79.03075">
        <ele>173.8</ele>
        <time>2024-09-15T11:24:23.000Z</time>
      </trkpt>
      <trkpt lat="43.02008" lon="-79.03072">
        <ele>173.8</ele>
        <time>2024-09-15T11:24:24.000Z</time>
      </trkpt>
      <trkpt lat="43.02023" lon="-79.03067">
        <ele>173.8</ele>
        <time>2024-09-15T11:24:26.000Z</time>
      </trkpt>
      <trkpt lat="43.02046" lon="-79.03057">
        <ele>173.8</ele>
        <time>2024-09-15T11:24:29.000Z</time>
      </trkpt>
      <trkpt lat="43.02069" lon="-79.03046">
        <ele>173.8</ele>
        <time>2024-09-15T11:24:32.000Z</time>
      </trkpt>
      <trkpt lat="43.02098" lon="-79.03031">
        <ele>173.8</ele>
        <time>2024-09-15T11:24:35.000Z</time>
      </trkpt>
      <trkpt lat="43.02121" lon="-79.03018">
        <ele>173.8</ele>
        <time>2024-09-15T11:24:38.000Z</time>
      </trkpt>
      <trkpt lat="43.02141" lon="-79.03006">
        <ele>173.8</ele>
        <time>2024-09-15T11:24:40.000Z</time>
      </trkpt>
      <trkpt lat="43.02156" lon="-79.02996">
        <ele>173.8</ele>
        <time>2024-09-15T11:24:42.000Z</time>
      </trkpt>
      <trkpt lat="43.02167" lon="-79.02988">
        <ele>173.7</ele>
        <time>2024-09-15T11:24:43.000Z</time>
      </trkpt>
      <trkpt lat="43.02192" lon="-79.0297">
        <ele>173.4</ele>
        <time>2024-09-15T11:24:46.000Z</time>
      </trkpt>
      <trkpt lat="43.02258" lon="-79.02918">
        <ele>172.8</ele>
        <time>2024-09-15T11:24:54.000Z</time>
      </trkpt>
      <trkpt lat="43.02305" lon="-79.0288">
        <ele>172.8</ele>
        <time>2024-09-15T11:25:00.000Z</time>
      </trkpt>
      <trkpt lat="43.02333" lon="-79.02858">
        <ele>172.8</ele>
        <time>2024-09-15T11:25:04.000Z</time>
      </trkpt>
      <trkpt lat="43.02348" lon="-79.02845">
        <ele>172.8</ele>
        <time>2024-09-15T11:25:06.000Z</time>
      </trkpt>
      <trkpt lat="43.02348" lon="-79.02845">
        <ele>172.8</ele>
        <time>2024-09-15T11:25:06.000Z</time>
      </trkpt>
      <trkpt lat="43.02353" lon="-79.0284099">
        <ele>172.8</ele>
        <time>2024-09-15T11:25:07.000Z</time>
      </trkpt>
      <trkpt lat="43.02377" lon="-79.02822">
        <ele>172.8</ele>
        <time>2024-09-15T11:25:10.000Z</time>
      </trkpt>
      <trkpt lat="43.02408" lon="-79.02798">
        <ele>172.8</ele>
        <time>2024-09-15T11:25:14.000Z</time>
      </trkpt>
      <trkpt lat="43.02458" lon="-79.02759">
        <ele>172.8</ele>
        <time>2024-09-15T11:25:20.000Z</time>
      </trkpt>
      <trkpt lat="43.02497" lon="-79.02726">
        <ele>172.5</ele>
        <time>2024-09-15T11:25:25.000Z</time>
      </trkpt>
      <trkpt lat="43.02537" lon="-79.02694">
        <ele>172.1</ele>
        <time>2024-09-15T11:25:30.000Z</time>
      </trkpt>
      <trkpt lat="43.02565" lon="-79.02667">
        <ele>171.8</ele>
        <time>2024-09-15T11:25:34.000Z</time>
      </trkpt>
      <trkpt lat="43.02575" lon="-79.02658">
        <ele>171.8</ele>
        <time>2024-09-15T11:25:35.000Z</time>
      </trkpt>
      <trkpt lat="43.02582" lon="-79.02649">
        <ele>171.8</ele>
        <time>2024-09-15T11:25:36.000Z</time>
      </trkpt>
      <trkpt lat="43.02595" lon="-79.02637">
        <ele>171.8</ele>
        <time>2024-09-15T11:25:38.000Z</time>
      </trkpt>
      <trkpt lat="43.02609" lon="-79.02622">
        <ele>171.8</ele>
        <time>2024-09-15T11:25:40.000Z</time>
      </trkpt>
      <trkpt lat="43.02629" lon="-79.02598">
        <ele>171.8</ele>
        <time>2024-09-15T11:25:43.000Z</time>
      </trkpt>
      <trkpt lat="43.02646" lon="-79.02578">
        <ele>171.8</ele>
        <time>2024-09-15T11:25:45.000Z</time>
      </trkpt>
      <trkpt lat="43.02686" lon="-79.02529">
        <ele>171.8</ele>
        <time>2024-09-15T11:25:51.000Z</time>
      </trkpt>
      <trkpt lat="43.0271" lon="-79.02498">
        <ele>171.8</ele>
        <time>2024-09-15T11:25:55.000Z</time>
      </trkpt>
      <trkpt lat="43.02752" lon="-79.02444">
        <ele>171.1</ele>
        <time>2024-09-15T11:26:01.000Z</time>
      </trkpt>
      <trkpt lat="43.02765" lon="-79.02427">
        <ele>170.9</ele>
        <time>2024-09-15T11:26:03.000Z</time>
      </trkpt>
      <trkpt lat="43.02785" lon="-79.02401">
        <ele>170.8</ele>
        <time>2024-09-15T11:26:06.000Z</time>
      </trkpt>
      <trkpt lat="43.02798" lon="-79.02385">
        <ele>170.8</ele>
        <time>2024-09-15T11:26:08.000Z</time>
      </trkpt>
      <trkpt lat="43.0282399" lon="-79.0235299">
        <ele>170.8</ele>
        <time>2024-09-15T11:26:12.000Z</time>
      </trkpt>
      <trkpt lat="43.02845" lon="-79.02329">
        <ele>170.8</ele>
        <time>2024-09-15T11:26:15.000Z</time>
      </trkpt>
      <trkpt lat="43.0288899" lon="-79.02281">
        <ele>170.8</ele>
        <time>2024-09-15T11:26:21.000Z</time>
      </trkpt>
      <trkpt lat="43.0290899" lon="-79.0226">
        <ele>170.8</ele>
        <time>2024-09-15T11:26:24.000Z</time>
      </trkpt>
      <trkpt lat="43.02923" lon="-79.02245">
        <ele>170.8</ele>
        <time>2024-09-15T11:26:26.000Z</time>
      </trkpt>
      <trkpt lat="43.02933" lon="-79.02236">
        <ele>170.7</ele>
        <time>2024-09-15T11:26:27.000Z</time>
      </trkpt>
      <trkpt lat="43.0296" lon="-79.02213">
        <ele>170.3</ele>
        <time>2024-09-15T11:26:31.000Z</time>
      </trkpt>
      <trkpt lat="43.03015" lon="-79.0216499">
        <ele>169.8</ele>
        <time>2024-09-15T11:26:38.000Z</time>
      </trkpt>
      <trkpt lat="43.03046" lon="-79.02139">
        <ele>169.8</ele>
        <time>2024-09-15T11:26:42.000Z</time>
      </trkpt>
      <trkpt lat="43.03095" lon="-79.02097">
        <ele>169.8</ele>
        <time>2024-09-15T11:26:48.000Z</time>
      </trkpt>
      <trkpt lat="43.03107" lon="-79.02088">
        <ele>169.8</ele>
        <time>2024-09-15T11:26:50.000Z</time>
      </trkpt>
      <trkpt lat="43.03137" lon="-79.02067">
        <ele>169.8</ele>
        <time>2024-09-15T11:26:54.000Z</time>
      </trkpt>
      <trkpt lat="43.03184" lon="-79.02036">
        <ele>169.8</ele>
        <time>2024-09-15T11:27:00.000Z</time>
      </trkpt>
      <trkpt lat="43.03233" lon="-79.02004">
        <ele>169.8</ele>
        <time>2024-09-15T11:27:06.000Z</time>
      </trkpt>
      <trkpt lat="43.03305" lon="-79.01956">
        <ele>169.8</ele>
        <time>2024-09-15T11:27:15.000Z</time>
      </trkpt>
      <trkpt lat="43.03356" lon="-79.01922">
        <ele>169.8</ele>
        <time>2024-09-15T11:27:21.000Z</time>
      </trkpt>
      <trkpt lat="43.03427" lon="-79.01875">
        <ele>169.9</ele>
        <time>2024-09-15T11:27:30.000Z</time>
      </trkpt>
      <trkpt lat="43.0346199" lon="-79.01854">
        <ele>169.9</ele>
        <time>2024-09-15T11:27:34.000Z</time>
      </trkpt>
      <trkpt lat="43.03475" lon="-79.01846">
        <ele>169.8</ele>
        <time>2024-09-15T11:27:36.000Z</time>
      </trkpt>
      <trkpt lat="43.03537" lon="-79.01814">
        <ele>170.2</ele>
        <time>2024-09-15T11:27:43.000Z</time>
      </trkpt>
      <trkpt lat="43.03553" lon="-79.01807">
        <ele>170.3</ele>
        <time>2024-09-15T11:27:45.000Z</time>
      </trkpt>
      <trkpt lat="43.0357" lon="-79.018">
        <ele>170.3</ele>
        <time>2024-09-15T11:27:47.000Z</time>
      </trkpt>
      <trkpt lat="43.03579" lon="-79.01797">
        <ele>170.4</ele>
        <time>2024-09-15T11:27:48.000Z</time>
      </trkpt>
      <trkpt lat="43.03604" lon="-79.0179">
        <ele>170.3</ele>
        <time>2024-09-15T11:27:51.000Z</time>
      </trkpt>
      <trkpt lat="43.0364099" lon="-79.0178">
        <ele>170.1</ele>
        <time>2024-09-15T11:27:55.000Z</time>
      </trkpt>
      <trkpt lat="43.03782" lon="-79.01747">
        <ele>169.8</ele>
        <time>2024-09-15T11:28:11.000Z</time>
      </trkpt>
      <trkpt lat="43.03823" lon="-79.01733">
        <ele>169.8</ele>
        <time>2024-09-15T11:28:16.000Z</time>
      </trkpt>
      <trkpt lat="43.03845" lon="-79.0172599">
        <ele>169.8</ele>
        <time>2024-09-15T11:28:19.000Z</time>
      </trkpt>
      <trkpt lat="43.03862" lon="-79.01721">
        <ele>169.8</ele>
        <time>2024-09-15T11:28:21.000Z</time>
      </trkpt>
      <trkpt lat="43.03883" lon="-79.01716">
        <ele>169.8</ele>
        <time>2024-09-15T11:28:23.000Z</time>
      </trkpt>
      <trkpt lat="43.03911" lon="-79.01712">
        <ele>169.8</ele>
        <time>2024-09-15T11:28:26.000Z</time>
      </trkpt>
      <trkpt lat="43.03948" lon="-79.01708">
        <ele>169.8</ele>
        <time>2024-09-15T11:28:30.000Z</time>
      </trkpt>
      <trkpt lat="43.03968" lon="-79.01707">
        <ele>169.8</ele>
        <time>2024-09-15T11:28:32.000Z</time>
      </trkpt>
      <trkpt lat="43.0399699" lon="-79.01707">
        <ele>169.8</ele>
        <time>2024-09-15T11:28:35.000Z</time>
      </trkpt>
      <trkpt lat="43.0404399" lon="-79.01708">
        <ele>169.8</ele>
        <time>2024-09-15T11:28:40.000Z</time>
      </trkpt>
      <trkpt lat="43.04092" lon="-79.01711">
        <ele>169.9</ele>
        <time>2024-09-15T11:28:45.000Z</time>
      </trkpt>
      <trkpt lat="43.04179" lon="-79.0171699">
        <ele>170.8</ele>
        <time>2024-09-15T11:28:55.000Z</time>
      </trkpt>
      <trkpt lat="43.04187" lon="-79.01718">
        <ele>170.8</ele>
        <time>2024-09-15T11:28:56.000Z</time>
      </trkpt>
      <trkpt lat="43.04196" lon="-79.0172">
        <ele>170.8</ele>
        <time>2024-09-15T11:28:57.000Z</time>
      </trkpt>
      <trkpt lat="43.04219" lon="-79.01723">
        <ele>170.8</ele>
        <time>2024-09-15T11:29:00.000Z</time>
      </trkpt>
      <trkpt lat="43.04253" lon="-79.0173">
        <ele>170.9</ele>
        <time>2024-09-15T11:29:04.000Z</time>
      </trkpt>
      <trkpt lat="43.04367" lon="-79.01756">
        <ele>171.8</ele>
        <time>2024-09-15T11:29:17.000Z</time>
      </trkpt>
      <trkpt lat="43.04396" lon="-79.01763">
        <ele>171.8</ele>
        <time>2024-09-15T11:29:20.000Z</time>
      </trkpt>
      <trkpt lat="43.04404" lon="-79.01766">
        <ele>171.8</ele>
        <time>2024-09-15T11:29:21.000Z</time>
      </trkpt>
      <trkpt lat="43.04413" lon="-79.01769">
        <ele>171.9</ele>
        <time>2024-09-15T11:29:22.000Z</time>
      </trkpt>
      <trkpt lat="43.04428" lon="-79.01776">
        <ele>172</ele>
        <time>2024-09-15T11:29:24.000Z</time>
      </trkpt>
      <trkpt lat="43.04443" lon="-79.01783">
        <ele>172.2</ele>
        <time>2024-09-15T11:29:26.000Z</time>
      </trkpt>
      <trkpt lat="43.04559" lon="-79.01842">
        <ele>172.8</ele>
        <time>2024-09-15T11:29:40.000Z</time>
      </trkpt>
      <trkpt lat="43.04661" lon="-79.01892">
        <ele>173.5</ele>
        <time>2024-09-15T11:29:52.000Z</time>
      </trkpt>
      <trkpt lat="43.04684" lon="-79.01903">
        <ele>173.7</ele>
        <time>2024-09-15T11:29:55.000Z</time>
      </trkpt>
      <trkpt lat="43.0471" lon="-79.01917">
        <ele>173.9</ele>
        <time>2024-09-15T11:29:58.000Z</time>
      </trkpt>
      <trkpt lat="43.04726" lon="-79.01926">
        <ele>173.8</ele>
        <time>2024-09-15T11:30:00.000Z</time>
      </trkpt>
      <trkpt lat="43.04735" lon="-79.0193199">
        <ele>173.8</ele>
        <time>2024-09-15T11:30:01.000Z</time>
      </trkpt>
      <trkpt lat="43.04824" lon="-79.01984">
        <ele>173.8</ele>
        <time>2024-09-15T11:30:12.000Z</time>
      </trkpt>
      <trkpt lat="43.04867" lon="-79.02014">
        <ele>173.8</ele>
        <time>2024-09-15T11:30:17.000Z</time>
      </trkpt>
      <trkpt lat="43.0489" lon="-79.0203">
        <ele>173.8</ele>
        <time>2024-09-15T11:30:20.000Z</time>
      </trkpt>
      <trkpt lat="43.04955" lon="-79.02079">
        <ele>173.8</ele>
        <time>2024-09-15T11:30:28.000Z</time>
      </trkpt>
      <trkpt lat="43.04972" lon="-79.02094">
        <ele>173.8</ele>
        <time>2024-09-15T11:30:30.000Z</time>
      </trkpt>
      <trkpt lat="43.0499" lon="-79.02109">
        <ele>173.8</ele>
        <time>2024-09-15T11:30:32.000Z</time>
      </trkpt>
      <trkpt lat="43.05023" lon="-79.02137">
        <ele>173.8</ele>
        <time>2024-09-15T11:30:36.000Z</time>
      </trkpt>
      <trkpt lat="43.05033" lon="-79.0214699">
        <ele>173.8</ele>
        <time>2024-09-15T11:30:37.000Z</time>
      </trkpt>
      <trkpt lat="43.05046" lon="-79.02162">
        <ele>173.8</ele>
        <time>2024-09-15T11:30:39.000Z</time>
      </trkpt>
      <trkpt lat="43.05075" lon="-79.02204">
        <ele>174.2</ele>
        <time>2024-09-15T11:30:44.000Z</time>
      </trkpt>
      <trkpt lat="43.0509" lon="-79.02228">
        <ele>174.5</ele>
        <time>2024-09-15T11:30:47.000Z</time>
      </trkpt>
      <trkpt lat="43.0510499" lon="-79.0224999">
        <ele>174.5</ele>
        <time>2024-09-15T11:30:49.000Z</time>
      </trkpt>
      <trkpt lat="43.05121" lon="-79.02272">
        <ele>174.5</ele>
        <time>2024-09-15T11:30:52.000Z</time>
      </trkpt>
      <trkpt lat="43.05131" lon="-79.02284">
        <ele>174.5</ele>
        <time>2024-09-15T11:30:53.000Z</time>
      </trkpt>
      <trkpt lat="43.0514" lon="-79.02292">
        <ele>174.5</ele>
        <time>2024-09-15T11:30:54.000Z</time>
      </trkpt>
      <trkpt lat="43.05145" lon="-79.02297">
        <ele>174.5</ele>
        <time>2024-09-15T11:30:55.000Z</time>
      </trkpt>
      <trkpt lat="43.05151" lon="-79.02302">
        <ele>174.5</ele>
        <time>2024-09-15T11:30:56.000Z</time>
      </trkpt>
      <trkpt lat="43.05184" lon="-79.0232599">
        <ele>174.5</ele>
        <time>2024-09-15T11:31:00.000Z</time>
      </trkpt>
      <trkpt lat="43.0522599" lon="-79.02347">
        <ele>174</ele>
        <time>2024-09-15T11:31:05.000Z</time>
      </trkpt>
      <trkpt lat="43.05236" lon="-79.02352">
        <ele>173.9</ele>
        <time>2024-09-15T11:31:06.000Z</time>
      </trkpt>
      <trkpt lat="43.05249" lon="-79.02359">
        <ele>173.8</ele>
        <time>2024-09-15T11:31:08.000Z</time>
      </trkpt>
      <trkpt lat="43.05258" lon="-79.02366">
        <ele>173.8</ele>
        <time>2024-09-15T11:31:09.000Z</time>
      </trkpt>
      <trkpt lat="43.05266" lon="-79.02371">
        <ele>173.8</ele>
        <time>2024-09-15T11:31:10.000Z</time>
      </trkpt>
      <trkpt lat="43.05274" lon="-79.02378">
        <ele>173.8</ele>
        <time>2024-09-15T11:31:11.000Z</time>
      </trkpt>
      <trkpt lat="43.05341" lon="-79.0243799">
        <ele>173.7</ele>
        <time>2024-09-15T11:31:20.000Z</time>
      </trkpt>
      <trkpt lat="43.05404" lon="-79.02495">
        <ele>173.8</ele>
        <time>2024-09-15T11:31:28.000Z</time>
      </trkpt>
      <trkpt lat="43.05469" lon="-79.02556">
        <ele>173.2</ele>
        <time>2024-09-15T11:31:37.000Z</time>
      </trkpt>
      <trkpt lat="43.0551699" lon="-79.02601">
        <ele>172.5</ele>
        <time>2024-09-15T11:31:43.000Z</time>
      </trkpt>
      <trkpt lat="43.05553" lon="-79.02633">
        <ele>172.1</ele>
        <time>2024-09-15T11:31:48.000Z</time>
      </trkpt>
      <trkpt lat="43.05614" lon="-79.02682">
        <ele>171.5</ele>
        <time>2024-09-15T11:31:56.000Z</time>
      </trkpt>
      <trkpt lat="43.05732" lon="-79.02767">
        <ele>171</ele>
        <time>2024-09-15T11:32:11.000Z</time>
      </trkpt>
      <trkpt lat="43.0579899" lon="-79.02815">
        <ele>170.8</ele>
        <time>2024-09-15T11:32:19.000Z</time>
      </trkpt>
      <trkpt lat="43.05828" lon="-79.02836">
        <ele>170.8</ele>
        <time>2024-09-15T11:32:23.000Z</time>
      </trkpt>
      <trkpt lat="43.0584" lon="-79.02846">
        <ele>170.8</ele>
        <time>2024-09-15T11:32:25.000Z</time>
      </trkpt>
      <trkpt lat="43.05851" lon="-79.02857">
        <ele>170.8</ele>
        <time>2024-09-15T11:32:27.000Z</time>
      </trkpt>
      <trkpt lat="43.05863" lon="-79.02869">
        <ele>170.8</ele>
        <time>2024-09-15T11:32:29.000Z</time>
      </trkpt>
      <trkpt lat="43.05874" lon="-79.0288099">
        <ele>170.8</ele>
        <time>2024-09-15T11:32:31.000Z</time>
      </trkpt>
      <trkpt lat="43.0588399" lon="-79.02894">
        <ele>170.8</ele>
        <time>2024-09-15T11:32:33.000Z</time>
      </trkpt>
      <trkpt lat="43.05895" lon="-79.0290799">
        <ele>170.8</ele>
        <time>2024-09-15T11:32:35.000Z</time>
      </trkpt>
      <trkpt lat="43.05905" lon="-79.02922">
        <ele>170.9</ele>
        <time>2024-09-15T11:32:37.000Z</time>
      </trkpt>
      <trkpt lat="43.05928" lon="-79.02957">
        <ele>170.7</ele>
        <time>2024-09-15T11:32:41.000Z</time>
      </trkpt>
      <trkpt lat="43.05944" lon="-79.02983">
        <ele>170.7</ele>
        <time>2024-09-15T11:32:44.000Z</time>
      </trkpt>
      <trkpt lat="43.05953" lon="-79.03">
        <ele>170.8</ele>
        <time>2024-09-15T11:32:46.000Z</time>
      </trkpt>
      <trkpt lat="43.05965" lon="-79.03021">
        <ele>171</ele>
        <time>2024-09-15T11:32:48.000Z</time>
      </trkpt>
      <trkpt lat="43.05972" lon="-79.03035">
        <ele>171</ele>
        <time>2024-09-15T11:32:49.000Z</time>
      </trkpt>
      <trkpt lat="43.05984" lon="-79.03063">
        <ele>170.9</ele>
        <time>2024-09-15T11:32:52.000Z</time>
      </trkpt>
      <trkpt lat="43.05994" lon="-79.0309">
        <ele>170.9</ele>
        <time>2024-09-15T11:32:54.000Z</time>
      </trkpt>
      <trkpt lat="43.06003" lon="-79.03117">
        <ele>171.1</ele>
        <time>2024-09-15T11:32:56.000Z</time>
      </trkpt>
      <trkpt lat="43.06009" lon="-79.03135">
        <ele>171.3</ele>
        <time>2024-09-15T11:32:58.000Z</time>
      </trkpt>
      <trkpt lat="43.0601399" lon="-79.03154">
        <ele>171.5</ele>
        <time>2024-09-15T11:33:00.000Z</time>
      </trkpt>
      <trkpt lat="43.06018" lon="-79.03172">
        <ele>171.6</ele>
        <time>2024-09-15T11:33:02.000Z</time>
      </trkpt>
      <trkpt lat="43.06025" lon="-79.03202">
        <ele>171.7</ele>
        <time>2024-09-15T11:33:05.000Z</time>
      </trkpt>
      <trkpt lat="43.0603399" lon="-79.03252">
        <ele>171.9</ele>
        <time>2024-09-15T11:33:09.000Z</time>
      </trkpt>
      <trkpt lat="43.06038" lon="-79.03273">
        <ele>171.8</ele>
        <time>2024-09-15T11:33:11.000Z</time>
      </trkpt>
      <trkpt lat="43.06041" lon="-79.03291">
        <ele>171.8</ele>
        <time>2024-09-15T11:33:12.000Z</time>
      </trkpt>
      <trkpt lat="43.06044" lon="-79.03312">
        <ele>171.8</ele>
        <time>2024-09-15T11:33:14.000Z</time>
      </trkpt>
      <trkpt lat="43.06045" lon="-79.03327">
        <ele>171.8</ele>
        <time>2024-09-15T11:33:15.000Z</time>
      </trkpt>
      <trkpt lat="43.06046" lon="-79.03339">
        <ele>171.8</ele>
        <time>2024-09-15T11:33:16.000Z</time>
      </trkpt>
      <trkpt lat="43.0605199" lon="-79.03476">
        <ele>172.1</ele>
        <time>2024-09-15T11:33:27.000Z</time>
      </trkpt>
      <trkpt lat="43.06054" lon="-79.0354">
        <ele>172.4</ele>
        <time>2024-09-15T11:33:32.000Z</time>
      </trkpt>
      <trkpt lat="43.06057" lon="-79.0364">
        <ele>173</ele>
        <time>2024-09-15T11:33:40.000Z</time>
      </trkpt>
      <trkpt lat="43.06063" lon="-79.03734">
        <ele>172.9</ele>
        <time>2024-09-15T11:33:48.000Z</time>
      </trkpt>
      <trkpt lat="43.06068" lon="-79.03803">
        <ele>173.5</ele>
        <time>2024-09-15T11:33:54.000Z</time>
      </trkpt>
      <trkpt lat="43.06073" lon="-79.03853">
        <ele>173.8</ele>
        <time>2024-09-15T11:33:58.000Z</time>
      </trkpt>
      <trkpt lat="43.06083" lon="-79.03938">
        <ele>173.8</ele>
        <time>2024-09-15T11:34:05.000Z</time>
      </trkpt>
      <trkpt lat="43.06093" lon="-79.04033">
        <ele>174.1</ele>
        <time>2024-09-15T11:34:13.000Z</time>
      </trkpt>
      <trkpt lat="43.06098" lon="-79.04071">
        <ele>174.5</ele>
        <time>2024-09-15T11:34:16.000Z</time>
      </trkpt>
      <trkpt lat="43.06102" lon="-79.04109">
        <ele>174.7</ele>
        <time>2024-09-15T11:34:19.000Z</time>
      </trkpt>
      <trkpt lat="43.06107" lon="-79.04148">
        <ele>174.8</ele>
        <time>2024-09-15T11:34:22.000Z</time>
      </trkpt>
      <trkpt lat="43.06111" lon="-79.04173">
        <ele>174.8</ele>
        <time>2024-09-15T11:34:24.000Z</time>
      </trkpt>
      <trkpt lat="43.06113" lon="-79.04187">
        <ele>174.8</ele>
        <time>2024-09-15T11:34:25.000Z</time>
      </trkpt>
      <trkpt lat="43.06115" lon="-79.04199">
        <ele>174.8</ele>
        <time>2024-09-15T11:34:26.000Z</time>
      </trkpt>
      <trkpt lat="43.06117" lon="-79.0421099">
        <ele>174.8</ele>
        <time>2024-09-15T11:34:27.000Z</time>
      </trkpt>
      <trkpt lat="43.0612" lon="-79.04224">
        <ele>174.8</ele>
        <time>2024-09-15T11:34:28.000Z</time>
      </trkpt>
      <trkpt lat="43.06148" lon="-79.04346">
        <ele>175.703599634</ele>
        <time>2024-09-15T11:34:38.000Z</time>
      </trkpt>
      <trkpt lat="43.06165" lon="-79.04411">
        <ele>176.191436822</ele>
        <time>2024-09-15T11:34:44.000Z</time>
      </trkpt>
      <trkpt lat="43.06188" lon="-79.04499">
        <ele>176.851841282</ele>
        <time>2024-09-15T11:34:52.000Z</time>
      </trkpt>
      <trkpt lat="43.06198" lon="-79.04538">
        <ele>177.143895826</ele>
        <time>2024-09-15T11:34:55.000Z</time>
      </trkpt>
      <trkpt lat="43.06206" lon="-79.04572">
        <ele>177.396292841</ele>
        <time>2024-09-15T11:34:58.000Z</time>
      </trkpt>
      <trkpt lat="43.06212" lon="-79.046">
        <ele>177.602476168</ele>
        <time>2024-09-15T11:35:00.000Z</time>
      </trkpt>
      <trkpt lat="43.06216" lon="-79.04627">
        <ele>177.797141791</ele>
        <time>2024-09-15T11:35:02.000Z</time>
      </trkpt>
      <trkpt lat="43.06218" lon="-79.04638">
        <ele>177.87723878</ele>
        <time>2024-09-15T11:35:03.000Z</time>
      </trkpt>
      <trkpt lat="43.06219" lon="-79.04648">
        <ele>177.94855788</ele>
        <time>2024-09-15T11:35:04.000Z</time>
      </trkpt>
      <trkpt lat="43.0622" lon="-79.04658">
        <ele>178.019876968</ele>
        <time>2024-09-15T11:35:05.000Z</time>
      </trkpt>
      <trkpt lat="43.0622" lon="-79.04666">
        <ele>178.076405197</ele>
        <time>2024-09-15T11:35:06.000Z</time>
      </trkpt>
      <trkpt lat="43.0622" lon="-79.0467199">
        <ele>178.118730709</ele>
        <time>2024-09-15T11:35:06.000Z</time>
      </trkpt>
      <trkpt lat="43.0622" lon="-79.0467199">
        <ele>178.118730709</ele>
        <time>2024-09-15T11:35:06.000Z</time>
      </trkpt>
      <trkpt lat="43.0622" lon="-79.04693">
        <ele>178.267187971</ele>
        <time>2024-09-15T11:35:08.000Z</time>
      </trkpt>
      <trkpt lat="43.0622" lon="-79.04704">
        <ele>178.344914286</ele>
        <time>2024-09-15T11:35:09.000Z</time>
      </trkpt>
      <trkpt lat="43.06217" lon="-79.04724">
        <ele>178.489182553</ele>
        <time>2024-09-15T11:35:11.000Z</time>
      </trkpt>
      <trkpt lat="43.0621099" lon="-79.04744">
        <ele>178.641989792</ele>
        <time>2024-09-15T11:35:13.000Z</time>
      </trkpt>
      <trkpt lat="43.06207" lon="-79.0475699">
        <ele>178.741559404</ele>
        <time>2024-09-15T11:35:14.000Z</time>
      </trkpt>
      <trkpt lat="43.06196" lon="-79.04789">
        <ele>178.991513612</ele>
        <time>2024-09-15T11:35:17.000Z</time>
      </trkpt>
      <trkpt lat="43.06177" lon="-79.0484">
        <ele>179.396028648</ele>
        <time>2024-09-15T11:35:22.000Z</time>
      </trkpt>
      <trkpt lat="43.06157" lon="-79.04894">
        <ele>179.823824105</ele>
        <time>2024-09-15T11:35:27.000Z</time>
      </trkpt>
      <trkpt lat="43.06148" lon="-79.04912">
        <ele>179.977946278</ele>
        <time>2024-09-15T11:35:29.000Z</time>
      </trkpt>
      <trkpt lat="43.06142" lon="-79.04922">
        <ele>180.069380809</ele>
        <time>2024-09-15T11:35:30.000Z</time>
      </trkpt>
      <trkpt lat="43.06134" lon="-79.04932">
        <ele>180.174162853</ele>
        <time>2024-09-15T11:35:31.000Z</time>
      </trkpt>
      <trkpt lat="43.06116" lon="-79.04953">
        <ele>180.402908877</ele>
        <time>2024-09-15T11:35:34.000Z</time>
      </trkpt>
      <trkpt lat="43.06089" lon="-79.04982">
        <ele>180.734841132</ele>
        <time>2024-09-15T11:35:38.000Z</time>
      </trkpt>
      <trkpt lat="43.06075" lon="-79.04996">
        <ele>180.902529595</ele>
        <time>2024-09-15T11:35:40.000Z</time>
      </trkpt>
      <trkpt lat="43.06011" lon="-79.05058">
        <ele>181.660855604</ele>
        <time>2024-09-15T11:35:49.000Z</time>
      </trkpt>
      <trkpt lat="43.05989" lon="-79.05079">
        <ele>181.920261288</ele>
        <time>2024-09-15T11:35:52.000Z</time>
      </trkpt>
      <trkpt lat="43.05964" lon="-79.05101">
        <ele>182.207710553</ele>
        <time>2024-09-15T11:35:55.000Z</time>
      </trkpt>
      <trkpt lat="43.05956" lon="-79.05109">
        <ele>182.303533196</ele>
        <time>2024-09-15T11:35:56.000Z</time>
      </trkpt>
      <trkpt lat="43.05947" lon="-79.05116">
        <ele>182.403648594</ele>
        <time>2024-09-15T11:35:57.000Z</time>
      </trkpt>
      <trkpt lat="43.05927" lon="-79.05134">
        <ele>182.63514931</ele>
        <time>2024-09-15T11:36:00.000Z</time>
      </trkpt>
      <trkpt lat="43.05927" lon="-79.05134">
        <ele>182.63514931</ele>
        <time>2024-09-15T11:36:00.000Z</time>
      </trkpt>
      <trkpt lat="43.0593999" lon="-79.05152">
        <ele>182.813927405</ele>
        <time>2024-09-15T11:36:02.000Z</time>
      </trkpt>
      <trkpt lat="43.05989" lon="-79.05233">
        <ele>183.557082928</ele>
        <time>2024-09-15T11:36:11.000Z</time>
      </trkpt>
      <trkpt lat="43.05997" lon="-79.05247">
        <ele>183.682673648</ele>
        <time>2024-09-15T11:36:12.000Z</time>
      </trkpt>
      <trkpt lat="43.05997" lon="-79.05247">
        <ele>183.682673648</ele>
        <time>2024-09-15T11:36:12.000Z</time>
      </trkpt>
      <trkpt lat="43.06002" lon="-79.0525">
        <ele>183.73547305</ele>
        <time>2024-09-15T11:36:13.000Z</time>
      </trkpt>
      <trkpt lat="43.06006" lon="-79.05253">
        <ele>183.779586056</ele>
        <time>2024-09-15T11:36:14.000Z</time>
      </trkpt>
      <trkpt lat="43.06012" lon="-79.05259">
        <ele>183.851452838</ele>
        <time>2024-09-15T11:36:15.000Z</time>
      </trkpt>
      <trkpt lat="43.0602" lon="-79.05262">
        <ele>183.931675378</ele>
        <time>2024-09-15T11:36:16.000Z</time>
      </trkpt>
      <trkpt lat="43.06026" lon="-79.05262">
        <ele>183.989703606</ele>
        <time>2024-09-15T11:36:17.000Z</time>
      </trkpt>
      <trkpt lat="43.0604" lon="-79.0526">
        <ele>184.125838357</ele>
        <time>2024-09-15T11:36:19.000Z</time>
      </trkpt>
      <trkpt lat="43.06058" lon="-79.0524499">
        <ele>184.329688938</ele>
        <time>2024-09-15T11:36:21.000Z</time>
      </trkpt>
      <trkpt lat="43.0610799" lon="-79.05198">
        <ele>184.916200376</ele>
        <time>2024-09-15T11:36:28.000Z</time>
      </trkpt>
      <trkpt lat="43.0610799" lon="-79.05199">
        <ele>184.923266534</ele>
        <time>2024-09-15T11:36:28.000Z</time>
      </trkpt>
      <trkpt lat="43.06144" lon="-79.05166">
        <ele>185.342388655</ele>
        <time>2024-09-15T11:36:33.000Z</time>
      </trkpt>
      <trkpt lat="43.06182" lon="-79.0513">
        <ele>185.789349536</ele>
        <time>2024-09-15T11:36:38.000Z</time>
      </trkpt>
      <trkpt lat="43.06207" lon="-79.05113">
        <ele>186.059329484</ele>
        <time>2024-09-15T11:36:41.000Z</time>
      </trkpt>
      <trkpt lat="43.06216" lon="-79.05106">
        <ele>186.159443845</ele>
        <time>2024-09-15T11:36:42.000Z</time>
      </trkpt>
      <trkpt lat="43.06224" lon="-79.05101">
        <ele>186.244499628</ele>
        <time>2024-09-15T11:36:43.000Z</time>
      </trkpt>
      <trkpt lat="43.06233" lon="-79.05097">
        <ele>186.336015896</ele>
        <time>2024-09-15T11:36:44.000Z</time>
      </trkpt>
      <trkpt lat="43.06242" lon="-79.05094">
        <ele>186.42560231</ele>
        <time>2024-09-15T11:36:45.000Z</time>
      </trkpt>
      <trkpt lat="43.06251" lon="-79.05091">
        <ele>186.515188717</ele>
        <time>2024-09-15T11:36:46.000Z</time>
      </trkpt>
      <trkpt lat="43.06261" lon="-79.05089">
        <ele>186.612929472</ele>
        <time>2024-09-15T11:36:47.000Z</time>
      </trkpt>
      <trkpt lat="43.06271" lon="-79.05087">
        <ele>186.710670223</ele>
        <time>2024-09-15T11:36:48.000Z</time>
      </trkpt>
      <trkpt lat="43.06282" lon="-79.05086">
        <ele>186.817289706</ele>
        <time>2024-09-15T11:36:49.000Z</time>
      </trkpt>
      <trkpt lat="43.06293" lon="-79.05086">
        <ele>186.923674791</ele>
        <time>2024-09-15T11:36:50.000Z</time>
      </trkpt>
      <trkpt lat="43.06293" lon="-79.05086">
        <ele>186.923674791</ele>
        <time>2024-09-15T11:36:50.000Z</time>
      </trkpt>
      <trkpt lat="43.06294" lon="-79.05062">
        <ele>187.093533003</ele>
        <time>2024-09-15T11:36:52.000Z</time>
      </trkpt>
      <trkpt lat="43.06295" lon="-79.05055">
        <ele>187.143931269</ele>
        <time>2024-09-15T11:36:53.000Z</time>
      </trkpt>
      <trkpt lat="43.06298" lon="-79.05049">
        <ele>187.195304505</ele>
        <time>2024-09-15T11:36:54.000Z</time>
      </trkpt>
      <trkpt lat="43.06301" lon="-79.05044">
        <ele>187.241021083</ele>
        <time>2024-09-15T11:36:55.000Z</time>
      </trkpt>
      <trkpt lat="43.0630499" lon="-79.0503899">
        <ele>187.293387831</ele>
        <time>2024-09-15T11:36:56.000Z</time>
      </trkpt>
      <trkpt lat="43.0631" lon="-79.05035">
        <ele>187.349446698</ele>
        <time>2024-09-15T11:36:57.000Z</time>
      </trkpt>
      <trkpt lat="43.06317" lon="-79.05033">
        <ele>187.418605535</ele>
        <time>2024-09-15T11:36:58.000Z</time>
      </trkpt>
      <trkpt lat="43.06317" lon="-79.05033">
        <ele>187.418605535</ele>
        <time>2024-09-15T11:36:58.000Z</time>
      </trkpt>
      <trkpt lat="43.06317" lon="-79.05028">
        <ele>187.45393512</ele>
        <time>2024-09-15T11:36:58.000Z</time>
      </trkpt>
      <trkpt lat="43.06317" lon="-79.05026">
        <ele>187.468066953</ele>
        <time>2024-09-15T11:36:58.000Z</time>
      </trkpt>
    </trkseg>
  </trk>
</gpx>

<!--
Performance optimized by W3 Total Cache. Learn more: https://www.boldgrid.com/w3-total-cache/?utm_source=w3tc&utm_medium=footer_comment&utm_campaign=free_plugin

Page Caching using Disk: Enhanced{w3tc_pagecache_reject_reason} 

Served from: www.aquabike.world @ 2026-05-10 11:40:57 by W3 Total Cache
-->